<?xml version="1.0" encoding="UTF-8" standalone="no" ?>
<gpx xmlns="http://www.topografix.com/GPX/1/1" xmlns:xsi="http://www.w3.org/2001/XMLSchema-instance" xsi:schemaLocation="http://www.topografix.com/GPX/1/1 http://www.topografix.com/GPX/1/1/gpx.xsd" version="1.1" creator="VisuGPX - https://www.visugpx.com">
  <metadata>
    <name>Balade vélo en forêt de Rougeau (2013-07-13)</name>
    <desc><![CDATA[Balade de 30 km en forêt de Rougeau.]]></desc>
  </metadata>
  <trk>
    <name><![CDATA[Balade vélo en forêt de Rougeau (2013-07-13)_1]]></name>
    <trkseg>
      <trkpt lat="48.56508" lon="2.59286">
        <ele>78</ele>
        <time>2013-07-13T12:18:46Z</time>
      </trkpt>
      <trkpt lat="48.56502" lon="2.59288">
        <ele>78</ele>
        <time>2013-07-13T12:18:50Z</time>
      </trkpt>
      <trkpt lat="48.56485" lon="2.59304">
        <ele>80</ele>
        <time>2013-07-13T12:18:59Z</time>
      </trkpt>
      <trkpt lat="48.56469" lon="2.59318">
        <ele>80</ele>
        <time>2013-07-13T12:19:07Z</time>
      </trkpt>
      <trkpt lat="48.56468" lon="2.59337">
        <ele>80</ele>
        <time>2013-07-13T12:19:12Z</time>
      </trkpt>
      <trkpt lat="48.56468" lon="2.59361">
        <ele>80</ele>
        <time>2013-07-13T12:19:19Z</time>
      </trkpt>
      <trkpt lat="48.56468" lon="2.59388">
        <ele>80</ele>
        <time>2013-07-13T12:19:26Z</time>
      </trkpt>
      <trkpt lat="48.5647" lon="2.59418">
        <ele>79</ele>
        <time>2013-07-13T12:19:33Z</time>
      </trkpt>
      <trkpt lat="48.5647" lon="2.59422">
        <ele>79</ele>
        <time>2013-07-13T12:19:34Z</time>
      </trkpt>
      <trkpt lat="48.56463" lon="2.59432">
        <ele>79</ele>
        <time>2013-07-13T12:19:38Z</time>
      </trkpt>
      <trkpt lat="48.56438" lon="2.59447">
        <ele>79</ele>
        <time>2013-07-13T12:19:46Z</time>
      </trkpt>
      <trkpt lat="48.56405" lon="2.59465">
        <ele>80</ele>
        <time>2013-07-13T12:19:56Z</time>
      </trkpt>
      <trkpt lat="48.56372" lon="2.59484">
        <ele>81</ele>
        <time>2013-07-13T12:20:05Z</time>
      </trkpt>
      <trkpt lat="48.56348" lon="2.59495">
        <ele>81</ele>
        <time>2013-07-13T12:20:11Z</time>
      </trkpt>
      <trkpt lat="48.5632" lon="2.59521">
        <ele>82</ele>
        <time>2013-07-13T12:20:19Z</time>
      </trkpt>
      <trkpt lat="48.56286" lon="2.59543">
        <ele>83</ele>
        <time>2013-07-13T12:20:28Z</time>
      </trkpt>
      <trkpt lat="48.56273" lon="2.59545">
        <ele>84</ele>
        <time>2013-07-13T12:20:31Z</time>
      </trkpt>
      <trkpt lat="48.56252" lon="2.59556">
        <ele>84</ele>
        <time>2013-07-13T12:20:36Z</time>
      </trkpt>
      <trkpt lat="48.56245" lon="2.59563">
        <ele>84</ele>
        <time>2013-07-13T12:20:38Z</time>
      </trkpt>
      <trkpt lat="48.56224" lon="2.59583">
        <ele>84</ele>
        <time>2013-07-13T12:20:44Z</time>
      </trkpt>
      <trkpt lat="48.56221" lon="2.59586">
        <ele>84</ele>
        <time>2013-07-13T12:20:45Z</time>
      </trkpt>
      <trkpt lat="48.56193" lon="2.5961">
        <ele>84</ele>
        <time>2013-07-13T12:20:53Z</time>
      </trkpt>
      <trkpt lat="48.56171" lon="2.5963">
        <ele>84</ele>
        <time>2013-07-13T12:20:59Z</time>
      </trkpt>
      <trkpt lat="48.5614" lon="2.59656">
        <ele>83</ele>
        <time>2013-07-13T12:21:07Z</time>
      </trkpt>
      <trkpt lat="48.56129" lon="2.59665">
        <ele>83</ele>
        <time>2013-07-13T12:21:10Z</time>
      </trkpt>
      <trkpt lat="48.56115" lon="2.59677">
        <ele>82</ele>
        <time>2013-07-13T12:21:14Z</time>
      </trkpt>
      <trkpt lat="48.56092" lon="2.59697">
        <ele>82</ele>
        <time>2013-07-13T12:21:22Z</time>
      </trkpt>
      <trkpt lat="48.56082" lon="2.59704">
        <ele>81</ele>
        <time>2013-07-13T12:21:27Z</time>
      </trkpt>
      <trkpt lat="48.56079" lon="2.59705">
        <ele>81</ele>
        <time>2013-07-13T12:21:28Z</time>
      </trkpt>
      <trkpt lat="48.56066" lon="2.59695">
        <ele>82</ele>
        <time>2013-07-13T12:21:33Z</time>
      </trkpt>
      <trkpt lat="48.56055" lon="2.59669">
        <ele>82</ele>
        <time>2013-07-13T12:21:39Z</time>
      </trkpt>
      <trkpt lat="48.56043" lon="2.59637">
        <ele>82</ele>
        <time>2013-07-13T12:21:46Z</time>
      </trkpt>
      <trkpt lat="48.56024" lon="2.59596">
        <ele>81</ele>
        <time>2013-07-13T12:21:55Z</time>
      </trkpt>
      <trkpt lat="48.56009" lon="2.59564">
        <ele>81</ele>
        <time>2013-07-13T12:22:01Z</time>
      </trkpt>
      <trkpt lat="48.56007" lon="2.59559">
        <ele>81</ele>
        <time>2013-07-13T12:22:02Z</time>
      </trkpt>
      <trkpt lat="48.56006" lon="2.59546">
        <ele>82</ele>
        <time>2013-07-13T12:22:05Z</time>
      </trkpt>
      <trkpt lat="48.56004" lon="2.5953">
        <ele>82</ele>
        <time>2013-07-13T12:22:10Z</time>
      </trkpt>
      <trkpt lat="48.56011" lon="2.59519">
        <ele>82</ele>
        <time>2013-07-13T12:22:14Z</time>
      </trkpt>
      <trkpt lat="48.56013" lon="2.59511">
        <ele>82</ele>
        <time>2013-07-13T12:22:17Z</time>
      </trkpt>
      <trkpt lat="48.56013" lon="2.59507">
        <ele>82</ele>
        <time>2013-07-13T12:22:22Z</time>
      </trkpt>
      <trkpt lat="48.56011" lon="2.59494">
        <ele>83</ele>
        <time>2013-07-13T12:22:27Z</time>
      </trkpt>
      <trkpt lat="48.56013" lon="2.59488">
        <ele>83</ele>
        <time>2013-07-13T12:22:30Z</time>
      </trkpt>
      <trkpt lat="48.56025" lon="2.59483">
        <ele>83</ele>
        <time>2013-07-13T12:22:36Z</time>
      </trkpt>
      <trkpt lat="48.56031" lon="2.59484">
        <ele>83</ele>
        <time>2013-07-13T12:22:38Z</time>
      </trkpt>
      <trkpt lat="48.56056" lon="2.59484">
        <ele>84</ele>
        <time>2013-07-13T12:22:45Z</time>
      </trkpt>
      <trkpt lat="48.56075" lon="2.59471">
        <ele>84</ele>
        <time>2013-07-13T12:22:50Z</time>
      </trkpt>
      <trkpt lat="48.5608" lon="2.59468">
        <ele>84</ele>
        <time>2013-07-13T12:22:52Z</time>
      </trkpt>
      <trkpt lat="48.56083" lon="2.59455">
        <ele>85</ele>
        <time>2013-07-13T12:22:58Z</time>
      </trkpt>
      <trkpt lat="48.56081" lon="2.59443">
        <ele>85</ele>
        <time>2013-07-13T12:23:05Z</time>
      </trkpt>
      <trkpt lat="48.56081" lon="2.59438">
        <ele>85</ele>
        <time>2013-07-13T12:23:07Z</time>
      </trkpt>
      <trkpt lat="48.56079" lon="2.59417">
        <ele>87</ele>
        <time>2013-07-13T12:23:11Z</time>
      </trkpt>
      <trkpt lat="48.5607" lon="2.59381">
        <ele>86</ele>
        <time>2013-07-13T12:23:18Z</time>
      </trkpt>
      <trkpt lat="48.56069" lon="2.59355">
        <ele>86</ele>
        <time>2013-07-13T12:23:22Z</time>
      </trkpt>
      <trkpt lat="48.56068" lon="2.59326">
        <ele>86</ele>
        <time>2013-07-13T12:23:27Z</time>
      </trkpt>
      <trkpt lat="48.56065" lon="2.59312">
        <ele>86</ele>
        <time>2013-07-13T12:23:29Z</time>
      </trkpt>
      <trkpt lat="48.56063" lon="2.59285">
        <ele>86</ele>
        <time>2013-07-13T12:23:33Z</time>
      </trkpt>
      <trkpt lat="48.56061" lon="2.59271">
        <ele>86</ele>
        <time>2013-07-13T12:23:35Z</time>
      </trkpt>
      <trkpt lat="48.56052" lon="2.5924">
        <ele>85</ele>
        <time>2013-07-13T12:23:40Z</time>
      </trkpt>
      <trkpt lat="48.56047" lon="2.59227">
        <ele>85</ele>
        <time>2013-07-13T12:23:42Z</time>
      </trkpt>
      <trkpt lat="48.56037" lon="2.59201">
        <ele>85</ele>
        <time>2013-07-13T12:23:46Z</time>
      </trkpt>
      <trkpt lat="48.56029" lon="2.59182">
        <ele>85</ele>
        <time>2013-07-13T12:23:49Z</time>
      </trkpt>
      <trkpt lat="48.56015" lon="2.59153">
        <ele>84</ele>
        <time>2013-07-13T12:23:54Z</time>
      </trkpt>
      <trkpt lat="48.56003" lon="2.59122">
        <ele>84</ele>
        <time>2013-07-13T12:23:59Z</time>
      </trkpt>
      <trkpt lat="48.55996" lon="2.59102">
        <ele>83</ele>
        <time>2013-07-13T12:24:02Z</time>
      </trkpt>
      <trkpt lat="48.5599" lon="2.59062">
        <ele>82</ele>
        <time>2013-07-13T12:24:07Z</time>
      </trkpt>
      <trkpt lat="48.55988" lon="2.59038">
        <ele>82</ele>
        <time>2013-07-13T12:24:10Z</time>
      </trkpt>
      <trkpt lat="48.55983" lon="2.59008">
        <ele>82</ele>
        <time>2013-07-13T12:24:15Z</time>
      </trkpt>
      <trkpt lat="48.55976" lon="2.58963">
        <ele>80</ele>
        <time>2013-07-13T12:24:21Z</time>
      </trkpt>
      <trkpt lat="48.55974" lon="2.58923">
        <ele>79</ele>
        <time>2013-07-13T12:24:26Z</time>
      </trkpt>
      <trkpt lat="48.55969" lon="2.58889">
        <ele>77</ele>
        <time>2013-07-13T12:24:30Z</time>
      </trkpt>
      <trkpt lat="48.55962" lon="2.58829">
        <ele>74</ele>
        <time>2013-07-13T12:24:37Z</time>
      </trkpt>
      <trkpt lat="48.55952" lon="2.58761">
        <ele>72</ele>
        <time>2013-07-13T12:24:44Z</time>
      </trkpt>
      <trkpt lat="48.55949" lon="2.58747">
        <ele>70</ele>
        <time>2013-07-13T12:24:46Z</time>
      </trkpt>
      <trkpt lat="48.55955" lon="2.58737">
        <ele>70</ele>
        <time>2013-07-13T12:24:50Z</time>
      </trkpt>
      <trkpt lat="48.55967" lon="2.58744">
        <ele>70</ele>
        <time>2013-07-13T12:24:54Z</time>
      </trkpt>
      <trkpt lat="48.5597" lon="2.58745">
        <ele>70</ele>
        <time>2013-07-13T12:24:55Z</time>
      </trkpt>
      <trkpt lat="48.55999" lon="2.58761">
        <ele>71</ele>
        <time>2013-07-13T12:25:02Z</time>
      </trkpt>
      <trkpt lat="48.56023" lon="2.58776">
        <ele>74</ele>
        <time>2013-07-13T12:25:09Z</time>
      </trkpt>
      <trkpt lat="48.56043" lon="2.58787">
        <ele>75</ele>
        <time>2013-07-13T12:25:15Z</time>
      </trkpt>
      <trkpt lat="48.56051" lon="2.58797">
        <ele>75</ele>
        <time>2013-07-13T12:25:19Z</time>
      </trkpt>
      <trkpt lat="48.56065" lon="2.5881">
        <ele>76</ele>
        <time>2013-07-13T12:25:24Z</time>
      </trkpt>
      <trkpt lat="48.56079" lon="2.58823">
        <ele>78</ele>
        <time>2013-07-13T12:25:30Z</time>
      </trkpt>
      <trkpt lat="48.56082" lon="2.58825">
        <ele>79</ele>
        <time>2013-07-13T12:25:35Z</time>
      </trkpt>
      <trkpt lat="48.56083" lon="2.58824">
        <ele>78</ele>
        <time>2013-07-13T12:25:40Z</time>
      </trkpt>
      <trkpt lat="48.5608" lon="2.58822">
        <ele>78</ele>
        <time>2013-07-13T12:25:43Z</time>
      </trkpt>
      <trkpt lat="48.56064" lon="2.58808">
        <ele>76</ele>
        <time>2013-07-13T12:25:49Z</time>
      </trkpt>
      <trkpt lat="48.5605" lon="2.58789">
        <ele>75</ele>
        <time>2013-07-13T12:25:54Z</time>
      </trkpt>
      <trkpt lat="48.56046" lon="2.58783">
        <ele>75</ele>
        <time>2013-07-13T12:25:56Z</time>
      </trkpt>
      <trkpt lat="48.56053" lon="2.58768">
        <ele>74</ele>
        <time>2013-07-13T12:26:00Z</time>
      </trkpt>
      <trkpt lat="48.56066" lon="2.58749">
        <ele>71</ele>
        <time>2013-07-13T12:26:04Z</time>
      </trkpt>
      <trkpt lat="48.56072" lon="2.58749">
        <ele>72</ele>
        <time>2013-07-13T12:26:08Z</time>
      </trkpt>
      <trkpt lat="48.56079" lon="2.58751">
        <ele>73</ele>
        <time>2013-07-13T12:26:14Z</time>
      </trkpt>
      <trkpt lat="48.56078" lon="2.58741">
        <ele>72</ele>
        <time>2013-07-13T12:26:18Z</time>
      </trkpt>
      <trkpt lat="48.56073" lon="2.5873">
        <ele>71</ele>
        <time>2013-07-13T12:26:22Z</time>
      </trkpt>
      <trkpt lat="48.56072" lon="2.58724">
        <ele>70</ele>
        <time>2013-07-13T12:26:24Z</time>
      </trkpt>
      <trkpt lat="48.56056" lon="2.58705">
        <ele>69</ele>
        <time>2013-07-13T12:26:30Z</time>
      </trkpt>
      <trkpt lat="48.56032" lon="2.58674">
        <ele>68</ele>
        <time>2013-07-13T12:26:37Z</time>
      </trkpt>
      <trkpt lat="48.56029" lon="2.5867">
        <ele>68</ele>
        <time>2013-07-13T12:26:38Z</time>
      </trkpt>
      <trkpt lat="48.5602" lon="2.58638">
        <ele>66</ele>
        <time>2013-07-13T12:26:43Z</time>
      </trkpt>
      <trkpt lat="48.56024" lon="2.58612">
        <ele>66</ele>
        <time>2013-07-13T12:26:47Z</time>
      </trkpt>
      <trkpt lat="48.5603" lon="2.58601">
        <ele>66</ele>
        <time>2013-07-13T12:26:49Z</time>
      </trkpt>
      <trkpt lat="48.56057" lon="2.58555">
        <ele>66</ele>
        <time>2013-07-13T12:26:58Z</time>
      </trkpt>
      <trkpt lat="48.5607" lon="2.58526">
        <ele>66</ele>
        <time>2013-07-13T12:27:03Z</time>
      </trkpt>
      <trkpt lat="48.56073" lon="2.58514">
        <ele>66</ele>
        <time>2013-07-13T12:27:05Z</time>
      </trkpt>
      <trkpt lat="48.56078" lon="2.58501">
        <ele>66</ele>
        <time>2013-07-13T12:27:07Z</time>
      </trkpt>
      <trkpt lat="48.56091" lon="2.58473">
        <ele>66</ele>
        <time>2013-07-13T12:27:12Z</time>
      </trkpt>
      <trkpt lat="48.56095" lon="2.58467">
        <ele>66</ele>
        <time>2013-07-13T12:27:13Z</time>
      </trkpt>
      <trkpt lat="48.56102" lon="2.58455">
        <ele>67</ele>
        <time>2013-07-13T12:27:15Z</time>
      </trkpt>
      <trkpt lat="48.56129" lon="2.5842">
        <ele>67</ele>
        <time>2013-07-13T12:27:22Z</time>
      </trkpt>
      <trkpt lat="48.56136" lon="2.58412">
        <ele>67</ele>
        <time>2013-07-13T12:27:24Z</time>
      </trkpt>
      <trkpt lat="48.56149" lon="2.58393">
        <ele>68</ele>
        <time>2013-07-13T12:27:29Z</time>
      </trkpt>
      <trkpt lat="48.56141" lon="2.58378">
        <ele>68</ele>
        <time>2013-07-13T12:27:33Z</time>
      </trkpt>
      <trkpt lat="48.56138" lon="2.58375">
        <ele>68</ele>
        <time>2013-07-13T12:27:34Z</time>
      </trkpt>
      <trkpt lat="48.56115" lon="2.58362">
        <ele>68</ele>
        <time>2013-07-13T12:27:40Z</time>
      </trkpt>
      <trkpt lat="48.56092" lon="2.58358">
        <ele>67</ele>
        <time>2013-07-13T12:27:46Z</time>
      </trkpt>
      <trkpt lat="48.56065" lon="2.58377">
        <ele>68</ele>
        <time>2013-07-13T12:27:53Z</time>
      </trkpt>
      <trkpt lat="48.56037" lon="2.58398">
        <ele>68</ele>
        <time>2013-07-13T12:27:59Z</time>
      </trkpt>
      <trkpt lat="48.56032" lon="2.58402">
        <ele>69</ele>
        <time>2013-07-13T12:28:00Z</time>
      </trkpt>
      <trkpt lat="48.56022" lon="2.58413">
        <ele>69</ele>
        <time>2013-07-13T12:28:02Z</time>
      </trkpt>
      <trkpt lat="48.5598" lon="2.58447">
        <ele>68</ele>
        <time>2013-07-13T12:28:10Z</time>
      </trkpt>
      <trkpt lat="48.55945" lon="2.58476">
        <ele>67</ele>
        <time>2013-07-13T12:28:17Z</time>
      </trkpt>
      <trkpt lat="48.55911" lon="2.58506">
        <ele>66</ele>
        <time>2013-07-13T12:28:25Z</time>
      </trkpt>
      <trkpt lat="48.55878" lon="2.58535">
        <ele>68</ele>
        <time>2013-07-13T12:28:34Z</time>
      </trkpt>
      <trkpt lat="48.55847" lon="2.58561">
        <ele>69</ele>
        <time>2013-07-13T12:28:43Z</time>
      </trkpt>
      <trkpt lat="48.5583" lon="2.58576">
        <ele>71</ele>
        <time>2013-07-13T12:28:49Z</time>
      </trkpt>
      <trkpt lat="48.55826" lon="2.58578">
        <ele>71</ele>
        <time>2013-07-13T12:28:51Z</time>
      </trkpt>
      <trkpt lat="48.55823" lon="2.58576">
        <ele>71</ele>
        <time>2013-07-13T12:28:56Z</time>
      </trkpt>
      <trkpt lat="48.55824" lon="2.58576">
        <ele>71</ele>
        <time>2013-07-13T12:29:08Z</time>
      </trkpt>
      <trkpt lat="48.55823" lon="2.58575">
        <ele>71</ele>
        <time>2013-07-13T12:29:22Z</time>
      </trkpt>
      <trkpt lat="48.55822" lon="2.58576">
        <ele>71</ele>
        <time>2013-07-13T12:29:49Z</time>
      </trkpt>
      <trkpt lat="48.55816" lon="2.58576">
        <ele>71</ele>
        <time>2013-07-13T12:29:56Z</time>
      </trkpt>
      <trkpt lat="48.55804" lon="2.58565">
        <ele>72</ele>
        <time>2013-07-13T12:30:01Z</time>
      </trkpt>
      <trkpt lat="48.55785" lon="2.58548">
        <ele>72</ele>
        <time>2013-07-13T12:30:07Z</time>
      </trkpt>
      <trkpt lat="48.55759" lon="2.58527">
        <ele>73</ele>
        <time>2013-07-13T12:30:14Z</time>
      </trkpt>
      <trkpt lat="48.55724" lon="2.58496">
        <ele>74</ele>
        <time>2013-07-13T12:30:23Z</time>
      </trkpt>
      <trkpt lat="48.55702" lon="2.5848">
        <ele>73</ele>
        <time>2013-07-13T12:30:28Z</time>
      </trkpt>
      <trkpt lat="48.55695" lon="2.5847">
        <ele>73</ele>
        <time>2013-07-13T12:30:30Z</time>
      </trkpt>
      <trkpt lat="48.5569" lon="2.58438">
        <ele>73</ele>
        <time>2013-07-13T12:30:34Z</time>
      </trkpt>
      <trkpt lat="48.55688" lon="2.58383">
        <ele>71</ele>
        <time>2013-07-13T12:30:40Z</time>
      </trkpt>
      <trkpt lat="48.5568" lon="2.58354">
        <ele>71</ele>
        <time>2013-07-13T12:30:44Z</time>
      </trkpt>
      <trkpt lat="48.55664" lon="2.5835">
        <ele>70</ele>
        <time>2013-07-13T12:30:47Z</time>
      </trkpt>
      <trkpt lat="48.55658" lon="2.58352">
        <ele>70</ele>
        <time>2013-07-13T12:30:48Z</time>
      </trkpt>
      <trkpt lat="48.55602" lon="2.58383">
        <ele>69</ele>
        <time>2013-07-13T12:30:58Z</time>
      </trkpt>
      <trkpt lat="48.55578" lon="2.58399">
        <ele>69</ele>
        <time>2013-07-13T12:31:03Z</time>
      </trkpt>
      <trkpt lat="48.55568" lon="2.58396">
        <ele>69</ele>
        <time>2013-07-13T12:31:06Z</time>
      </trkpt>
      <trkpt lat="48.55564" lon="2.58378">
        <ele>69</ele>
        <time>2013-07-13T12:31:09Z</time>
      </trkpt>
      <trkpt lat="48.55557" lon="2.58317">
        <ele>70</ele>
        <time>2013-07-13T12:31:17Z</time>
      </trkpt>
      <trkpt lat="48.55547" lon="2.5824">
        <ele>73</ele>
        <time>2013-07-13T12:31:27Z</time>
      </trkpt>
      <trkpt lat="48.5554" lon="2.5818">
        <ele>73</ele>
        <time>2013-07-13T12:31:35Z</time>
      </trkpt>
      <trkpt lat="48.55532" lon="2.58117">
        <ele>72</ele>
        <time>2013-07-13T12:31:44Z</time>
      </trkpt>
      <trkpt lat="48.55527" lon="2.58089">
        <ele>72</ele>
        <time>2013-07-13T12:31:49Z</time>
      </trkpt>
      <trkpt lat="48.55537" lon="2.58082">
        <ele>71</ele>
        <time>2013-07-13T12:31:52Z</time>
      </trkpt>
      <trkpt lat="48.55541" lon="2.58081">
        <ele>71</ele>
        <time>2013-07-13T12:31:53Z</time>
      </trkpt>
      <trkpt lat="48.55571" lon="2.58075">
        <ele>71</ele>
        <time>2013-07-13T12:32:00Z</time>
      </trkpt>
      <trkpt lat="48.55592" lon="2.58071">
        <ele>72</ele>
        <time>2013-07-13T12:32:05Z</time>
      </trkpt>
      <trkpt lat="48.55616" lon="2.58064">
        <ele>72</ele>
        <time>2013-07-13T12:32:11Z</time>
      </trkpt>
      <trkpt lat="48.55619" lon="2.58052">
        <ele>71</ele>
        <time>2013-07-13T12:32:13Z</time>
      </trkpt>
      <trkpt lat="48.55622" lon="2.5802">
        <ele>71</ele>
        <time>2013-07-13T12:32:18Z</time>
      </trkpt>
      <trkpt lat="48.55628" lon="2.57969">
        <ele>69</ele>
        <time>2013-07-13T12:32:26Z</time>
      </trkpt>
      <trkpt lat="48.55635" lon="2.57909">
        <ele>69</ele>
        <time>2013-07-13T12:32:36Z</time>
      </trkpt>
      <trkpt lat="48.55633" lon="2.57874">
        <ele>69</ele>
        <time>2013-07-13T12:32:42Z</time>
      </trkpt>
      <trkpt lat="48.55619" lon="2.57823">
        <ele>71</ele>
        <time>2013-07-13T12:32:51Z</time>
      </trkpt>
      <trkpt lat="48.55613" lon="2.57774">
        <ele>71</ele>
        <time>2013-07-13T12:32:59Z</time>
      </trkpt>
      <trkpt lat="48.55612" lon="2.57744">
        <ele>73</ele>
        <time>2013-07-13T12:33:04Z</time>
      </trkpt>
      <trkpt lat="48.55621" lon="2.57712">
        <ele>73</ele>
        <time>2013-07-13T12:33:10Z</time>
      </trkpt>
      <trkpt lat="48.55631" lon="2.57702">
        <ele>73</ele>
        <time>2013-07-13T12:33:13Z</time>
      </trkpt>
      <trkpt lat="48.55661" lon="2.57687">
        <ele>73</ele>
        <time>2013-07-13T12:33:21Z</time>
      </trkpt>
      <trkpt lat="48.55676" lon="2.5767">
        <ele>73</ele>
        <time>2013-07-13T12:33:26Z</time>
      </trkpt>
      <trkpt lat="48.55691" lon="2.5763">
        <ele>73</ele>
        <time>2013-07-13T12:33:34Z</time>
      </trkpt>
      <trkpt lat="48.55707" lon="2.57588">
        <ele>73</ele>
        <time>2013-07-13T12:33:43Z</time>
      </trkpt>
      <trkpt lat="48.55723" lon="2.57555">
        <ele>73</ele>
        <time>2013-07-13T12:33:50Z</time>
      </trkpt>
      <trkpt lat="48.55749" lon="2.57504">
        <ele>74</ele>
        <time>2013-07-13T12:34:00Z</time>
      </trkpt>
      <trkpt lat="48.55763" lon="2.57478">
        <ele>74</ele>
        <time>2013-07-13T12:34:05Z</time>
      </trkpt>
      <trkpt lat="48.55787" lon="2.57439">
        <ele>75</ele>
        <time>2013-07-13T12:34:14Z</time>
      </trkpt>
      <trkpt lat="48.55801" lon="2.57416">
        <ele>76</ele>
        <time>2013-07-13T12:34:20Z</time>
      </trkpt>
      <trkpt lat="48.55816" lon="2.57392">
        <ele>76</ele>
        <time>2013-07-13T12:34:26Z</time>
      </trkpt>
      <trkpt lat="48.55835" lon="2.5736">
        <ele>76</ele>
        <time>2013-07-13T12:34:33Z</time>
      </trkpt>
      <trkpt lat="48.5585" lon="2.57334">
        <ele>76</ele>
        <time>2013-07-13T12:34:39Z</time>
      </trkpt>
      <trkpt lat="48.5587" lon="2.57299">
        <ele>77</ele>
        <time>2013-07-13T12:34:47Z</time>
      </trkpt>
      <trkpt lat="48.55884" lon="2.57269">
        <ele>76</ele>
        <time>2013-07-13T12:34:54Z</time>
      </trkpt>
      <trkpt lat="48.55899" lon="2.57232">
        <ele>77</ele>
        <time>2013-07-13T12:35:02Z</time>
      </trkpt>
      <trkpt lat="48.55912" lon="2.57203">
        <ele>77</ele>
        <time>2013-07-13T12:35:08Z</time>
      </trkpt>
      <trkpt lat="48.55924" lon="2.57171">
        <ele>77</ele>
        <time>2013-07-13T12:35:14Z</time>
      </trkpt>
      <trkpt lat="48.55927" lon="2.57159">
        <ele>77</ele>
        <time>2013-07-13T12:35:16Z</time>
      </trkpt>
      <trkpt lat="48.55944" lon="2.57113">
        <ele>78</ele>
        <time>2013-07-13T12:35:24Z</time>
      </trkpt>
      <trkpt lat="48.55966" lon="2.57049">
        <ele>80</ele>
        <time>2013-07-13T12:35:35Z</time>
      </trkpt>
      <trkpt lat="48.55987" lon="2.5699">
        <ele>82</ele>
        <time>2013-07-13T12:35:46Z</time>
      </trkpt>
      <trkpt lat="48.55997" lon="2.56963">
        <ele>82</ele>
        <time>2013-07-13T12:35:51Z</time>
      </trkpt>
      <trkpt lat="48.56002" lon="2.56942">
        <ele>82</ele>
        <time>2013-07-13T12:35:55Z</time>
      </trkpt>
      <trkpt lat="48.56015" lon="2.569">
        <ele>84</ele>
        <time>2013-07-13T12:36:05Z</time>
      </trkpt>
      <trkpt lat="48.56022" lon="2.56868">
        <ele>85</ele>
        <time>2013-07-13T12:36:12Z</time>
      </trkpt>
      <trkpt lat="48.56014" lon="2.56857">
        <ele>86</ele>
        <time>2013-07-13T12:36:17Z</time>
      </trkpt>
      <trkpt lat="48.56011" lon="2.56857">
        <ele>86</ele>
        <time>2013-07-13T12:36:18Z</time>
      </trkpt>
      <trkpt lat="48.55988" lon="2.56861">
        <ele>87</ele>
        <time>2013-07-13T12:36:25Z</time>
      </trkpt>
      <trkpt lat="48.55965" lon="2.5687">
        <ele>86</ele>
        <time>2013-07-13T12:36:31Z</time>
      </trkpt>
      <trkpt lat="48.55939" lon="2.56876">
        <ele>86</ele>
        <time>2013-07-13T12:36:37Z</time>
      </trkpt>
      <trkpt lat="48.55925" lon="2.56875">
        <ele>86</ele>
        <time>2013-07-13T12:36:40Z</time>
      </trkpt>
      <trkpt lat="48.55909" lon="2.56869">
        <ele>84</ele>
        <time>2013-07-13T12:36:45Z</time>
      </trkpt>
      <trkpt lat="48.55901" lon="2.56866">
        <ele>84</ele>
        <time>2013-07-13T12:36:49Z</time>
      </trkpt>
      <trkpt lat="48.55882" lon="2.56854">
        <ele>84</ele>
        <time>2013-07-13T12:36:55Z</time>
      </trkpt>
      <trkpt lat="48.55866" lon="2.56842">
        <ele>84</ele>
        <time>2013-07-13T12:36:59Z</time>
      </trkpt>
      <trkpt lat="48.55861" lon="2.5684">
        <ele>84</ele>
        <time>2013-07-13T12:37:00Z</time>
      </trkpt>
      <trkpt lat="48.55846" lon="2.56832">
        <ele>84</ele>
        <time>2013-07-13T12:37:03Z</time>
      </trkpt>
      <trkpt lat="48.55803" lon="2.56821">
        <ele>82</ele>
        <time>2013-07-13T12:37:11Z</time>
      </trkpt>
      <trkpt lat="48.55773" lon="2.56812">
        <ele>82</ele>
        <time>2013-07-13T12:37:17Z</time>
      </trkpt>
      <trkpt lat="48.55751" lon="2.56806">
        <ele>82</ele>
        <time>2013-07-13T12:37:21Z</time>
      </trkpt>
      <trkpt lat="48.55735" lon="2.568">
        <ele>80</ele>
        <time>2013-07-13T12:37:24Z</time>
      </trkpt>
      <trkpt lat="48.55695" lon="2.56796">
        <ele>80</ele>
        <time>2013-07-13T12:37:31Z</time>
      </trkpt>
      <trkpt lat="48.55672" lon="2.56795">
        <ele>79</ele>
        <time>2013-07-13T12:37:36Z</time>
      </trkpt>
      <trkpt lat="48.55664" lon="2.56793">
        <ele>78</ele>
        <time>2013-07-13T12:37:38Z</time>
      </trkpt>
      <trkpt lat="48.55635" lon="2.56789">
        <ele>78</ele>
        <time>2013-07-13T12:37:45Z</time>
      </trkpt>
      <trkpt lat="48.5563" lon="2.56788">
        <ele>78</ele>
        <time>2013-07-13T12:37:46Z</time>
      </trkpt>
      <trkpt lat="48.55595" lon="2.56775">
        <ele>77</ele>
        <time>2013-07-13T12:37:54Z</time>
      </trkpt>
      <trkpt lat="48.55559" lon="2.56757">
        <ele>78</ele>
        <time>2013-07-13T12:38:01Z</time>
      </trkpt>
      <trkpt lat="48.5555" lon="2.56748">
        <ele>78</ele>
        <time>2013-07-13T12:38:03Z</time>
      </trkpt>
      <trkpt lat="48.55538" lon="2.56725">
        <ele>79</ele>
        <time>2013-07-13T12:38:07Z</time>
      </trkpt>
      <trkpt lat="48.55543" lon="2.56692">
        <ele>78</ele>
        <time>2013-07-13T12:38:12Z</time>
      </trkpt>
      <trkpt lat="48.55548" lon="2.56672">
        <ele>78</ele>
        <time>2013-07-13T12:38:15Z</time>
      </trkpt>
      <trkpt lat="48.55552" lon="2.56651">
        <ele>79</ele>
        <time>2013-07-13T12:38:18Z</time>
      </trkpt>
      <trkpt lat="48.55556" lon="2.56636">
        <ele>79</ele>
        <time>2013-07-13T12:38:20Z</time>
      </trkpt>
      <trkpt lat="48.55559" lon="2.56609">
        <ele>79</ele>
        <time>2013-07-13T12:38:24Z</time>
      </trkpt>
      <trkpt lat="48.55562" lon="2.56586">
        <ele>79</ele>
        <time>2013-07-13T12:38:27Z</time>
      </trkpt>
      <trkpt lat="48.55567" lon="2.56564">
        <ele>78</ele>
        <time>2013-07-13T12:38:30Z</time>
      </trkpt>
      <trkpt lat="48.55569" lon="2.56534">
        <ele>77</ele>
        <time>2013-07-13T12:38:34Z</time>
      </trkpt>
      <trkpt lat="48.5558" lon="2.56485">
        <ele>76</ele>
        <time>2013-07-13T12:38:39Z</time>
      </trkpt>
      <trkpt lat="48.5558" lon="2.56485">
        <ele>76</ele>
        <time>2013-07-13T12:38:39Z</time>
      </trkpt>
      <trkpt lat="48.55582" lon="2.56466">
        <ele>75</ele>
        <time>2013-07-13T12:38:41Z</time>
      </trkpt>
      <trkpt lat="48.5559" lon="2.56424">
        <ele>74</ele>
        <time>2013-07-13T12:38:45Z</time>
      </trkpt>
      <trkpt lat="48.55598" lon="2.56394">
        <ele>72</ele>
        <time>2013-07-13T12:38:50Z</time>
      </trkpt>
      <trkpt lat="48.556" lon="2.56391">
        <ele>72</ele>
        <time>2013-07-13T12:38:51Z</time>
      </trkpt>
      <trkpt lat="48.55604" lon="2.56389">
        <ele>72</ele>
        <time>2013-07-13T12:38:53Z</time>
      </trkpt>
      <trkpt lat="48.55603" lon="2.56383">
        <ele>72</ele>
        <time>2013-07-13T12:38:59Z</time>
      </trkpt>
      <trkpt lat="48.55604" lon="2.56376">
        <ele>72</ele>
        <time>2013-07-13T12:39:11Z</time>
      </trkpt>
      <trkpt lat="48.55603" lon="2.56376">
        <ele>72</ele>
        <time>2013-07-13T12:39:30Z</time>
      </trkpt>
      <trkpt lat="48.55603" lon="2.56376">
        <ele>72</ele>
        <time>2013-07-13T12:39:39Z</time>
      </trkpt>
      <trkpt lat="48.55597" lon="2.56376">
        <ele>72</ele>
        <time>2013-07-13T12:39:45Z</time>
      </trkpt>
      <trkpt lat="48.55592" lon="2.56368">
        <ele>72</ele>
        <time>2013-07-13T12:39:51Z</time>
      </trkpt>
      <trkpt lat="48.55591" lon="2.56352">
        <ele>72</ele>
        <time>2013-07-13T12:39:57Z</time>
      </trkpt>
      <trkpt lat="48.55591" lon="2.56332">
        <ele>73</ele>
        <time>2013-07-13T12:40:02Z</time>
      </trkpt>
      <trkpt lat="48.5559" lon="2.56302">
        <ele>71</ele>
        <time>2013-07-13T12:40:08Z</time>
      </trkpt>
      <trkpt lat="48.5559" lon="2.56262">
        <ele>72</ele>
        <time>2013-07-13T12:40:15Z</time>
      </trkpt>
      <trkpt lat="48.55588" lon="2.56242">
        <ele>71</ele>
        <time>2013-07-13T12:40:18Z</time>
      </trkpt>
      <trkpt lat="48.55588" lon="2.56208">
        <ele>69</ele>
        <time>2013-07-13T12:40:23Z</time>
      </trkpt>
      <trkpt lat="48.55586" lon="2.56153">
        <ele>70</ele>
        <time>2013-07-13T12:40:31Z</time>
      </trkpt>
      <trkpt lat="48.55587" lon="2.5611">
        <ele>69</ele>
        <time>2013-07-13T12:40:37Z</time>
      </trkpt>
      <trkpt lat="48.55592" lon="2.56089">
        <ele>70</ele>
        <time>2013-07-13T12:40:40Z</time>
      </trkpt>
      <trkpt lat="48.55602" lon="2.56046">
        <ele>69</ele>
        <time>2013-07-13T12:40:46Z</time>
      </trkpt>
      <trkpt lat="48.55611" lon="2.56011">
        <ele>69</ele>
        <time>2013-07-13T12:40:51Z</time>
      </trkpt>
      <trkpt lat="48.55632" lon="2.55954">
        <ele>69</ele>
        <time>2013-07-13T12:41:00Z</time>
      </trkpt>
      <trkpt lat="48.5564" lon="2.55932">
        <ele>69</ele>
        <time>2013-07-13T12:41:04Z</time>
      </trkpt>
      <trkpt lat="48.55658" lon="2.55886">
        <ele>69</ele>
        <time>2013-07-13T12:41:12Z</time>
      </trkpt>
      <trkpt lat="48.55674" lon="2.55844">
        <ele>65</ele>
        <time>2013-07-13T12:41:18Z</time>
      </trkpt>
      <trkpt lat="48.55695" lon="2.55792">
        <ele>64</ele>
        <time>2013-07-13T12:41:26Z</time>
      </trkpt>
      <trkpt lat="48.55716" lon="2.55738">
        <ele>65</ele>
        <time>2013-07-13T12:41:34Z</time>
      </trkpt>
      <trkpt lat="48.55728" lon="2.55733">
        <ele>64</ele>
        <time>2013-07-13T12:41:38Z</time>
      </trkpt>
      <trkpt lat="48.55745" lon="2.55759">
        <ele>63</ele>
        <time>2013-07-13T12:41:44Z</time>
      </trkpt>
      <trkpt lat="48.55753" lon="2.55769">
        <ele>61</ele>
        <time>2013-07-13T12:41:46Z</time>
      </trkpt>
      <trkpt lat="48.5577" lon="2.55796">
        <ele>61</ele>
        <time>2013-07-13T12:41:51Z</time>
      </trkpt>
      <trkpt lat="48.5578" lon="2.55816">
        <ele>61</ele>
        <time>2013-07-13T12:41:54Z</time>
      </trkpt>
      <trkpt lat="48.55804" lon="2.55844">
        <ele>62</ele>
        <time>2013-07-13T12:41:59Z</time>
      </trkpt>
      <trkpt lat="48.55821" lon="2.55856">
        <ele>63</ele>
        <time>2013-07-13T12:42:04Z</time>
      </trkpt>
      <trkpt lat="48.55821" lon="2.55859">
        <ele>63</ele>
        <time>2013-07-13T12:42:05Z</time>
      </trkpt>
      <trkpt lat="48.55818" lon="2.55875">
        <ele>63</ele>
        <time>2013-07-13T12:42:12Z</time>
      </trkpt>
      <trkpt lat="48.55815" lon="2.55896">
        <ele>64</ele>
        <time>2013-07-13T12:42:20Z</time>
      </trkpt>
      <trkpt lat="48.55812" lon="2.55906">
        <ele>64</ele>
        <time>2013-07-13T12:42:25Z</time>
      </trkpt>
      <trkpt lat="48.5581" lon="2.55922">
        <ele>65</ele>
        <time>2013-07-13T12:42:32Z</time>
      </trkpt>
      <trkpt lat="48.55811" lon="2.5594">
        <ele>65</ele>
        <time>2013-07-13T12:42:40Z</time>
      </trkpt>
      <trkpt lat="48.55813" lon="2.55958">
        <ele>65</ele>
        <time>2013-07-13T12:42:47Z</time>
      </trkpt>
      <trkpt lat="48.55814" lon="2.55978">
        <ele>66</ele>
        <time>2013-07-13T12:42:54Z</time>
      </trkpt>
      <trkpt lat="48.5581" lon="2.56005">
        <ele>67</ele>
        <time>2013-07-13T12:43:01Z</time>
      </trkpt>
      <trkpt lat="48.55807" lon="2.56027">
        <ele>66</ele>
        <time>2013-07-13T12:43:08Z</time>
      </trkpt>
      <trkpt lat="48.55815" lon="2.56037">
        <ele>66</ele>
        <time>2013-07-13T12:43:13Z</time>
      </trkpt>
      <trkpt lat="48.55822" lon="2.56044">
        <ele>67</ele>
        <time>2013-07-13T12:43:17Z</time>
      </trkpt>
      <trkpt lat="48.55832" lon="2.56053">
        <ele>67</ele>
        <time>2013-07-13T12:43:22Z</time>
      </trkpt>
      <trkpt lat="48.55841" lon="2.56065">
        <ele>71</ele>
        <time>2013-07-13T12:43:27Z</time>
      </trkpt>
      <trkpt lat="48.55851" lon="2.56081">
        <ele>71</ele>
        <time>2013-07-13T12:43:33Z</time>
      </trkpt>
      <trkpt lat="48.5586" lon="2.561">
        <ele>70</ele>
        <time>2013-07-13T12:43:39Z</time>
      </trkpt>
      <trkpt lat="48.55867" lon="2.56116">
        <ele>70</ele>
        <time>2013-07-13T12:43:44Z</time>
      </trkpt>
      <trkpt lat="48.55868" lon="2.5612">
        <ele>70</ele>
        <time>2013-07-13T12:43:45Z</time>
      </trkpt>
      <trkpt lat="48.55879" lon="2.56125">
        <ele>70</ele>
        <time>2013-07-13T12:43:50Z</time>
      </trkpt>
      <trkpt lat="48.55886" lon="2.56121">
        <ele>71</ele>
        <time>2013-07-13T12:43:54Z</time>
      </trkpt>
      <trkpt lat="48.559" lon="2.56107">
        <ele>71</ele>
        <time>2013-07-13T12:44:00Z</time>
      </trkpt>
      <trkpt lat="48.55908" lon="2.56099">
        <ele>71</ele>
        <time>2013-07-13T12:44:05Z</time>
      </trkpt>
      <trkpt lat="48.55914" lon="2.56083">
        <ele>72</ele>
        <time>2013-07-13T12:44:10Z</time>
      </trkpt>
      <trkpt lat="48.5592" lon="2.56043">
        <ele>75</ele>
        <time>2013-07-13T12:44:18Z</time>
      </trkpt>
      <trkpt lat="48.55925" lon="2.56009">
        <ele>75</ele>
        <time>2013-07-13T12:44:24Z</time>
      </trkpt>
      <trkpt lat="48.55932" lon="2.55974">
        <ele>78</ele>
        <time>2013-07-13T12:44:30Z</time>
      </trkpt>
      <trkpt lat="48.55933" lon="2.55947">
        <ele>79</ele>
        <time>2013-07-13T12:44:35Z</time>
      </trkpt>
      <trkpt lat="48.55941" lon="2.55927">
        <ele>79</ele>
        <time>2013-07-13T12:44:39Z</time>
      </trkpt>
      <trkpt lat="48.55951" lon="2.55896">
        <ele>81</ele>
        <time>2013-07-13T12:44:44Z</time>
      </trkpt>
      <trkpt lat="48.55956" lon="2.55886">
        <ele>81</ele>
        <time>2013-07-13T12:44:46Z</time>
      </trkpt>
      <trkpt lat="48.55963" lon="2.55863">
        <ele>81</ele>
        <time>2013-07-13T12:44:51Z</time>
      </trkpt>
      <trkpt lat="48.55977" lon="2.55813">
        <ele>81</ele>
        <time>2013-07-13T12:45:00Z</time>
      </trkpt>
      <trkpt lat="48.55986" lon="2.5578">
        <ele>81</ele>
        <time>2013-07-13T12:45:06Z</time>
      </trkpt>
      <trkpt lat="48.55998" lon="2.55743">
        <ele>81</ele>
        <time>2013-07-13T12:45:13Z</time>
      </trkpt>
      <trkpt lat="48.56007" lon="2.55711">
        <ele>82</ele>
        <time>2013-07-13T12:45:19Z</time>
      </trkpt>
      <trkpt lat="48.56013" lon="2.55682">
        <ele>81</ele>
        <time>2013-07-13T12:45:24Z</time>
      </trkpt>
      <trkpt lat="48.56021" lon="2.55655">
        <ele>80</ele>
        <time>2013-07-13T12:45:29Z</time>
      </trkpt>
      <trkpt lat="48.56027" lon="2.5563">
        <ele>80</ele>
        <time>2013-07-13T12:45:33Z</time>
      </trkpt>
      <trkpt lat="48.56037" lon="2.55598">
        <ele>80</ele>
        <time>2013-07-13T12:45:39Z</time>
      </trkpt>
      <trkpt lat="48.5604" lon="2.5558">
        <ele>77</ele>
        <time>2013-07-13T12:45:44Z</time>
      </trkpt>
      <trkpt lat="48.56038" lon="2.55576">
        <ele>77</ele>
        <time>2013-07-13T12:45:46Z</time>
      </trkpt>
      <trkpt lat="48.56016" lon="2.5557">
        <ele>77</ele>
        <time>2013-07-13T12:45:53Z</time>
      </trkpt>
      <trkpt lat="48.55987" lon="2.55566">
        <ele>74</ele>
        <time>2013-07-13T12:46:00Z</time>
      </trkpt>
      <trkpt lat="48.55983" lon="2.55564">
        <ele>73</ele>
        <time>2013-07-13T12:46:01Z</time>
      </trkpt>
      <trkpt lat="48.5598" lon="2.55545">
        <ele>72</ele>
        <time>2013-07-13T12:46:05Z</time>
      </trkpt>
      <trkpt lat="48.55982" lon="2.55539">
        <ele>72</ele>
        <time>2013-07-13T12:46:06Z</time>
      </trkpt>
      <trkpt lat="48.5599" lon="2.55507">
        <ele>72</ele>
        <time>2013-07-13T12:46:11Z</time>
      </trkpt>
      <trkpt lat="48.56002" lon="2.55459">
        <ele>71</ele>
        <time>2013-07-13T12:46:18Z</time>
      </trkpt>
      <trkpt lat="48.56008" lon="2.55435">
        <ele>69</ele>
        <time>2013-07-13T12:46:21Z</time>
      </trkpt>
      <trkpt lat="48.56025" lon="2.55389">
        <ele>67</ele>
        <time>2013-07-13T12:46:27Z</time>
      </trkpt>
      <trkpt lat="48.56035" lon="2.55367">
        <ele>66</ele>
        <time>2013-07-13T12:46:31Z</time>
      </trkpt>
      <trkpt lat="48.56041" lon="2.55347">
        <ele>66</ele>
        <time>2013-07-13T12:46:34Z</time>
      </trkpt>
      <trkpt lat="48.56053" lon="2.55331">
        <ele>64</ele>
        <time>2013-07-13T12:46:38Z</time>
      </trkpt>
      <trkpt lat="48.56069" lon="2.5533">
        <ele>65</ele>
        <time>2013-07-13T12:46:42Z</time>
      </trkpt>
      <trkpt lat="48.56081" lon="2.55331">
        <ele>66</ele>
        <time>2013-07-13T12:46:45Z</time>
      </trkpt>
      <trkpt lat="48.56089" lon="2.55322">
        <ele>65</ele>
        <time>2013-07-13T12:46:49Z</time>
      </trkpt>
      <trkpt lat="48.5609" lon="2.55312">
        <ele>65</ele>
        <time>2013-07-13T12:46:51Z</time>
      </trkpt>
      <trkpt lat="48.56086" lon="2.55272">
        <ele>63</ele>
        <time>2013-07-13T12:46:56Z</time>
      </trkpt>
      <trkpt lat="48.56088" lon="2.5522">
        <ele>60</ele>
        <time>2013-07-13T12:47:01Z</time>
      </trkpt>
      <trkpt lat="48.56089" lon="2.55174">
        <ele>59</ele>
        <time>2013-07-13T12:47:05Z</time>
      </trkpt>
      <trkpt lat="48.56097" lon="2.55129">
        <ele>56</ele>
        <time>2013-07-13T12:47:10Z</time>
      </trkpt>
      <trkpt lat="48.56098" lon="2.55123">
        <ele>56</ele>
        <time>2013-07-13T12:47:11Z</time>
      </trkpt>
      <trkpt lat="48.56094" lon="2.5511">
        <ele>56</ele>
        <time>2013-07-13T12:47:15Z</time>
      </trkpt>
      <trkpt lat="48.56065" lon="2.55105">
        <ele>56</ele>
        <time>2013-07-13T12:47:23Z</time>
      </trkpt>
      <trkpt lat="48.56036" lon="2.55102">
        <ele>56</ele>
        <time>2013-07-13T12:47:30Z</time>
      </trkpt>
      <trkpt lat="48.56028" lon="2.55101">
        <ele>56</ele>
        <time>2013-07-13T12:47:32Z</time>
      </trkpt>
      <trkpt lat="48.56014" lon="2.55094">
        <ele>55</ele>
        <time>2013-07-13T12:47:37Z</time>
      </trkpt>
      <trkpt lat="48.56017" lon="2.55083">
        <ele>52</ele>
        <time>2013-07-13T12:47:39Z</time>
      </trkpt>
      <trkpt lat="48.56025" lon="2.55039">
        <ele>51</ele>
        <time>2013-07-13T12:47:46Z</time>
      </trkpt>
      <trkpt lat="48.56033" lon="2.54983">
        <ele>47</ele>
        <time>2013-07-13T12:47:53Z</time>
      </trkpt>
      <trkpt lat="48.56037" lon="2.54957">
        <ele>47</ele>
        <time>2013-07-13T12:47:56Z</time>
      </trkpt>
      <trkpt lat="48.56039" lon="2.5493">
        <ele>47</ele>
        <time>2013-07-13T12:47:59Z</time>
      </trkpt>
      <trkpt lat="48.56046" lon="2.5487">
        <ele>45</ele>
        <time>2013-07-13T12:48:06Z</time>
      </trkpt>
      <trkpt lat="48.56047" lon="2.54863">
        <ele>45</ele>
        <time>2013-07-13T12:48:07Z</time>
      </trkpt>
      <trkpt lat="48.56051" lon="2.54849">
        <ele>45</ele>
        <time>2013-07-13T12:48:11Z</time>
      </trkpt>
      <trkpt lat="48.56055" lon="2.54847">
        <ele>45</ele>
        <time>2013-07-13T12:48:14Z</time>
      </trkpt>
      <trkpt lat="48.56079" lon="2.5485">
        <ele>45</ele>
        <time>2013-07-13T12:48:21Z</time>
      </trkpt>
      <trkpt lat="48.56106" lon="2.54855">
        <ele>46</ele>
        <time>2013-07-13T12:48:27Z</time>
      </trkpt>
      <trkpt lat="48.56124" lon="2.54858">
        <ele>46</ele>
        <time>2013-07-13T12:48:31Z</time>
      </trkpt>
      <trkpt lat="48.56169" lon="2.54867">
        <ele>44</ele>
        <time>2013-07-13T12:48:40Z</time>
      </trkpt>
      <trkpt lat="48.56202" lon="2.54873">
        <ele>44</ele>
        <time>2013-07-13T12:48:47Z</time>
      </trkpt>
      <trkpt lat="48.56218" lon="2.54877">
        <ele>43</ele>
        <time>2013-07-13T12:48:51Z</time>
      </trkpt>
      <trkpt lat="48.56228" lon="2.54881">
        <ele>43</ele>
        <time>2013-07-13T12:48:54Z</time>
      </trkpt>
      <trkpt lat="48.56246" lon="2.54881">
        <ele>43</ele>
        <time>2013-07-13T12:49:00Z</time>
      </trkpt>
      <trkpt lat="48.56279" lon="2.54889">
        <ele>42</ele>
        <time>2013-07-13T12:49:08Z</time>
      </trkpt>
      <trkpt lat="48.56315" lon="2.54896">
        <ele>42</ele>
        <time>2013-07-13T12:49:16Z</time>
      </trkpt>
      <trkpt lat="48.56356" lon="2.54907">
        <ele>42</ele>
        <time>2013-07-13T12:49:25Z</time>
      </trkpt>
      <trkpt lat="48.56392" lon="2.54915">
        <ele>42</ele>
        <time>2013-07-13T12:49:33Z</time>
      </trkpt>
      <trkpt lat="48.56426" lon="2.5492">
        <ele>43</ele>
        <time>2013-07-13T12:49:40Z</time>
      </trkpt>
      <trkpt lat="48.56446" lon="2.54924">
        <ele>43</ele>
        <time>2013-07-13T12:49:44Z</time>
      </trkpt>
      <trkpt lat="48.56486" lon="2.5493">
        <ele>43</ele>
        <time>2013-07-13T12:49:52Z</time>
      </trkpt>
      <trkpt lat="48.56526" lon="2.54938">
        <ele>43</ele>
        <time>2013-07-13T12:50:00Z</time>
      </trkpt>
      <trkpt lat="48.56564" lon="2.54945">
        <ele>43</ele>
        <time>2013-07-13T12:50:08Z</time>
      </trkpt>
      <trkpt lat="48.566" lon="2.54952">
        <ele>44</ele>
        <time>2013-07-13T12:50:16Z</time>
      </trkpt>
      <trkpt lat="48.56646" lon="2.54962">
        <ele>44</ele>
        <time>2013-07-13T12:50:26Z</time>
      </trkpt>
      <trkpt lat="48.56669" lon="2.54967">
        <ele>45</ele>
        <time>2013-07-13T12:50:31Z</time>
      </trkpt>
      <trkpt lat="48.56689" lon="2.5497">
        <ele>45</ele>
        <time>2013-07-13T12:50:35Z</time>
      </trkpt>
      <trkpt lat="48.56717" lon="2.54977">
        <ele>45</ele>
        <time>2013-07-13T12:50:41Z</time>
      </trkpt>
      <trkpt lat="48.56726" lon="2.54979">
        <ele>45</ele>
        <time>2013-07-13T12:50:43Z</time>
      </trkpt>
      <trkpt lat="48.5674" lon="2.54979">
        <ele>45</ele>
        <time>2013-07-13T12:50:46Z</time>
      </trkpt>
      <trkpt lat="48.56761" lon="2.54967">
        <ele>48</ele>
        <time>2013-07-13T12:50:51Z</time>
      </trkpt>
      <trkpt lat="48.5679" lon="2.54949">
        <ele>48</ele>
        <time>2013-07-13T12:50:57Z</time>
      </trkpt>
      <trkpt lat="48.56835" lon="2.54923">
        <ele>50</ele>
        <time>2013-07-13T12:51:06Z</time>
      </trkpt>
      <trkpt lat="48.56878" lon="2.54897">
        <ele>49</ele>
        <time>2013-07-13T12:51:15Z</time>
      </trkpt>
      <trkpt lat="48.56914" lon="2.54874">
        <ele>49</ele>
        <time>2013-07-13T12:51:23Z</time>
      </trkpt>
      <trkpt lat="48.56936" lon="2.54857">
        <ele>51</ele>
        <time>2013-07-13T12:51:28Z</time>
      </trkpt>
      <trkpt lat="48.56954" lon="2.54842">
        <ele>52</ele>
        <time>2013-07-13T12:51:33Z</time>
      </trkpt>
      <trkpt lat="48.5696" lon="2.54837">
        <ele>52</ele>
        <time>2013-07-13T12:51:35Z</time>
      </trkpt>
      <trkpt lat="48.56977" lon="2.54827">
        <ele>47</ele>
        <time>2013-07-13T12:51:41Z</time>
      </trkpt>
      <trkpt lat="48.5699" lon="2.54818">
        <ele>48</ele>
        <time>2013-07-13T12:51:45Z</time>
      </trkpt>
      <trkpt lat="48.57001" lon="2.54809">
        <ele>52</ele>
        <time>2013-07-13T12:51:49Z</time>
      </trkpt>
      <trkpt lat="48.57014" lon="2.548">
        <ele>52</ele>
        <time>2013-07-13T12:51:54Z</time>
      </trkpt>
      <trkpt lat="48.57023" lon="2.54794">
        <ele>52</ele>
        <time>2013-07-13T12:51:58Z</time>
      </trkpt>
      <trkpt lat="48.57037" lon="2.54788">
        <ele>52</ele>
        <time>2013-07-13T12:52:04Z</time>
      </trkpt>
      <trkpt lat="48.57053" lon="2.54781">
        <ele>53</ele>
        <time>2013-07-13T12:52:10Z</time>
      </trkpt>
      <trkpt lat="48.57071" lon="2.54769">
        <ele>53</ele>
        <time>2013-07-13T12:52:17Z</time>
      </trkpt>
      <trkpt lat="48.57085" lon="2.54755">
        <ele>55</ele>
        <time>2013-07-13T12:52:23Z</time>
      </trkpt>
      <trkpt lat="48.57099" lon="2.54745">
        <ele>53</ele>
        <time>2013-07-13T12:52:29Z</time>
      </trkpt>
      <trkpt lat="48.57117" lon="2.54733">
        <ele>54</ele>
        <time>2013-07-13T12:52:37Z</time>
      </trkpt>
      <trkpt lat="48.57131" lon="2.54729">
        <ele>55</ele>
        <time>2013-07-13T12:52:43Z</time>
      </trkpt>
      <trkpt lat="48.57143" lon="2.54722">
        <ele>56</ele>
        <time>2013-07-13T12:52:48Z</time>
      </trkpt>
      <trkpt lat="48.57157" lon="2.5471">
        <ele>56</ele>
        <time>2013-07-13T12:52:55Z</time>
      </trkpt>
      <trkpt lat="48.5717" lon="2.54699">
        <ele>63</ele>
        <time>2013-07-13T12:53:02Z</time>
      </trkpt>
      <trkpt lat="48.57184" lon="2.54688">
        <ele>63</ele>
        <time>2013-07-13T12:53:10Z</time>
      </trkpt>
      <trkpt lat="48.57202" lon="2.54674">
        <ele>64</ele>
        <time>2013-07-13T12:53:19Z</time>
      </trkpt>
      <trkpt lat="48.57219" lon="2.54659">
        <ele>60</ele>
        <time>2013-07-13T12:53:27Z</time>
      </trkpt>
      <trkpt lat="48.57236" lon="2.54645">
        <ele>61</ele>
        <time>2013-07-13T12:53:35Z</time>
      </trkpt>
      <trkpt lat="48.57253" lon="2.5463">
        <ele>70</ele>
        <time>2013-07-13T12:53:43Z</time>
      </trkpt>
      <trkpt lat="48.57267" lon="2.54617">
        <ele>70</ele>
        <time>2013-07-13T12:53:50Z</time>
      </trkpt>
      <trkpt lat="48.57281" lon="2.54605">
        <ele>71</ele>
        <time>2013-07-13T12:53:57Z</time>
      </trkpt>
      <trkpt lat="48.57298" lon="2.54591">
        <ele>73</ele>
        <time>2013-07-13T12:54:05Z</time>
      </trkpt>
      <trkpt lat="48.5731" lon="2.5458">
        <ele>70</ele>
        <time>2013-07-13T12:54:11Z</time>
      </trkpt>
      <trkpt lat="48.57322" lon="2.54571">
        <ele>72</ele>
        <time>2013-07-13T12:54:17Z</time>
      </trkpt>
      <trkpt lat="48.57331" lon="2.54563">
        <ele>72</ele>
        <time>2013-07-13T12:54:22Z</time>
      </trkpt>
      <trkpt lat="48.57345" lon="2.5455">
        <ele>80</ele>
        <time>2013-07-13T12:54:29Z</time>
      </trkpt>
      <trkpt lat="48.57361" lon="2.54536">
        <ele>80</ele>
        <time>2013-07-13T12:54:37Z</time>
      </trkpt>
      <trkpt lat="48.57375" lon="2.54525">
        <ele>81</ele>
        <time>2013-07-13T12:54:44Z</time>
      </trkpt>
      <trkpt lat="48.5739" lon="2.54514">
        <ele>83</ele>
        <time>2013-07-13T12:54:52Z</time>
      </trkpt>
      <trkpt lat="48.57404" lon="2.54503">
        <ele>85</ele>
        <time>2013-07-13T12:55:00Z</time>
      </trkpt>
      <trkpt lat="48.57416" lon="2.54493">
        <ele>85</ele>
        <time>2013-07-13T12:55:07Z</time>
      </trkpt>
      <trkpt lat="48.57427" lon="2.54488">
        <ele>88</ele>
        <time>2013-07-13T12:55:13Z</time>
      </trkpt>
      <trkpt lat="48.5743" lon="2.54487">
        <ele>88</ele>
        <time>2013-07-13T12:55:15Z</time>
      </trkpt>
      <trkpt lat="48.57433" lon="2.54481">
        <ele>88</ele>
        <time>2013-07-13T12:55:22Z</time>
      </trkpt>
      <trkpt lat="48.57434" lon="2.54474">
        <ele>88</ele>
        <time>2013-07-13T12:55:42Z</time>
      </trkpt>
      <trkpt lat="48.57432" lon="2.54468">
        <ele>88</ele>
        <time>2013-07-13T12:55:52Z</time>
      </trkpt>
      <trkpt lat="48.57435" lon="2.54466">
        <ele>88</ele>
        <time>2013-07-13T12:56:09Z</time>
      </trkpt>
      <trkpt lat="48.57437" lon="2.54464">
        <ele>88</ele>
        <time>2013-07-13T12:56:20Z</time>
      </trkpt>
      <trkpt lat="48.57438" lon="2.54464">
        <ele>88</ele>
        <time>2013-07-13T12:56:30Z</time>
      </trkpt>
      <trkpt lat="48.57438" lon="2.54458">
        <ele>88</ele>
        <time>2013-07-13T12:56:34Z</time>
      </trkpt>
      <trkpt lat="48.57432" lon="2.54443">
        <ele>88</ele>
        <time>2013-07-13T12:56:39Z</time>
      </trkpt>
      <trkpt lat="48.57417" lon="2.54417">
        <ele>85</ele>
        <time>2013-07-13T12:56:45Z</time>
      </trkpt>
      <trkpt lat="48.57415" lon="2.54413">
        <ele>83</ele>
        <time>2013-07-13T12:56:46Z</time>
      </trkpt>
      <trkpt lat="48.57421" lon="2.54387">
        <ele>86</ele>
        <time>2013-07-13T12:56:51Z</time>
      </trkpt>
      <trkpt lat="48.57423" lon="2.54359">
        <ele>84</ele>
        <time>2013-07-13T12:56:55Z</time>
      </trkpt>
      <trkpt lat="48.57422" lon="2.54336">
        <ele>81</ele>
        <time>2013-07-13T12:57:00Z</time>
      </trkpt>
      <trkpt lat="48.57421" lon="2.54333">
        <ele>80</ele>
        <time>2013-07-13T12:57:01Z</time>
      </trkpt>
      <trkpt lat="48.57407" lon="2.54326">
        <ele>73</ele>
        <time>2013-07-13T12:57:06Z</time>
      </trkpt>
      <trkpt lat="48.57404" lon="2.54326">
        <ele>72</ele>
        <time>2013-07-13T12:57:07Z</time>
      </trkpt>
      <trkpt lat="48.57397" lon="2.54323">
        <ele>70</ele>
        <time>2013-07-13T12:57:10Z</time>
      </trkpt>
      <trkpt lat="48.57386" lon="2.54317">
        <ele>67</ele>
        <time>2013-07-13T12:57:15Z</time>
      </trkpt>
      <trkpt lat="48.57371" lon="2.54307">
        <ele>64</ele>
        <time>2013-07-13T12:57:21Z</time>
      </trkpt>
      <trkpt lat="48.57367" lon="2.54305">
        <ele>63</ele>
        <time>2013-07-13T12:57:23Z</time>
      </trkpt>
      <trkpt lat="48.57366" lon="2.54295">
        <ele>63</ele>
        <time>2013-07-13T12:57:27Z</time>
      </trkpt>
      <trkpt lat="48.57366" lon="2.54292">
        <ele>63</ele>
        <time>2013-07-13T12:57:29Z</time>
      </trkpt>
      <trkpt lat="48.57368" lon="2.54283">
        <ele>62</ele>
        <time>2013-07-13T12:57:34Z</time>
      </trkpt>
      <trkpt lat="48.57369" lon="2.54281">
        <ele>62</ele>
        <time>2013-07-13T12:57:52Z</time>
      </trkpt>
      <trkpt lat="48.5737" lon="2.54267">
        <ele>62</ele>
        <time>2013-07-13T12:58:07Z</time>
      </trkpt>
      <trkpt lat="48.57376" lon="2.54254">
        <ele>63</ele>
        <time>2013-07-13T12:58:11Z</time>
      </trkpt>
      <trkpt lat="48.57379" lon="2.54235">
        <ele>58</ele>
        <time>2013-07-13T12:58:16Z</time>
      </trkpt>
      <trkpt lat="48.57382" lon="2.54228">
        <ele>58</ele>
        <time>2013-07-13T12:58:18Z</time>
      </trkpt>
      <trkpt lat="48.57384" lon="2.54224">
        <ele>58</ele>
        <time>2013-07-13T12:58:25Z</time>
      </trkpt>
      <trkpt lat="48.57387" lon="2.54213">
        <ele>58</ele>
        <time>2013-07-13T12:58:31Z</time>
      </trkpt>
      <trkpt lat="48.57394" lon="2.54199">
        <ele>58</ele>
        <time>2013-07-13T12:58:36Z</time>
      </trkpt>
      <trkpt lat="48.57397" lon="2.54188">
        <ele>59</ele>
        <time>2013-07-13T12:58:41Z</time>
      </trkpt>
      <trkpt lat="48.57404" lon="2.54169">
        <ele>61</ele>
        <time>2013-07-13T12:58:47Z</time>
      </trkpt>
      <trkpt lat="48.57407" lon="2.54162">
        <ele>59</ele>
        <time>2013-07-13T12:58:49Z</time>
      </trkpt>
      <trkpt lat="48.57412" lon="2.54147">
        <ele>56</ele>
        <time>2013-07-13T12:58:54Z</time>
      </trkpt>
      <trkpt lat="48.57415" lon="2.54139">
        <ele>55</ele>
        <time>2013-07-13T12:58:57Z</time>
      </trkpt>
      <trkpt lat="48.57422" lon="2.54126">
        <ele>66</ele>
        <time>2013-07-13T12:59:01Z</time>
      </trkpt>
      <trkpt lat="48.57424" lon="2.54124">
        <ele>66</ele>
        <time>2013-07-13T12:59:06Z</time>
      </trkpt>
      <trkpt lat="48.57426" lon="2.54119">
        <ele>66</ele>
        <time>2013-07-13T12:59:12Z</time>
      </trkpt>
      <trkpt lat="48.57428" lon="2.54114">
        <ele>66</ele>
        <time>2013-07-13T12:59:18Z</time>
      </trkpt>
      <trkpt lat="48.57431" lon="2.54106">
        <ele>65</ele>
        <time>2013-07-13T12:59:22Z</time>
      </trkpt>
      <trkpt lat="48.57438" lon="2.54096">
        <ele>64</ele>
        <time>2013-07-13T12:59:26Z</time>
      </trkpt>
      <trkpt lat="48.5744" lon="2.54091">
        <ele>65</ele>
        <time>2013-07-13T12:59:28Z</time>
      </trkpt>
      <trkpt lat="48.57448" lon="2.54075">
        <ele>62</ele>
        <time>2013-07-13T12:59:34Z</time>
      </trkpt>
      <trkpt lat="48.5745" lon="2.54069">
        <ele>63</ele>
        <time>2013-07-13T12:59:36Z</time>
      </trkpt>
      <trkpt lat="48.57457" lon="2.54042">
        <ele>63</ele>
        <time>2013-07-13T12:59:44Z</time>
      </trkpt>
      <trkpt lat="48.57461" lon="2.54028">
        <ele>63</ele>
        <time>2013-07-13T12:59:49Z</time>
      </trkpt>
      <trkpt lat="48.57464" lon="2.54014">
        <ele>64</ele>
        <time>2013-07-13T12:59:53Z</time>
      </trkpt>
      <trkpt lat="48.57467" lon="2.53999">
        <ele>61</ele>
        <time>2013-07-13T12:59:57Z</time>
      </trkpt>
      <trkpt lat="48.57471" lon="2.53988">
        <ele>62</ele>
        <time>2013-07-13T13:00:01Z</time>
      </trkpt>
      <trkpt lat="48.57474" lon="2.53972">
        <ele>61</ele>
        <time>2013-07-13T13:00:06Z</time>
      </trkpt>
      <trkpt lat="48.57476" lon="2.53957">
        <ele>61</ele>
        <time>2013-07-13T13:00:10Z</time>
      </trkpt>
      <trkpt lat="48.57477" lon="2.53942">
        <ele>61</ele>
        <time>2013-07-13T13:00:14Z</time>
      </trkpt>
      <trkpt lat="48.57479" lon="2.53934">
        <ele>61</ele>
        <time>2013-07-13T13:00:17Z</time>
      </trkpt>
      <trkpt lat="48.57485" lon="2.53918">
        <ele>63</ele>
        <time>2013-07-13T13:00:23Z</time>
      </trkpt>
      <trkpt lat="48.57486" lon="2.53909">
        <ele>61</ele>
        <time>2013-07-13T13:00:26Z</time>
      </trkpt>
      <trkpt lat="48.57488" lon="2.53898">
        <ele>59</ele>
        <time>2013-07-13T13:00:31Z</time>
      </trkpt>
      <trkpt lat="48.57489" lon="2.53886">
        <ele>58</ele>
        <time>2013-07-13T13:00:35Z</time>
      </trkpt>
      <trkpt lat="48.57491" lon="2.53874">
        <ele>57</ele>
        <time>2013-07-13T13:00:40Z</time>
      </trkpt>
      <trkpt lat="48.57495" lon="2.53859">
        <ele>57</ele>
        <time>2013-07-13T13:00:47Z</time>
      </trkpt>
      <trkpt lat="48.57496" lon="2.53848">
        <ele>58</ele>
        <time>2013-07-13T13:00:50Z</time>
      </trkpt>
      <trkpt lat="48.57499" lon="2.53837">
        <ele>60</ele>
        <time>2013-07-13T13:00:54Z</time>
      </trkpt>
      <trkpt lat="48.57499" lon="2.53829">
        <ele>59</ele>
        <time>2013-07-13T13:01:28Z</time>
      </trkpt>
      <trkpt lat="48.57498" lon="2.53828">
        <ele>59</ele>
        <time>2013-07-13T13:01:39Z</time>
      </trkpt>
      <trkpt lat="48.57501" lon="2.5382">
        <ele>65</ele>
        <time>2013-07-13T13:01:52Z</time>
      </trkpt>
      <trkpt lat="48.57504" lon="2.53813">
        <ele>67</ele>
        <time>2013-07-13T13:01:57Z</time>
      </trkpt>
      <trkpt lat="48.57507" lon="2.53799">
        <ele>68</ele>
        <time>2013-07-13T13:02:02Z</time>
      </trkpt>
      <trkpt lat="48.5751" lon="2.53777">
        <ele>66</ele>
        <time>2013-07-13T13:02:08Z</time>
      </trkpt>
      <trkpt lat="48.57513" lon="2.53765">
        <ele>65</ele>
        <time>2013-07-13T13:02:12Z</time>
      </trkpt>
      <trkpt lat="48.57513" lon="2.53761">
        <ele>64</ele>
        <time>2013-07-13T13:02:14Z</time>
      </trkpt>
      <trkpt lat="48.57515" lon="2.53755">
        <ele>64</ele>
        <time>2013-07-13T13:02:20Z</time>
      </trkpt>
      <trkpt lat="48.57515" lon="2.53753">
        <ele>64</ele>
        <time>2013-07-13T13:02:25Z</time>
      </trkpt>
      <trkpt lat="48.57516" lon="2.53749">
        <ele>63</ele>
        <time>2013-07-13T13:02:31Z</time>
      </trkpt>
      <trkpt lat="48.57518" lon="2.5374">
        <ele>64</ele>
        <time>2013-07-13T13:02:36Z</time>
      </trkpt>
      <trkpt lat="48.57519" lon="2.53722">
        <ele>65</ele>
        <time>2013-07-13T13:02:42Z</time>
      </trkpt>
      <trkpt lat="48.57522" lon="2.53704">
        <ele>66</ele>
        <time>2013-07-13T13:02:47Z</time>
      </trkpt>
      <trkpt lat="48.57523" lon="2.53693">
        <ele>65</ele>
        <time>2013-07-13T13:02:52Z</time>
      </trkpt>
      <trkpt lat="48.5752" lon="2.53681">
        <ele>64</ele>
        <time>2013-07-13T13:02:57Z</time>
      </trkpt>
      <trkpt lat="48.57521" lon="2.53678">
        <ele>63</ele>
        <time>2013-07-13T13:02:59Z</time>
      </trkpt>
      <trkpt lat="48.57523" lon="2.53667">
        <ele>63</ele>
        <time>2013-07-13T13:03:04Z</time>
      </trkpt>
      <trkpt lat="48.57522" lon="2.53653">
        <ele>62</ele>
        <time>2013-07-13T13:03:08Z</time>
      </trkpt>
      <trkpt lat="48.5752" lon="2.53641">
        <ele>63</ele>
        <time>2013-07-13T13:03:13Z</time>
      </trkpt>
      <trkpt lat="48.57521" lon="2.53634">
        <ele>64</ele>
        <time>2013-07-13T13:03:18Z</time>
      </trkpt>
      <trkpt lat="48.57519" lon="2.53613">
        <ele>63</ele>
        <time>2013-07-13T13:03:23Z</time>
      </trkpt>
      <trkpt lat="48.57519" lon="2.536">
        <ele>61</ele>
        <time>2013-07-13T13:03:28Z</time>
      </trkpt>
      <trkpt lat="48.57521" lon="2.5359">
        <ele>61</ele>
        <time>2013-07-13T13:03:31Z</time>
      </trkpt>
      <trkpt lat="48.57529" lon="2.53563">
        <ele>64</ele>
        <time>2013-07-13T13:03:39Z</time>
      </trkpt>
      <trkpt lat="48.57529" lon="2.53546">
        <ele>65</ele>
        <time>2013-07-13T13:03:43Z</time>
      </trkpt>
      <trkpt lat="48.57527" lon="2.53518">
        <ele>64</ele>
        <time>2013-07-13T13:03:48Z</time>
      </trkpt>
      <trkpt lat="48.57529" lon="2.53499">
        <ele>64</ele>
        <time>2013-07-13T13:03:52Z</time>
      </trkpt>
      <trkpt lat="48.57536" lon="2.53493">
        <ele>66</ele>
        <time>2013-07-13T13:03:57Z</time>
      </trkpt>
      <trkpt lat="48.57545" lon="2.53495">
        <ele>69</ele>
        <time>2013-07-13T13:04:04Z</time>
      </trkpt>
      <trkpt lat="48.57549" lon="2.53495">
        <ele>70</ele>
        <time>2013-07-13T13:04:07Z</time>
      </trkpt>
      <trkpt lat="48.57559" lon="2.53497">
        <ele>72</ele>
        <time>2013-07-13T13:04:14Z</time>
      </trkpt>
      <trkpt lat="48.57563" lon="2.53496">
        <ele>74</ele>
        <time>2013-07-13T13:04:18Z</time>
      </trkpt>
      <trkpt lat="48.57569" lon="2.53491">
        <ele>75</ele>
        <time>2013-07-13T13:04:23Z</time>
      </trkpt>
      <trkpt lat="48.57575" lon="2.53494">
        <ele>77</ele>
        <time>2013-07-13T13:04:27Z</time>
      </trkpt>
      <trkpt lat="48.57581" lon="2.53509">
        <ele>77</ele>
        <time>2013-07-13T13:04:35Z</time>
      </trkpt>
      <trkpt lat="48.57582" lon="2.53509">
        <ele>77</ele>
        <time>2013-07-13T13:04:36Z</time>
      </trkpt>
      <trkpt lat="48.57584" lon="2.53507">
        <ele>82</ele>
        <time>2013-07-13T13:04:42Z</time>
      </trkpt>
      <trkpt lat="48.57583" lon="2.53504">
        <ele>80</ele>
        <time>2013-07-13T13:04:47Z</time>
      </trkpt>
      <trkpt lat="48.57584" lon="2.53498">
        <ele>82</ele>
        <time>2013-07-13T13:05:04Z</time>
      </trkpt>
      <trkpt lat="48.57585" lon="2.53495">
        <ele>83</ele>
        <time>2013-07-13T13:05:06Z</time>
      </trkpt>
      <trkpt lat="48.57586" lon="2.53479">
        <ele>84</ele>
        <time>2013-07-13T13:05:11Z</time>
      </trkpt>
      <trkpt lat="48.57587" lon="2.5345">
        <ele>84</ele>
        <time>2013-07-13T13:05:17Z</time>
      </trkpt>
      <trkpt lat="48.57587" lon="2.53428">
        <ele>84</ele>
        <time>2013-07-13T13:05:22Z</time>
      </trkpt>
      <trkpt lat="48.57588" lon="2.53388">
        <ele>85</ele>
        <time>2013-07-13T13:05:29Z</time>
      </trkpt>
      <trkpt lat="48.57589" lon="2.53361">
        <ele>85</ele>
        <time>2013-07-13T13:05:33Z</time>
      </trkpt>
      <trkpt lat="48.57592" lon="2.53351">
        <ele>85</ele>
        <time>2013-07-13T13:05:35Z</time>
      </trkpt>
      <trkpt lat="48.57591" lon="2.53323">
        <ele>85</ele>
        <time>2013-07-13T13:05:40Z</time>
      </trkpt>
      <trkpt lat="48.57591" lon="2.53316">
        <ele>85</ele>
        <time>2013-07-13T13:05:41Z</time>
      </trkpt>
      <trkpt lat="48.57592" lon="2.53292">
        <ele>86</ele>
        <time>2013-07-13T13:05:46Z</time>
      </trkpt>
      <trkpt lat="48.57592" lon="2.53266">
        <ele>86</ele>
        <time>2013-07-13T13:05:51Z</time>
      </trkpt>
      <trkpt lat="48.57593" lon="2.53241">
        <ele>86</ele>
        <time>2013-07-13T13:05:56Z</time>
      </trkpt>
      <trkpt lat="48.57594" lon="2.53219">
        <ele>86</ele>
        <time>2013-07-13T13:06:00Z</time>
      </trkpt>
      <trkpt lat="48.57594" lon="2.5319">
        <ele>85</ele>
        <time>2013-07-13T13:06:04Z</time>
      </trkpt>
      <trkpt lat="48.57598" lon="2.53142">
        <ele>84</ele>
        <time>2013-07-13T13:06:08Z</time>
      </trkpt>
      <trkpt lat="48.57602" lon="2.53104">
        <ele>84</ele>
        <time>2013-07-13T13:06:12Z</time>
      </trkpt>
      <trkpt lat="48.57602" lon="2.53104">
        <ele>84</ele>
        <time>2013-07-13T13:06:12Z</time>
      </trkpt>
      <trkpt lat="48.57601" lon="2.53095">
        <ele>83</ele>
        <time>2013-07-13T13:06:13Z</time>
      </trkpt>
      <trkpt lat="48.57602" lon="2.53045">
        <ele>83</ele>
        <time>2013-07-13T13:06:18Z</time>
      </trkpt>
      <trkpt lat="48.57602" lon="2.52985">
        <ele>81</ele>
        <time>2013-07-13T13:06:24Z</time>
      </trkpt>
      <trkpt lat="48.57601" lon="2.52957">
        <ele>82</ele>
        <time>2013-07-13T13:06:27Z</time>
      </trkpt>
      <trkpt lat="48.576" lon="2.52906">
        <ele>81</ele>
        <time>2013-07-13T13:06:32Z</time>
      </trkpt>
      <trkpt lat="48.57595" lon="2.52846">
        <ele>80</ele>
        <time>2013-07-13T13:06:37Z</time>
      </trkpt>
      <trkpt lat="48.57595" lon="2.52837">
        <ele>79</ele>
        <time>2013-07-13T13:06:38Z</time>
      </trkpt>
      <trkpt lat="48.57601" lon="2.52766">
        <ele>80</ele>
        <time>2013-07-13T13:06:45Z</time>
      </trkpt>
      <trkpt lat="48.57606" lon="2.52702">
        <ele>80</ele>
        <time>2013-07-13T13:06:51Z</time>
      </trkpt>
      <trkpt lat="48.57608" lon="2.52643">
        <ele>81</ele>
        <time>2013-07-13T13:06:57Z</time>
      </trkpt>
      <trkpt lat="48.57608" lon="2.52588">
        <ele>81</ele>
        <time>2013-07-13T13:07:03Z</time>
      </trkpt>
      <trkpt lat="48.57608" lon="2.52545">
        <ele>83</ele>
        <time>2013-07-13T13:07:08Z</time>
      </trkpt>
      <trkpt lat="48.57609" lon="2.52522">
        <ele>83</ele>
        <time>2013-07-13T13:07:11Z</time>
      </trkpt>
      <trkpt lat="48.57603" lon="2.52513">
        <ele>82</ele>
        <time>2013-07-13T13:07:15Z</time>
      </trkpt>
      <trkpt lat="48.57593" lon="2.5251">
        <ele>81</ele>
        <time>2013-07-13T13:07:19Z</time>
      </trkpt>
      <trkpt lat="48.57578" lon="2.52502">
        <ele>75</ele>
        <time>2013-07-13T13:07:24Z</time>
      </trkpt>
      <trkpt lat="48.57566" lon="2.52497">
        <ele>72</ele>
        <time>2013-07-13T13:07:27Z</time>
      </trkpt>
      <trkpt lat="48.57552" lon="2.52484">
        <ele>69</ele>
        <time>2013-07-13T13:07:31Z</time>
      </trkpt>
      <trkpt lat="48.57544" lon="2.52462">
        <ele>67</ele>
        <time>2013-07-13T13:07:35Z</time>
      </trkpt>
      <trkpt lat="48.57535" lon="2.52439">
        <ele>66</ele>
        <time>2013-07-13T13:07:39Z</time>
      </trkpt>
      <trkpt lat="48.57529" lon="2.52415">
        <ele>62</ele>
        <time>2013-07-13T13:07:43Z</time>
      </trkpt>
      <trkpt lat="48.57527" lon="2.52389">
        <ele>63</ele>
        <time>2013-07-13T13:07:47Z</time>
      </trkpt>
      <trkpt lat="48.57525" lon="2.52376">
        <ele>62</ele>
        <time>2013-07-13T13:07:49Z</time>
      </trkpt>
      <trkpt lat="48.57528" lon="2.52348">
        <ele>61</ele>
        <time>2013-07-13T13:07:54Z</time>
      </trkpt>
      <trkpt lat="48.5753" lon="2.5234">
        <ele>61</ele>
        <time>2013-07-13T13:08:00Z</time>
      </trkpt>
      <trkpt lat="48.57529" lon="2.52341">
        <ele>61</ele>
        <time>2013-07-13T13:08:19Z</time>
      </trkpt>
      <trkpt lat="48.57529" lon="2.52341">
        <ele>61</ele>
        <time>2013-07-13T13:08:41Z</time>
      </trkpt>
      <trkpt lat="48.57529" lon="2.5234">
        <ele>61</ele>
        <time>2013-07-13T13:08:46Z</time>
      </trkpt>
      <trkpt lat="48.5753" lon="2.52338">
        <ele>61</ele>
        <time>2013-07-13T13:08:57Z</time>
      </trkpt>
      <trkpt lat="48.5753" lon="2.52336">
        <ele>61</ele>
        <time>2013-07-13T13:09:21Z</time>
      </trkpt>
      <trkpt lat="48.57529" lon="2.52336">
        <ele>61</ele>
        <time>2013-07-13T13:09:30Z</time>
      </trkpt>
      <trkpt lat="48.57529" lon="2.52338">
        <ele>61</ele>
        <time>2013-07-13T13:09:37Z</time>
      </trkpt>
      <trkpt lat="48.57529" lon="2.52339">
        <ele>61</ele>
        <time>2013-07-13T13:09:45Z</time>
      </trkpt>
      <trkpt lat="48.57529" lon="2.52339">
        <ele>61</ele>
        <time>2013-07-13T13:09:58Z</time>
      </trkpt>
      <trkpt lat="48.57528" lon="2.52339">
        <ele>61</ele>
        <time>2013-07-13T13:10:04Z</time>
      </trkpt>
      <trkpt lat="48.57527" lon="2.52338">
        <ele>61</ele>
        <time>2013-07-13T13:10:11Z</time>
      </trkpt>
      <trkpt lat="48.57527" lon="2.52338">
        <ele>61</ele>
        <time>2013-07-13T13:10:16Z</time>
      </trkpt>
      <trkpt lat="48.57528" lon="2.52338">
        <ele>61</ele>
        <time>2013-07-13T13:10:20Z</time>
      </trkpt>
      <trkpt lat="48.57527" lon="2.52338">
        <ele>61</ele>
        <time>2013-07-13T13:10:32Z</time>
      </trkpt>
      <trkpt lat="48.57527" lon="2.52337">
        <ele>60</ele>
        <time>2013-07-13T13:10:43Z</time>
      </trkpt>
      <trkpt lat="48.57527" lon="2.52337">
        <ele>61</ele>
        <time>2013-07-13T13:10:48Z</time>
      </trkpt>
      <trkpt lat="48.57527" lon="2.52337">
        <ele>61</ele>
        <time>2013-07-13T13:10:53Z</time>
      </trkpt>
      <trkpt lat="48.57527" lon="2.52337">
        <ele>61</ele>
        <time>2013-07-13T13:11:05Z</time>
      </trkpt>
      <trkpt lat="48.57526" lon="2.52338">
        <ele>60</ele>
        <time>2013-07-13T13:11:12Z</time>
      </trkpt>
      <trkpt lat="48.57526" lon="2.52338">
        <ele>60</ele>
        <time>2013-07-13T13:11:27Z</time>
      </trkpt>
      <trkpt lat="48.57525" lon="2.52338">
        <ele>60</ele>
        <time>2013-07-13T13:11:48Z</time>
      </trkpt>
      <trkpt lat="48.57525" lon="2.52338">
        <ele>60</ele>
        <time>2013-07-13T13:11:55Z</time>
      </trkpt>
      <trkpt lat="48.57525" lon="2.52337">
        <ele>60</ele>
        <time>2013-07-13T13:12:18Z</time>
      </trkpt>
      <trkpt lat="48.57525" lon="2.52338">
        <ele>60</ele>
        <time>2013-07-13T13:12:40Z</time>
      </trkpt>
      <trkpt lat="48.57525" lon="2.52338">
        <ele>60</ele>
        <time>2013-07-13T13:12:53Z</time>
      </trkpt>
      <trkpt lat="48.57526" lon="2.52336">
        <ele>60</ele>
        <time>2013-07-13T13:13:01Z</time>
      </trkpt>
      <trkpt lat="48.57526" lon="2.52337">
        <ele>60</ele>
        <time>2013-07-13T13:13:08Z</time>
      </trkpt>
      <trkpt lat="48.5753" lon="2.52338">
        <ele>61</ele>
        <time>2013-07-13T13:13:26Z</time>
      </trkpt>
      <trkpt lat="48.57532" lon="2.52338">
        <ele>62</ele>
        <time>2013-07-13T13:13:32Z</time>
      </trkpt>
      <trkpt lat="48.57533" lon="2.52337">
        <ele>62</ele>
        <time>2013-07-13T13:13:33Z</time>
      </trkpt>
      <trkpt lat="48.57539" lon="2.52331">
        <ele>62</ele>
        <time>2013-07-13T13:13:37Z</time>
      </trkpt>
      <trkpt lat="48.57552" lon="2.52311">
        <ele>65</ele>
        <time>2013-07-13T13:13:45Z</time>
      </trkpt>
      <trkpt lat="48.57555" lon="2.52305">
        <ele>65</ele>
        <time>2013-07-13T13:13:47Z</time>
      </trkpt>
      <trkpt lat="48.57564" lon="2.52299">
        <ele>66</ele>
        <time>2013-07-13T13:13:51Z</time>
      </trkpt>
      <trkpt lat="48.57568" lon="2.52294">
        <ele>66</ele>
        <time>2013-07-13T13:13:55Z</time>
      </trkpt>
      <trkpt lat="48.57567" lon="2.52278">
        <ele>66</ele>
        <time>2013-07-13T13:13:59Z</time>
      </trkpt>
      <trkpt lat="48.57573" lon="2.52263">
        <ele>68</ele>
        <time>2013-07-13T13:14:04Z</time>
      </trkpt>
      <trkpt lat="48.57588" lon="2.52252">
        <ele>72</ele>
        <time>2013-07-13T13:14:11Z</time>
      </trkpt>
      <trkpt lat="48.57602" lon="2.52248">
        <ele>73</ele>
        <time>2013-07-13T13:14:17Z</time>
      </trkpt>
      <trkpt lat="48.57615" lon="2.52243">
        <ele>74</ele>
        <time>2013-07-13T13:14:22Z</time>
      </trkpt>
      <trkpt lat="48.57625" lon="2.52241">
        <ele>74</ele>
        <time>2013-07-13T13:14:26Z</time>
      </trkpt>
      <trkpt lat="48.57636" lon="2.52239">
        <ele>75</ele>
        <time>2013-07-13T13:14:30Z</time>
      </trkpt>
      <trkpt lat="48.57646" lon="2.52219">
        <ele>75</ele>
        <time>2013-07-13T13:14:36Z</time>
      </trkpt>
      <trkpt lat="48.57647" lon="2.52201">
        <ele>75</ele>
        <time>2013-07-13T13:14:40Z</time>
      </trkpt>
      <trkpt lat="48.57645" lon="2.52176">
        <ele>76</ele>
        <time>2013-07-13T13:14:46Z</time>
      </trkpt>
      <trkpt lat="48.57646" lon="2.5216">
        <ele>77</ele>
        <time>2013-07-13T13:14:51Z</time>
      </trkpt>
      <trkpt lat="48.57645" lon="2.52137">
        <ele>77</ele>
        <time>2013-07-13T13:14:57Z</time>
      </trkpt>
      <trkpt lat="48.57644" lon="2.52115">
        <ele>78</ele>
        <time>2013-07-13T13:15:02Z</time>
      </trkpt>
      <trkpt lat="48.57646" lon="2.52098">
        <ele>78</ele>
        <time>2013-07-13T13:15:07Z</time>
      </trkpt>
      <trkpt lat="48.57643" lon="2.5207">
        <ele>80</ele>
        <time>2013-07-13T13:15:13Z</time>
      </trkpt>
      <trkpt lat="48.57642" lon="2.52049">
        <ele>80</ele>
        <time>2013-07-13T13:15:19Z</time>
      </trkpt>
      <trkpt lat="48.57642" lon="2.52034">
        <ele>80</ele>
        <time>2013-07-13T13:15:23Z</time>
      </trkpt>
      <trkpt lat="48.57642" lon="2.52009">
        <ele>81</ele>
        <time>2013-07-13T13:15:29Z</time>
      </trkpt>
      <trkpt lat="48.57642" lon="2.51977">
        <ele>82</ele>
        <time>2013-07-13T13:15:37Z</time>
      </trkpt>
      <trkpt lat="48.5764" lon="2.51961">
        <ele>82</ele>
        <time>2013-07-13T13:15:41Z</time>
      </trkpt>
      <trkpt lat="48.5764" lon="2.51943">
        <ele>82</ele>
        <time>2013-07-13T13:15:46Z</time>
      </trkpt>
      <trkpt lat="48.57639" lon="2.51919">
        <ele>83</ele>
        <time>2013-07-13T13:15:53Z</time>
      </trkpt>
      <trkpt lat="48.57637" lon="2.51899">
        <ele>85</ele>
        <time>2013-07-13T13:15:58Z</time>
      </trkpt>
      <trkpt lat="48.57634" lon="2.51872">
        <ele>86</ele>
        <time>2013-07-13T13:16:04Z</time>
      </trkpt>
      <trkpt lat="48.57631" lon="2.51842">
        <ele>86</ele>
        <time>2013-07-13T13:16:11Z</time>
      </trkpt>
      <trkpt lat="48.5763" lon="2.51838">
        <ele>86</ele>
        <time>2013-07-13T13:16:12Z</time>
      </trkpt>
      <trkpt lat="48.57623" lon="2.51814">
        <ele>90</ele>
        <time>2013-07-13T13:16:18Z</time>
      </trkpt>
      <trkpt lat="48.57621" lon="2.51806">
        <ele>90</ele>
        <time>2013-07-13T13:16:20Z</time>
      </trkpt>
      <trkpt lat="48.5762" lon="2.51784">
        <ele>91</ele>
        <time>2013-07-13T13:16:26Z</time>
      </trkpt>
      <trkpt lat="48.57622" lon="2.51761">
        <ele>92</ele>
        <time>2013-07-13T13:16:32Z</time>
      </trkpt>
      <trkpt lat="48.57622" lon="2.51744">
        <ele>95</ele>
        <time>2013-07-13T13:16:37Z</time>
      </trkpt>
      <trkpt lat="48.57618" lon="2.51723">
        <ele>95</ele>
        <time>2013-07-13T13:16:44Z</time>
      </trkpt>
      <trkpt lat="48.57617" lon="2.51714">
        <ele>95</ele>
        <time>2013-07-13T13:16:47Z</time>
      </trkpt>
      <trkpt lat="48.57616" lon="2.51699">
        <ele>96</ele>
        <time>2013-07-13T13:16:53Z</time>
      </trkpt>
      <trkpt lat="48.57615" lon="2.51685">
        <ele>96</ele>
        <time>2013-07-13T13:16:58Z</time>
      </trkpt>
      <trkpt lat="48.57612" lon="2.51659">
        <ele>98</ele>
        <time>2013-07-13T13:17:06Z</time>
      </trkpt>
      <trkpt lat="48.57611" lon="2.51643">
        <ele>98</ele>
        <time>2013-07-13T13:17:11Z</time>
      </trkpt>
      <trkpt lat="48.57609" lon="2.51628">
        <ele>98</ele>
        <time>2013-07-13T13:17:16Z</time>
      </trkpt>
      <trkpt lat="48.57608" lon="2.51611">
        <ele>98</ele>
        <time>2013-07-13T13:17:21Z</time>
      </trkpt>
      <trkpt lat="48.57608" lon="2.51592">
        <ele>99</ele>
        <time>2013-07-13T13:17:27Z</time>
      </trkpt>
      <trkpt lat="48.57607" lon="2.5157">
        <ele>100</ele>
        <time>2013-07-13T13:17:33Z</time>
      </trkpt>
      <trkpt lat="48.57603" lon="2.51551">
        <ele>100</ele>
        <time>2013-07-13T13:17:38Z</time>
      </trkpt>
      <trkpt lat="48.57599" lon="2.51532">
        <ele>100</ele>
        <time>2013-07-13T13:17:44Z</time>
      </trkpt>
      <trkpt lat="48.57595" lon="2.5151">
        <ele>101</ele>
        <time>2013-07-13T13:17:50Z</time>
      </trkpt>
      <trkpt lat="48.57593" lon="2.51482">
        <ele>101</ele>
        <time>2013-07-13T13:17:56Z</time>
      </trkpt>
      <trkpt lat="48.57592" lon="2.51462">
        <ele>101</ele>
        <time>2013-07-13T13:18:01Z</time>
      </trkpt>
      <trkpt lat="48.57588" lon="2.51437">
        <ele>102</ele>
        <time>2013-07-13T13:18:06Z</time>
      </trkpt>
      <trkpt lat="48.57587" lon="2.51406">
        <ele>101</ele>
        <time>2013-07-13T13:18:12Z</time>
      </trkpt>
      <trkpt lat="48.57583" lon="2.51388">
        <ele>101</ele>
        <time>2013-07-13T13:18:16Z</time>
      </trkpt>
      <trkpt lat="48.57581" lon="2.51383">
        <ele>101</ele>
        <time>2013-07-13T13:18:17Z</time>
      </trkpt>
      <trkpt lat="48.57577" lon="2.51351">
        <ele>100</ele>
        <time>2013-07-13T13:18:22Z</time>
      </trkpt>
      <trkpt lat="48.5757" lon="2.51305">
        <ele>100</ele>
        <time>2013-07-13T13:18:28Z</time>
      </trkpt>
      <trkpt lat="48.57566" lon="2.51276">
        <ele>100</ele>
        <time>2013-07-13T13:18:32Z</time>
      </trkpt>
      <trkpt lat="48.57564" lon="2.51249">
        <ele>98</ele>
        <time>2013-07-13T13:18:36Z</time>
      </trkpt>
      <trkpt lat="48.57558" lon="2.51213">
        <ele>98</ele>
        <time>2013-07-13T13:18:42Z</time>
      </trkpt>
      <trkpt lat="48.57556" lon="2.51208">
        <ele>98</ele>
        <time>2013-07-13T13:18:43Z</time>
      </trkpt>
      <trkpt lat="48.57551" lon="2.51176">
        <ele>98</ele>
        <time>2013-07-13T13:18:50Z</time>
      </trkpt>
      <trkpt lat="48.57547" lon="2.51145">
        <ele>97</ele>
        <time>2013-07-13T13:18:55Z</time>
      </trkpt>
      <trkpt lat="48.57545" lon="2.51122">
        <ele>97</ele>
        <time>2013-07-13T13:18:58Z</time>
      </trkpt>
      <trkpt lat="48.5754" lon="2.51079">
        <ele>96</ele>
        <time>2013-07-13T13:19:03Z</time>
      </trkpt>
      <trkpt lat="48.57538" lon="2.5106">
        <ele>95</ele>
        <time>2013-07-13T13:19:05Z</time>
      </trkpt>
      <trkpt lat="48.57535" lon="2.51017">
        <ele>95</ele>
        <time>2013-07-13T13:19:10Z</time>
      </trkpt>
      <trkpt lat="48.57524" lon="2.5093">
        <ele>91</ele>
        <time>2013-07-13T13:19:20Z</time>
      </trkpt>
      <trkpt lat="48.57515" lon="2.50866">
        <ele>90</ele>
        <time>2013-07-13T13:19:27Z</time>
      </trkpt>
      <trkpt lat="48.57514" lon="2.50856">
        <ele>90</ele>
        <time>2013-07-13T13:19:28Z</time>
      </trkpt>
      <trkpt lat="48.57511" lon="2.50819">
        <ele>90</ele>
        <time>2013-07-13T13:19:33Z</time>
      </trkpt>
      <trkpt lat="48.57507" lon="2.50786">
        <ele>90</ele>
        <time>2013-07-13T13:19:38Z</time>
      </trkpt>
      <trkpt lat="48.57505" lon="2.50771">
        <ele>90</ele>
        <time>2013-07-13T13:19:40Z</time>
      </trkpt>
      <trkpt lat="48.57506" lon="2.5075">
        <ele>89</ele>
        <time>2013-07-13T13:19:44Z</time>
      </trkpt>
      <trkpt lat="48.57503" lon="2.50747">
        <ele>89</ele>
        <time>2013-07-13T13:19:47Z</time>
      </trkpt>
      <trkpt lat="48.575" lon="2.50723">
        <ele>89</ele>
        <time>2013-07-13T13:19:53Z</time>
      </trkpt>
      <trkpt lat="48.57496" lon="2.50702">
        <ele>87</ele>
        <time>2013-07-13T13:19:58Z</time>
      </trkpt>
      <trkpt lat="48.57491" lon="2.50678">
        <ele>87</ele>
        <time>2013-07-13T13:20:02Z</time>
      </trkpt>
      <trkpt lat="48.57486" lon="2.50653">
        <ele>86</ele>
        <time>2013-07-13T13:20:05Z</time>
      </trkpt>
      <trkpt lat="48.5748" lon="2.5061">
        <ele>86</ele>
        <time>2013-07-13T13:20:10Z</time>
      </trkpt>
      <trkpt lat="48.57478" lon="2.50601">
        <ele>86</ele>
        <time>2013-07-13T13:20:11Z</time>
      </trkpt>
      <trkpt lat="48.57475" lon="2.50582">
        <ele>87</ele>
        <time>2013-07-13T13:20:13Z</time>
      </trkpt>
      <trkpt lat="48.57467" lon="2.50561">
        <ele>86</ele>
        <time>2013-07-13T13:20:15Z</time>
      </trkpt>
      <trkpt lat="48.57462" lon="2.50533">
        <ele>86</ele>
        <time>2013-07-13T13:20:18Z</time>
      </trkpt>
      <trkpt lat="48.5745" lon="2.50472">
        <ele>85</ele>
        <time>2013-07-13T13:20:24Z</time>
      </trkpt>
      <trkpt lat="48.57431" lon="2.50429">
        <ele>84</ele>
        <time>2013-07-13T13:20:29Z</time>
      </trkpt>
      <trkpt lat="48.57408" lon="2.50389">
        <ele>81</ele>
        <time>2013-07-13T13:20:34Z</time>
      </trkpt>
      <trkpt lat="48.57383" lon="2.50324">
        <ele>78</ele>
        <time>2013-07-13T13:20:40Z</time>
      </trkpt>
      <trkpt lat="48.57368" lon="2.5029">
        <ele>77</ele>
        <time>2013-07-13T13:20:44Z</time>
      </trkpt>
      <trkpt lat="48.5736" lon="2.50275">
        <ele>77</ele>
        <time>2013-07-13T13:20:46Z</time>
      </trkpt>
      <trkpt lat="48.57351" lon="2.50247">
        <ele>74</ele>
        <time>2013-07-13T13:20:50Z</time>
      </trkpt>
      <trkpt lat="48.57334" lon="2.50222">
        <ele>74</ele>
        <time>2013-07-13T13:20:55Z</time>
      </trkpt>
      <trkpt lat="48.57302" lon="2.50184">
        <ele>71</ele>
        <time>2013-07-13T13:21:02Z</time>
      </trkpt>
      <trkpt lat="48.57285" lon="2.5017">
        <ele>70</ele>
        <time>2013-07-13T13:21:05Z</time>
      </trkpt>
      <trkpt lat="48.57263" lon="2.50164">
        <ele>69</ele>
        <time>2013-07-13T13:21:09Z</time>
      </trkpt>
      <trkpt lat="48.57258" lon="2.5016">
        <ele>70</ele>
        <time>2013-07-13T13:21:10Z</time>
      </trkpt>
      <trkpt lat="48.57215" lon="2.50137">
        <ele>68</ele>
        <time>2013-07-13T13:21:17Z</time>
      </trkpt>
      <trkpt lat="48.57168" lon="2.50111">
        <ele>67</ele>
        <time>2013-07-13T13:21:25Z</time>
      </trkpt>
      <trkpt lat="48.57143" lon="2.50098">
        <ele>64</ele>
        <time>2013-07-13T13:21:29Z</time>
      </trkpt>
      <trkpt lat="48.57119" lon="2.50084">
        <ele>63</ele>
        <time>2013-07-13T13:21:33Z</time>
      </trkpt>
      <trkpt lat="48.57095" lon="2.50069">
        <ele>60</ele>
        <time>2013-07-13T13:21:38Z</time>
      </trkpt>
      <trkpt lat="48.57088" lon="2.50065">
        <ele>60</ele>
        <time>2013-07-13T13:21:40Z</time>
      </trkpt>
      <trkpt lat="48.57071" lon="2.50047">
        <ele>52</ele>
        <time>2013-07-13T13:21:45Z</time>
      </trkpt>
      <trkpt lat="48.57053" lon="2.50027">
        <ele>51</ele>
        <time>2013-07-13T13:21:51Z</time>
      </trkpt>
      <trkpt lat="48.57043" lon="2.5002">
        <ele>50</ele>
        <time>2013-07-13T13:21:56Z</time>
      </trkpt>
      <trkpt lat="48.57038" lon="2.50018">
        <ele>49</ele>
        <time>2013-07-13T13:22:11Z</time>
      </trkpt>
      <trkpt lat="48.57041" lon="2.49989">
        <ele>49</ele>
        <time>2013-07-13T13:22:17Z</time>
      </trkpt>
      <trkpt lat="48.57043" lon="2.4996">
        <ele>49</ele>
        <time>2013-07-13T13:22:22Z</time>
      </trkpt>
      <trkpt lat="48.57038" lon="2.4995">
        <ele>48</ele>
        <time>2013-07-13T13:22:24Z</time>
      </trkpt>
      <trkpt lat="48.57025" lon="2.49938">
        <ele>47</ele>
        <time>2013-07-13T13:22:27Z</time>
      </trkpt>
      <trkpt lat="48.57016" lon="2.49931">
        <ele>46</ele>
        <time>2013-07-13T13:22:29Z</time>
      </trkpt>
      <trkpt lat="48.5699" lon="2.49926">
        <ele>43</ele>
        <time>2013-07-13T13:22:34Z</time>
      </trkpt>
      <trkpt lat="48.56974" lon="2.49913">
        <ele>42</ele>
        <time>2013-07-13T13:22:38Z</time>
      </trkpt>
      <trkpt lat="48.56973" lon="2.49881">
        <ele>42</ele>
        <time>2013-07-13T13:22:43Z</time>
      </trkpt>
      <trkpt lat="48.56984" lon="2.49822">
        <ele>42</ele>
        <time>2013-07-13T13:22:52Z</time>
      </trkpt>
      <trkpt lat="48.56996" lon="2.49739">
        <ele>43</ele>
        <time>2013-07-13T13:23:04Z</time>
      </trkpt>
      <trkpt lat="48.57007" lon="2.49665">
        <ele>44</ele>
        <time>2013-07-13T13:23:14Z</time>
      </trkpt>
      <trkpt lat="48.57009" lon="2.49658">
        <ele>44</ele>
        <time>2013-07-13T13:23:15Z</time>
      </trkpt>
      <trkpt lat="48.57012" lon="2.49647">
        <ele>45</ele>
        <time>2013-07-13T13:23:17Z</time>
      </trkpt>
      <trkpt lat="48.57019" lon="2.49601">
        <ele>45</ele>
        <time>2013-07-13T13:23:24Z</time>
      </trkpt>
      <trkpt lat="48.57025" lon="2.49554">
        <ele>45</ele>
        <time>2013-07-13T13:23:30Z</time>
      </trkpt>
      <trkpt lat="48.57033" lon="2.49493">
        <ele>45</ele>
        <time>2013-07-13T13:23:38Z</time>
      </trkpt>
      <trkpt lat="48.57039" lon="2.4945">
        <ele>45</ele>
        <time>2013-07-13T13:23:44Z</time>
      </trkpt>
      <trkpt lat="48.57046" lon="2.49395">
        <ele>44</ele>
        <time>2013-07-13T13:23:52Z</time>
      </trkpt>
      <trkpt lat="48.57051" lon="2.49369">
        <ele>44</ele>
        <time>2013-07-13T13:23:56Z</time>
      </trkpt>
      <trkpt lat="48.5706" lon="2.49351">
        <ele>44</ele>
        <time>2013-07-13T13:24:00Z</time>
      </trkpt>
      <trkpt lat="48.57068" lon="2.49352">
        <ele>44</ele>
        <time>2013-07-13T13:24:02Z</time>
      </trkpt>
      <trkpt lat="48.57096" lon="2.49355">
        <ele>46</ele>
        <time>2013-07-13T13:24:10Z</time>
      </trkpt>
      <trkpt lat="48.57117" lon="2.49342">
        <ele>46</ele>
        <time>2013-07-13T13:24:17Z</time>
      </trkpt>
      <trkpt lat="48.57137" lon="2.49338">
        <ele>47</ele>
        <time>2013-07-13T13:24:24Z</time>
      </trkpt>
      <trkpt lat="48.57155" lon="2.49345">
        <ele>47</ele>
        <time>2013-07-13T13:24:30Z</time>
      </trkpt>
      <trkpt lat="48.5718" lon="2.49359">
        <ele>50</ele>
        <time>2013-07-13T13:24:38Z</time>
      </trkpt>
      <trkpt lat="48.57204" lon="2.49371">
        <ele>51</ele>
        <time>2013-07-13T13:24:46Z</time>
      </trkpt>
      <trkpt lat="48.57223" lon="2.49382">
        <ele>52</ele>
        <time>2013-07-13T13:24:53Z</time>
      </trkpt>
      <trkpt lat="48.57242" lon="2.4939">
        <ele>53</ele>
        <time>2013-07-13T13:25:00Z</time>
      </trkpt>
      <trkpt lat="48.57261" lon="2.49401">
        <ele>56</ele>
        <time>2013-07-13T13:25:07Z</time>
      </trkpt>
      <trkpt lat="48.57289" lon="2.49418">
        <ele>58</ele>
        <time>2013-07-13T13:25:17Z</time>
      </trkpt>
      <trkpt lat="48.57311" lon="2.49429">
        <ele>59</ele>
        <time>2013-07-13T13:25:25Z</time>
      </trkpt>
      <trkpt lat="48.57327" lon="2.49441">
        <ele>59</ele>
        <time>2013-07-13T13:25:32Z</time>
      </trkpt>
      <trkpt lat="48.57341" lon="2.49463">
        <ele>61</ele>
        <time>2013-07-13T13:25:39Z</time>
      </trkpt>
      <trkpt lat="48.57353" lon="2.49483">
        <ele>62</ele>
        <time>2013-07-13T13:25:45Z</time>
      </trkpt>
      <trkpt lat="48.57375" lon="2.49523">
        <ele>63</ele>
        <time>2013-07-13T13:25:56Z</time>
      </trkpt>
      <trkpt lat="48.57392" lon="2.49551">
        <ele>63</ele>
        <time>2013-07-13T13:26:04Z</time>
      </trkpt>
      <trkpt lat="48.5741" lon="2.49583">
        <ele>63</ele>
        <time>2013-07-13T13:26:13Z</time>
      </trkpt>
      <trkpt lat="48.57426" lon="2.49613">
        <ele>63</ele>
        <time>2013-07-13T13:26:21Z</time>
      </trkpt>
      <trkpt lat="48.57441" lon="2.49641">
        <ele>63</ele>
        <time>2013-07-13T13:26:28Z</time>
      </trkpt>
      <trkpt lat="48.57457" lon="2.4967">
        <ele>65</ele>
        <time>2013-07-13T13:26:35Z</time>
      </trkpt>
      <trkpt lat="48.57479" lon="2.49704">
        <ele>65</ele>
        <time>2013-07-13T13:26:43Z</time>
      </trkpt>
      <trkpt lat="48.57502" lon="2.49739">
        <ele>65</ele>
        <time>2013-07-13T13:26:51Z</time>
      </trkpt>
      <trkpt lat="48.57524" lon="2.49773">
        <ele>66</ele>
        <time>2013-07-13T13:26:59Z</time>
      </trkpt>
      <trkpt lat="48.57542" lon="2.498">
        <ele>67</ele>
        <time>2013-07-13T13:27:06Z</time>
      </trkpt>
      <trkpt lat="48.57563" lon="2.49831">
        <ele>68</ele>
        <time>2013-07-13T13:27:14Z</time>
      </trkpt>
      <trkpt lat="48.57582" lon="2.49859">
        <ele>70</ele>
        <time>2013-07-13T13:27:21Z</time>
      </trkpt>
      <trkpt lat="48.57596" lon="2.49879">
        <ele>73</ele>
        <time>2013-07-13T13:27:26Z</time>
      </trkpt>
      <trkpt lat="48.57604" lon="2.49904">
        <ele>73</ele>
        <time>2013-07-13T13:27:31Z</time>
      </trkpt>
      <trkpt lat="48.57604" lon="2.49938">
        <ele>76</ele>
        <time>2013-07-13T13:27:37Z</time>
      </trkpt>
      <trkpt lat="48.57612" lon="2.49969">
        <ele>78</ele>
        <time>2013-07-13T13:27:43Z</time>
      </trkpt>
      <trkpt lat="48.57622" lon="2.49991">
        <ele>78</ele>
        <time>2013-07-13T13:27:49Z</time>
      </trkpt>
      <trkpt lat="48.57635" lon="2.50011">
        <ele>80</ele>
        <time>2013-07-13T13:27:55Z</time>
      </trkpt>
      <trkpt lat="48.57647" lon="2.50032">
        <ele>81</ele>
        <time>2013-07-13T13:28:01Z</time>
      </trkpt>
      <trkpt lat="48.5766" lon="2.50053">
        <ele>81</ele>
        <time>2013-07-13T13:28:07Z</time>
      </trkpt>
      <trkpt lat="48.57675" lon="2.5008">
        <ele>83</ele>
        <time>2013-07-13T13:28:14Z</time>
      </trkpt>
      <trkpt lat="48.57692" lon="2.50108">
        <ele>85</ele>
        <time>2013-07-13T13:28:21Z</time>
      </trkpt>
      <trkpt lat="48.57704" lon="2.50129">
        <ele>85</ele>
        <time>2013-07-13T13:28:26Z</time>
      </trkpt>
      <trkpt lat="48.57719" lon="2.50157">
        <ele>85</ele>
        <time>2013-07-13T13:28:32Z</time>
      </trkpt>
      <trkpt lat="48.57736" lon="2.50189">
        <ele>86</ele>
        <time>2013-07-13T13:28:39Z</time>
      </trkpt>
      <trkpt lat="48.57752" lon="2.50216">
        <ele>85</ele>
        <time>2013-07-13T13:28:45Z</time>
      </trkpt>
      <trkpt lat="48.57773" lon="2.50253">
        <ele>85</ele>
        <time>2013-07-13T13:28:53Z</time>
      </trkpt>
      <trkpt lat="48.57775" lon="2.50258">
        <ele>85</ele>
        <time>2013-07-13T13:28:54Z</time>
      </trkpt>
      <trkpt lat="48.57796" lon="2.50289">
        <ele>85</ele>
        <time>2013-07-13T13:29:01Z</time>
      </trkpt>
      <trkpt lat="48.57805" lon="2.50302">
        <ele>85</ele>
        <time>2013-07-13T13:29:04Z</time>
      </trkpt>
      <trkpt lat="48.57813" lon="2.50315">
        <ele>85</ele>
        <time>2013-07-13T13:29:07Z</time>
      </trkpt>
      <trkpt lat="48.57828" lon="2.5034">
        <ele>85</ele>
        <time>2013-07-13T13:29:12Z</time>
      </trkpt>
      <trkpt lat="48.57837" lon="2.50354">
        <ele>86</ele>
        <time>2013-07-13T13:29:15Z</time>
      </trkpt>
      <trkpt lat="48.57862" lon="2.50391">
        <ele>87</ele>
        <time>2013-07-13T13:29:23Z</time>
      </trkpt>
      <trkpt lat="48.57865" lon="2.50396">
        <ele>87</ele>
        <time>2013-07-13T13:29:24Z</time>
      </trkpt>
      <trkpt lat="48.5789" lon="2.50438">
        <ele>89</ele>
        <time>2013-07-13T13:29:33Z</time>
      </trkpt>
      <trkpt lat="48.57895" lon="2.50448">
        <ele>89</ele>
        <time>2013-07-13T13:29:35Z</time>
      </trkpt>
      <trkpt lat="48.57913" lon="2.50473">
        <ele>89</ele>
        <time>2013-07-13T13:29:40Z</time>
      </trkpt>
      <trkpt lat="48.57916" lon="2.50478">
        <ele>89</ele>
        <time>2013-07-13T13:29:41Z</time>
      </trkpt>
      <trkpt lat="48.57921" lon="2.50489">
        <ele>90</ele>
        <time>2013-07-13T13:29:43Z</time>
      </trkpt>
      <trkpt lat="48.57933" lon="2.50505">
        <ele>90</ele>
        <time>2013-07-13T13:29:46Z</time>
      </trkpt>
      <trkpt lat="48.57948" lon="2.50527">
        <ele>91</ele>
        <time>2013-07-13T13:29:50Z</time>
      </trkpt>
      <trkpt lat="48.57965" lon="2.50551">
        <ele>91</ele>
        <time>2013-07-13T13:29:55Z</time>
      </trkpt>
      <trkpt lat="48.57988" lon="2.50592">
        <ele>91</ele>
        <time>2013-07-13T13:30:03Z</time>
      </trkpt>
      <trkpt lat="48.58008" lon="2.50621">
        <ele>91</ele>
        <time>2013-07-13T13:30:09Z</time>
      </trkpt>
      <trkpt lat="48.58019" lon="2.50637">
        <ele>91</ele>
        <time>2013-07-13T13:30:13Z</time>
      </trkpt>
      <trkpt lat="48.5803" lon="2.50648">
        <ele>91</ele>
        <time>2013-07-13T13:30:18Z</time>
      </trkpt>
      <trkpt lat="48.58034" lon="2.50657">
        <ele>91</ele>
        <time>2013-07-13T13:30:24Z</time>
      </trkpt>
      <trkpt lat="48.58033" lon="2.50656">
        <ele>91</ele>
        <time>2013-07-13T13:30:36Z</time>
      </trkpt>
      <trkpt lat="48.58034" lon="2.50656">
        <ele>91</ele>
        <time>2013-07-13T13:30:54Z</time>
      </trkpt>
      <trkpt lat="48.58037" lon="2.50656">
        <ele>91</ele>
        <time>2013-07-13T13:31:39Z</time>
      </trkpt>
      <trkpt lat="48.58049" lon="2.50657">
        <ele>91</ele>
        <time>2013-07-13T13:31:44Z</time>
      </trkpt>
      <trkpt lat="48.58057" lon="2.50663">
        <ele>91</ele>
        <time>2013-07-13T13:31:47Z</time>
      </trkpt>
      <trkpt lat="48.58083" lon="2.50669">
        <ele>91</ele>
        <time>2013-07-13T13:31:54Z</time>
      </trkpt>
      <trkpt lat="48.58116" lon="2.50662">
        <ele>90</ele>
        <time>2013-07-13T13:32:01Z</time>
      </trkpt>
      <trkpt lat="48.58126" lon="2.5066">
        <ele>90</ele>
        <time>2013-07-13T13:32:03Z</time>
      </trkpt>
      <trkpt lat="48.5816" lon="2.50652">
        <ele>90</ele>
        <time>2013-07-13T13:32:10Z</time>
      </trkpt>
      <trkpt lat="48.58174" lon="2.50648">
        <ele>90</ele>
        <time>2013-07-13T13:32:13Z</time>
      </trkpt>
      <trkpt lat="48.58182" lon="2.50644">
        <ele>91</ele>
        <time>2013-07-13T13:32:15Z</time>
      </trkpt>
      <trkpt lat="48.58204" lon="2.50637">
        <ele>91</ele>
        <time>2013-07-13T13:32:20Z</time>
      </trkpt>
      <trkpt lat="48.58207" lon="2.50635">
        <ele>91</ele>
        <time>2013-07-13T13:32:21Z</time>
      </trkpt>
      <trkpt lat="48.58207" lon="2.50635">
        <ele>91</ele>
        <time>2013-07-13T13:32:21Z</time>
      </trkpt>
      <trkpt lat="48.58224" lon="2.5063">
        <ele>91</ele>
        <time>2013-07-13T13:32:25Z</time>
      </trkpt>
      <trkpt lat="48.58229" lon="2.5063">
        <ele>91</ele>
        <time>2013-07-13T13:32:26Z</time>
      </trkpt>
      <trkpt lat="48.58239" lon="2.50624">
        <ele>91</ele>
        <time>2013-07-13T13:32:29Z</time>
      </trkpt>
      <trkpt lat="48.58247" lon="2.50623">
        <ele>91</ele>
        <time>2013-07-13T13:32:34Z</time>
      </trkpt>
      <trkpt lat="48.58254" lon="2.50622">
        <ele>92</ele>
        <time>2013-07-13T13:32:37Z</time>
      </trkpt>
      <trkpt lat="48.5828" lon="2.50609">
        <ele>92</ele>
        <time>2013-07-13T13:32:44Z</time>
      </trkpt>
      <trkpt lat="48.58299" lon="2.50601">
        <ele>93</ele>
        <time>2013-07-13T13:32:49Z</time>
      </trkpt>
      <trkpt lat="48.58302" lon="2.50599">
        <ele>93</ele>
        <time>2013-07-13T13:32:50Z</time>
      </trkpt>
      <trkpt lat="48.5831" lon="2.50596">
        <ele>93</ele>
        <time>2013-07-13T13:32:52Z</time>
      </trkpt>
      <trkpt lat="48.58333" lon="2.50584">
        <ele>94</ele>
        <time>2013-07-13T13:32:58Z</time>
      </trkpt>
      <trkpt lat="48.58337" lon="2.50582">
        <ele>94</ele>
        <time>2013-07-13T13:32:59Z</time>
      </trkpt>
      <trkpt lat="48.5835" lon="2.50574">
        <ele>94</ele>
        <time>2013-07-13T13:33:02Z</time>
      </trkpt>
      <trkpt lat="48.58361" lon="2.50571">
        <ele>95</ele>
        <time>2013-07-13T13:33:04Z</time>
      </trkpt>
      <trkpt lat="48.58377" lon="2.50563">
        <ele>95</ele>
        <time>2013-07-13T13:33:08Z</time>
      </trkpt>
      <trkpt lat="48.58397" lon="2.50554">
        <ele>95</ele>
        <time>2013-07-13T13:33:12Z</time>
      </trkpt>
      <trkpt lat="48.58424" lon="2.50544">
        <ele>97</ele>
        <time>2013-07-13T13:33:17Z</time>
      </trkpt>
      <trkpt lat="48.58449" lon="2.50533">
        <ele>97</ele>
        <time>2013-07-13T13:33:22Z</time>
      </trkpt>
      <trkpt lat="48.58475" lon="2.50519">
        <ele>98</ele>
        <time>2013-07-13T13:33:28Z</time>
      </trkpt>
      <trkpt lat="48.58483" lon="2.50512">
        <ele>98</ele>
        <time>2013-07-13T13:33:30Z</time>
      </trkpt>
      <trkpt lat="48.58492" lon="2.50499">
        <ele>99</ele>
        <time>2013-07-13T13:33:33Z</time>
      </trkpt>
      <trkpt lat="48.58497" lon="2.50491">
        <ele>99</ele>
        <time>2013-07-13T13:33:35Z</time>
      </trkpt>
      <trkpt lat="48.58505" lon="2.50463">
        <ele>99</ele>
        <time>2013-07-13T13:33:43Z</time>
      </trkpt>
      <trkpt lat="48.58505" lon="2.50456">
        <ele>99</ele>
        <time>2013-07-13T13:33:45Z</time>
      </trkpt>
      <trkpt lat="48.58501" lon="2.50441">
        <ele>99</ele>
        <time>2013-07-13T13:33:51Z</time>
      </trkpt>
      <trkpt lat="48.58497" lon="2.50417">
        <ele>98</ele>
        <time>2013-07-13T13:33:55Z</time>
      </trkpt>
      <trkpt lat="48.58484" lon="2.50383">
        <ele>97</ele>
        <time>2013-07-13T13:33:59Z</time>
      </trkpt>
      <trkpt lat="48.5847" lon="2.5037">
        <ele>96</ele>
        <time>2013-07-13T13:34:03Z</time>
      </trkpt>
      <trkpt lat="48.58457" lon="2.50364">
        <ele>96</ele>
        <time>2013-07-13T13:34:06Z</time>
      </trkpt>
      <trkpt lat="48.58449" lon="2.50358">
        <ele>96</ele>
        <time>2013-07-13T13:34:08Z</time>
      </trkpt>
      <trkpt lat="48.5844" lon="2.50345">
        <ele>95</ele>
        <time>2013-07-13T13:34:12Z</time>
      </trkpt>
      <trkpt lat="48.58433" lon="2.5033">
        <ele>93</ele>
        <time>2013-07-13T13:34:15Z</time>
      </trkpt>
      <trkpt lat="48.5843" lon="2.50299">
        <ele>92</ele>
        <time>2013-07-13T13:34:20Z</time>
      </trkpt>
      <trkpt lat="48.58439" lon="2.50293">
        <ele>92</ele>
        <time>2013-07-13T13:34:24Z</time>
      </trkpt>
      <trkpt lat="48.58455" lon="2.50272">
        <ele>92</ele>
        <time>2013-07-13T13:34:30Z</time>
      </trkpt>
      <trkpt lat="48.58467" lon="2.50255">
        <ele>92</ele>
        <time>2013-07-13T13:34:34Z</time>
      </trkpt>
      <trkpt lat="48.58478" lon="2.50238">
        <ele>91</ele>
        <time>2013-07-13T13:34:38Z</time>
      </trkpt>
      <trkpt lat="48.58481" lon="2.50233">
        <ele>91</ele>
        <time>2013-07-13T13:34:39Z</time>
      </trkpt>
      <trkpt lat="48.58482" lon="2.50214">
        <ele>90</ele>
        <time>2013-07-13T13:34:43Z</time>
      </trkpt>
      <trkpt lat="48.58481" lon="2.50208">
        <ele>90</ele>
        <time>2013-07-13T13:34:44Z</time>
      </trkpt>
      <trkpt lat="48.5848" lon="2.50162">
        <ele>89</ele>
        <time>2013-07-13T13:34:51Z</time>
      </trkpt>
      <trkpt lat="48.5848" lon="2.5014">
        <ele>88</ele>
        <time>2013-07-13T13:34:54Z</time>
      </trkpt>
      <trkpt lat="48.58478" lon="2.50094">
        <ele>87</ele>
        <time>2013-07-13T13:35:00Z</time>
      </trkpt>
      <trkpt lat="48.58478" lon="2.50062">
        <ele>86</ele>
        <time>2013-07-13T13:35:04Z</time>
      </trkpt>
      <trkpt lat="48.58477" lon="2.50006">
        <ele>86</ele>
        <time>2013-07-13T13:35:11Z</time>
      </trkpt>
      <trkpt lat="48.58477" lon="2.49954">
        <ele>88</ele>
        <time>2013-07-13T13:35:17Z</time>
      </trkpt>
      <trkpt lat="48.58483" lon="2.49934">
        <ele>88</ele>
        <time>2013-07-13T13:35:20Z</time>
      </trkpt>
      <trkpt lat="48.58487" lon="2.49915">
        <ele>89</ele>
        <time>2013-07-13T13:35:23Z</time>
      </trkpt>
      <trkpt lat="48.58494" lon="2.49899">
        <ele>89</ele>
        <time>2013-07-13T13:35:26Z</time>
      </trkpt>
      <trkpt lat="48.58503" lon="2.49891">
        <ele>90</ele>
        <time>2013-07-13T13:35:30Z</time>
      </trkpt>
      <trkpt lat="48.58522" lon="2.49884">
        <ele>90</ele>
        <time>2013-07-13T13:35:35Z</time>
      </trkpt>
      <trkpt lat="48.58541" lon="2.49867">
        <ele>90</ele>
        <time>2013-07-13T13:35:40Z</time>
      </trkpt>
      <trkpt lat="48.5855" lon="2.49849">
        <ele>91</ele>
        <time>2013-07-13T13:35:43Z</time>
      </trkpt>
      <trkpt lat="48.58569" lon="2.49825">
        <ele>91</ele>
        <time>2013-07-13T13:35:47Z</time>
      </trkpt>
      <trkpt lat="48.58578" lon="2.49813">
        <ele>90</ele>
        <time>2013-07-13T13:35:49Z</time>
      </trkpt>
      <trkpt lat="48.58593" lon="2.49794">
        <ele>89</ele>
        <time>2013-07-13T13:35:53Z</time>
      </trkpt>
      <trkpt lat="48.58615" lon="2.49771">
        <ele>89</ele>
        <time>2013-07-13T13:35:59Z</time>
      </trkpt>
      <trkpt lat="48.58619" lon="2.49765">
        <ele>89</ele>
        <time>2013-07-13T13:36:00Z</time>
      </trkpt>
      <trkpt lat="48.58632" lon="2.49735">
        <ele>86</ele>
        <time>2013-07-13T13:36:04Z</time>
      </trkpt>
      <trkpt lat="48.58642" lon="2.4972">
        <ele>85</ele>
        <time>2013-07-13T13:36:09Z</time>
      </trkpt>
      <trkpt lat="48.58651" lon="2.49711">
        <ele>85</ele>
        <time>2013-07-13T13:36:12Z</time>
      </trkpt>
      <trkpt lat="48.58661" lon="2.49698">
        <ele>84</ele>
        <time>2013-07-13T13:36:14Z</time>
      </trkpt>
      <trkpt lat="48.58676" lon="2.49682">
        <ele>82</ele>
        <time>2013-07-13T13:36:17Z</time>
      </trkpt>
      <trkpt lat="48.58697" lon="2.49672">
        <ele>82</ele>
        <time>2013-07-13T13:36:22Z</time>
      </trkpt>
      <trkpt lat="48.58704" lon="2.4965">
        <ele>79</ele>
        <time>2013-07-13T13:36:25Z</time>
      </trkpt>
      <trkpt lat="48.58712" lon="2.49617">
        <ele>78</ele>
        <time>2013-07-13T13:36:29Z</time>
      </trkpt>
      <trkpt lat="48.58728" lon="2.49556">
        <ele>75</ele>
        <time>2013-07-13T13:36:36Z</time>
      </trkpt>
      <trkpt lat="48.58736" lon="2.4951">
        <ele>73</ele>
        <time>2013-07-13T13:36:41Z</time>
      </trkpt>
      <trkpt lat="48.58743" lon="2.49485">
        <ele>72</ele>
        <time>2013-07-13T13:36:44Z</time>
      </trkpt>
      <trkpt lat="48.5875" lon="2.49467">
        <ele>70</ele>
        <time>2013-07-13T13:36:46Z</time>
      </trkpt>
      <trkpt lat="48.58758" lon="2.49433">
        <ele>69</ele>
        <time>2013-07-13T13:36:50Z</time>
      </trkpt>
      <trkpt lat="48.58764" lon="2.49399">
        <ele>67</ele>
        <time>2013-07-13T13:36:55Z</time>
      </trkpt>
      <trkpt lat="48.58763" lon="2.49387">
        <ele>66</ele>
        <time>2013-07-13T13:36:59Z</time>
      </trkpt>
      <trkpt lat="48.58758" lon="2.49383">
        <ele>66</ele>
        <time>2013-07-13T13:37:01Z</time>
      </trkpt>
      <trkpt lat="48.58734" lon="2.49378">
        <ele>68</ele>
        <time>2013-07-13T13:37:08Z</time>
      </trkpt>
      <trkpt lat="48.58707" lon="2.49374">
        <ele>68</ele>
        <time>2013-07-13T13:37:15Z</time>
      </trkpt>
      <trkpt lat="48.58685" lon="2.49368">
        <ele>68</ele>
        <time>2013-07-13T13:37:21Z</time>
      </trkpt>
      <trkpt lat="48.58665" lon="2.49362">
        <ele>70</ele>
        <time>2013-07-13T13:37:26Z</time>
      </trkpt>
      <trkpt lat="48.58653" lon="2.49357">
        <ele>70</ele>
        <time>2013-07-13T13:37:29Z</time>
      </trkpt>
      <trkpt lat="48.58626" lon="2.49344">
        <ele>70</ele>
        <time>2013-07-13T13:37:35Z</time>
      </trkpt>
      <trkpt lat="48.58603" lon="2.49333">
        <ele>69</ele>
        <time>2013-07-13T13:37:40Z</time>
      </trkpt>
      <trkpt lat="48.58589" lon="2.4933">
        <ele>69</ele>
        <time>2013-07-13T13:37:43Z</time>
      </trkpt>
      <trkpt lat="48.5856" lon="2.49325">
        <ele>68</ele>
        <time>2013-07-13T13:37:49Z</time>
      </trkpt>
      <trkpt lat="48.58539" lon="2.49322">
        <ele>68</ele>
        <time>2013-07-13T13:37:54Z</time>
      </trkpt>
      <trkpt lat="48.58515" lon="2.49325">
        <ele>68</ele>
        <time>2013-07-13T13:38:00Z</time>
      </trkpt>
      <trkpt lat="48.58498" lon="2.4932">
        <ele>68</ele>
        <time>2013-07-13T13:38:06Z</time>
      </trkpt>
      <trkpt lat="48.58495" lon="2.49315">
        <ele>68</ele>
        <time>2013-07-13T13:38:10Z</time>
      </trkpt>
      <trkpt lat="48.58486" lon="2.49316">
        <ele>68</ele>
        <time>2013-07-13T13:38:16Z</time>
      </trkpt>
      <trkpt lat="48.58484" lon="2.49315">
        <ele>68</ele>
        <time>2013-07-13T13:38:17Z</time>
      </trkpt>
      <trkpt lat="48.58457" lon="2.49315">
        <ele>68</ele>
        <time>2013-07-13T13:38:25Z</time>
      </trkpt>
      <trkpt lat="48.58441" lon="2.49324">
        <ele>68</ele>
        <time>2013-07-13T13:38:30Z</time>
      </trkpt>
      <trkpt lat="48.58424" lon="2.49337">
        <ele>70</ele>
        <time>2013-07-13T13:38:35Z</time>
      </trkpt>
      <trkpt lat="48.58404" lon="2.49353">
        <ele>71</ele>
        <time>2013-07-13T13:38:41Z</time>
      </trkpt>
      <trkpt lat="48.58389" lon="2.49368">
        <ele>71</ele>
        <time>2013-07-13T13:38:46Z</time>
      </trkpt>
      <trkpt lat="48.58378" lon="2.49382">
        <ele>71</ele>
        <time>2013-07-13T13:38:50Z</time>
      </trkpt>
      <trkpt lat="48.58366" lon="2.49394">
        <ele>72</ele>
        <time>2013-07-13T13:38:54Z</time>
      </trkpt>
      <trkpt lat="48.58355" lon="2.49411">
        <ele>72</ele>
        <time>2013-07-13T13:38:58Z</time>
      </trkpt>
      <trkpt lat="48.58351" lon="2.49417">
        <ele>74</ele>
        <time>2013-07-13T13:39:00Z</time>
      </trkpt>
      <trkpt lat="48.58351" lon="2.49426">
        <ele>74</ele>
        <time>2013-07-13T13:39:05Z</time>
      </trkpt>
      <trkpt lat="48.58354" lon="2.49435">
        <ele>74</ele>
        <time>2013-07-13T13:39:08Z</time>
      </trkpt>
      <trkpt lat="48.58352" lon="2.49445">
        <ele>75</ele>
        <time>2013-07-13T13:39:11Z</time>
      </trkpt>
      <trkpt lat="48.58348" lon="2.4946">
        <ele>75</ele>
        <time>2013-07-13T13:39:18Z</time>
      </trkpt>
      <trkpt lat="48.58344" lon="2.49465">
        <ele>75</ele>
        <time>2013-07-13T13:39:23Z</time>
      </trkpt>
      <trkpt lat="48.58345" lon="2.49471">
        <ele>76</ele>
        <time>2013-07-13T13:39:31Z</time>
      </trkpt>
      <trkpt lat="48.58342" lon="2.49482">
        <ele>76</ele>
        <time>2013-07-13T13:39:37Z</time>
      </trkpt>
      <trkpt lat="48.58337" lon="2.49504">
        <ele>78</ele>
        <time>2013-07-13T13:39:43Z</time>
      </trkpt>
      <trkpt lat="48.58335" lon="2.49527">
        <ele>79</ele>
        <time>2013-07-13T13:39:49Z</time>
      </trkpt>
      <trkpt lat="48.58335" lon="2.49542">
        <ele>79</ele>
        <time>2013-07-13T13:39:53Z</time>
      </trkpt>
      <trkpt lat="48.58336" lon="2.49563">
        <ele>80</ele>
        <time>2013-07-13T13:39:58Z</time>
      </trkpt>
      <trkpt lat="48.5834" lon="2.49587">
        <ele>81</ele>
        <time>2013-07-13T13:40:04Z</time>
      </trkpt>
      <trkpt lat="48.5834" lon="2.49605">
        <ele>82</ele>
        <time>2013-07-13T13:40:09Z</time>
      </trkpt>
      <trkpt lat="48.58343" lon="2.49626">
        <ele>82</ele>
        <time>2013-07-13T13:40:15Z</time>
      </trkpt>
      <trkpt lat="48.58343" lon="2.49642">
        <ele>82</ele>
        <time>2013-07-13T13:40:19Z</time>
      </trkpt>
      <trkpt lat="48.5834" lon="2.49653">
        <ele>83</ele>
        <time>2013-07-13T13:40:22Z</time>
      </trkpt>
      <trkpt lat="48.58338" lon="2.49671">
        <ele>83</ele>
        <time>2013-07-13T13:40:28Z</time>
      </trkpt>
      <trkpt lat="48.58335" lon="2.49683">
        <ele>83</ele>
        <time>2013-07-13T13:40:31Z</time>
      </trkpt>
      <trkpt lat="48.58337" lon="2.49701">
        <ele>84</ele>
        <time>2013-07-13T13:40:35Z</time>
      </trkpt>
      <trkpt lat="48.58335" lon="2.49724">
        <ele>84</ele>
        <time>2013-07-13T13:40:40Z</time>
      </trkpt>
      <trkpt lat="48.58336" lon="2.49733">
        <ele>84</ele>
        <time>2013-07-13T13:40:42Z</time>
      </trkpt>
      <trkpt lat="48.58336" lon="2.49754">
        <ele>85</ele>
        <time>2013-07-13T13:40:48Z</time>
      </trkpt>
      <trkpt lat="48.58334" lon="2.49757">
        <ele>85</ele>
        <time>2013-07-13T13:40:49Z</time>
      </trkpt>
      <trkpt lat="48.58329" lon="2.49768">
        <ele>86</ele>
        <time>2013-07-13T13:40:53Z</time>
      </trkpt>
      <trkpt lat="48.58321" lon="2.49777">
        <ele>86</ele>
        <time>2013-07-13T13:40:58Z</time>
      </trkpt>
      <trkpt lat="48.58307" lon="2.49785">
        <ele>86</ele>
        <time>2013-07-13T13:41:03Z</time>
      </trkpt>
      <trkpt lat="48.58293" lon="2.49796">
        <ele>87</ele>
        <time>2013-07-13T13:41:07Z</time>
      </trkpt>
      <trkpt lat="48.58276" lon="2.49804">
        <ele>87</ele>
        <time>2013-07-13T13:41:12Z</time>
      </trkpt>
      <trkpt lat="48.58271" lon="2.49807">
        <ele>87</ele>
        <time>2013-07-13T13:41:14Z</time>
      </trkpt>
      <trkpt lat="48.5825" lon="2.49821">
        <ele>87</ele>
        <time>2013-07-13T13:41:20Z</time>
      </trkpt>
      <trkpt lat="48.5823" lon="2.49829">
        <ele>87</ele>
        <time>2013-07-13T13:41:25Z</time>
      </trkpt>
      <trkpt lat="48.58222" lon="2.49835">
        <ele>87</ele>
        <time>2013-07-13T13:41:27Z</time>
      </trkpt>
      <trkpt lat="48.58212" lon="2.49846">
        <ele>87</ele>
        <time>2013-07-13T13:41:30Z</time>
      </trkpt>
      <trkpt lat="48.58202" lon="2.4986">
        <ele>87</ele>
        <time>2013-07-13T13:41:34Z</time>
      </trkpt>
      <trkpt lat="48.58197" lon="2.49869">
        <ele>87</ele>
        <time>2013-07-13T13:41:37Z</time>
      </trkpt>
      <trkpt lat="48.58176" lon="2.49897">
        <ele>88</ele>
        <time>2013-07-13T13:41:44Z</time>
      </trkpt>
      <trkpt lat="48.58161" lon="2.49922">
        <ele>89</ele>
        <time>2013-07-13T13:41:50Z</time>
      </trkpt>
      <trkpt lat="48.58139" lon="2.49953">
        <ele>89</ele>
        <time>2013-07-13T13:41:56Z</time>
      </trkpt>
      <trkpt lat="48.58118" lon="2.49985">
        <ele>89</ele>
        <time>2013-07-13T13:42:03Z</time>
      </trkpt>
      <trkpt lat="48.58115" lon="2.49988">
        <ele>89</ele>
        <time>2013-07-13T13:42:04Z</time>
      </trkpt>
      <trkpt lat="48.58099" lon="2.50009">
        <ele>90</ele>
        <time>2013-07-13T13:42:09Z</time>
      </trkpt>
      <trkpt lat="48.58084" lon="2.50034">
        <ele>89</ele>
        <time>2013-07-13T13:42:15Z</time>
      </trkpt>
      <trkpt lat="48.58066" lon="2.50056">
        <ele>89</ele>
        <time>2013-07-13T13:42:21Z</time>
      </trkpt>
      <trkpt lat="48.58048" lon="2.50071">
        <ele>89</ele>
        <time>2013-07-13T13:42:25Z</time>
      </trkpt>
      <trkpt lat="48.58034" lon="2.50087">
        <ele>89</ele>
        <time>2013-07-13T13:42:29Z</time>
      </trkpt>
      <trkpt lat="48.58022" lon="2.50097">
        <ele>89</ele>
        <time>2013-07-13T13:42:32Z</time>
      </trkpt>
      <trkpt lat="48.58011" lon="2.50109">
        <ele>89</ele>
        <time>2013-07-13T13:42:35Z</time>
      </trkpt>
      <trkpt lat="48.57988" lon="2.50132">
        <ele>88</ele>
        <time>2013-07-13T13:42:40Z</time>
      </trkpt>
      <trkpt lat="48.57984" lon="2.50136">
        <ele>88</ele>
        <time>2013-07-13T13:42:41Z</time>
      </trkpt>
      <trkpt lat="48.57966" lon="2.50152">
        <ele>88</ele>
        <time>2013-07-13T13:42:45Z</time>
      </trkpt>
      <trkpt lat="48.57944" lon="2.50174">
        <ele>88</ele>
        <time>2013-07-13T13:42:50Z</time>
      </trkpt>
      <trkpt lat="48.57935" lon="2.50183">
        <ele>88</ele>
        <time>2013-07-13T13:42:52Z</time>
      </trkpt>
      <trkpt lat="48.57921" lon="2.50197">
        <ele>88</ele>
        <time>2013-07-13T13:42:55Z</time>
      </trkpt>
      <trkpt lat="48.5791" lon="2.50209">
        <ele>87</ele>
        <time>2013-07-13T13:42:57Z</time>
      </trkpt>
      <trkpt lat="48.57901" lon="2.50224">
        <ele>87</ele>
        <time>2013-07-13T13:42:59Z</time>
      </trkpt>
      <trkpt lat="48.57876" lon="2.5027">
        <ele>86</ele>
        <time>2013-07-13T13:43:04Z</time>
      </trkpt>
      <trkpt lat="48.57857" lon="2.50302">
        <ele>86</ele>
        <time>2013-07-13T13:43:09Z</time>
      </trkpt>
      <trkpt lat="48.5785" lon="2.50324">
        <ele>85</ele>
        <time>2013-07-13T13:43:14Z</time>
      </trkpt>
      <trkpt lat="48.57843" lon="2.50351">
        <ele>86</ele>
        <time>2013-07-13T13:43:20Z</time>
      </trkpt>
      <trkpt lat="48.57842" lon="2.50359">
        <ele>86</ele>
        <time>2013-07-13T13:43:23Z</time>
      </trkpt>
      <trkpt lat="48.57835" lon="2.50374">
        <ele>86</ele>
        <time>2013-07-13T13:43:28Z</time>
      </trkpt>
      <trkpt lat="48.57824" lon="2.50402">
        <ele>86</ele>
        <time>2013-07-13T13:43:34Z</time>
      </trkpt>
      <trkpt lat="48.57812" lon="2.50429">
        <ele>87</ele>
        <time>2013-07-13T13:43:39Z</time>
      </trkpt>
      <trkpt lat="48.57801" lon="2.50454">
        <ele>88</ele>
        <time>2013-07-13T13:43:44Z</time>
      </trkpt>
      <trkpt lat="48.57797" lon="2.50465">
        <ele>88</ele>
        <time>2013-07-13T13:43:46Z</time>
      </trkpt>
      <trkpt lat="48.57785" lon="2.50489">
        <ele>88</ele>
        <time>2013-07-13T13:43:50Z</time>
      </trkpt>
      <trkpt lat="48.57773" lon="2.50519">
        <ele>89</ele>
        <time>2013-07-13T13:43:55Z</time>
      </trkpt>
      <trkpt lat="48.57761" lon="2.50544">
        <ele>90</ele>
        <time>2013-07-13T13:44:00Z</time>
      </trkpt>
      <trkpt lat="48.5775" lon="2.50555">
        <ele>89</ele>
        <time>2013-07-13T13:44:04Z</time>
      </trkpt>
      <trkpt lat="48.57738" lon="2.50567">
        <ele>89</ele>
        <time>2013-07-13T13:44:10Z</time>
      </trkpt>
      <trkpt lat="48.57725" lon="2.50578">
        <ele>89</ele>
        <time>2013-07-13T13:44:14Z</time>
      </trkpt>
      <trkpt lat="48.5771" lon="2.50594">
        <ele>90</ele>
        <time>2013-07-13T13:44:18Z</time>
      </trkpt>
      <trkpt lat="48.57697" lon="2.50611">
        <ele>90</ele>
        <time>2013-07-13T13:44:23Z</time>
      </trkpt>
      <trkpt lat="48.57693" lon="2.50614">
        <ele>90</ele>
        <time>2013-07-13T13:44:24Z</time>
      </trkpt>
      <trkpt lat="48.57685" lon="2.50622">
        <ele>90</ele>
        <time>2013-07-13T13:44:26Z</time>
      </trkpt>
      <trkpt lat="48.57676" lon="2.50634">
        <ele>90</ele>
        <time>2013-07-13T13:44:29Z</time>
      </trkpt>
      <trkpt lat="48.57663" lon="2.5065">
        <ele>91</ele>
        <time>2013-07-13T13:44:33Z</time>
      </trkpt>
      <trkpt lat="48.57643" lon="2.50683">
        <ele>92</ele>
        <time>2013-07-13T13:44:39Z</time>
      </trkpt>
      <trkpt lat="48.5764" lon="2.50688">
        <ele>92</ele>
        <time>2013-07-13T13:44:40Z</time>
      </trkpt>
      <trkpt lat="48.57636" lon="2.50697">
        <ele>92</ele>
        <time>2013-07-13T13:44:42Z</time>
      </trkpt>
      <trkpt lat="48.57626" lon="2.50709">
        <ele>92</ele>
        <time>2013-07-13T13:44:45Z</time>
      </trkpt>
      <trkpt lat="48.57612" lon="2.50713">
        <ele>92</ele>
        <time>2013-07-13T13:44:51Z</time>
      </trkpt>
      <trkpt lat="48.57596" lon="2.50716">
        <ele>92</ele>
        <time>2013-07-13T13:44:57Z</time>
      </trkpt>
      <trkpt lat="48.57593" lon="2.50716">
        <ele>92</ele>
        <time>2013-07-13T13:44:58Z</time>
      </trkpt>
      <trkpt lat="48.57573" lon="2.50721">
        <ele>90</ele>
        <time>2013-07-13T13:45:04Z</time>
      </trkpt>
      <trkpt lat="48.57545" lon="2.50723">
        <ele>90</ele>
        <time>2013-07-13T13:45:10Z</time>
      </trkpt>
      <trkpt lat="48.57522" lon="2.50727">
        <ele>89</ele>
        <time>2013-07-13T13:45:16Z</time>
      </trkpt>
      <trkpt lat="48.57507" lon="2.50748">
        <ele>89</ele>
        <time>2013-07-13T13:45:21Z</time>
      </trkpt>
      <trkpt lat="48.57505" lon="2.5077">
        <ele>90</ele>
        <time>2013-07-13T13:45:24Z</time>
      </trkpt>
      <trkpt lat="48.57512" lon="2.50837">
        <ele>90</ele>
        <time>2013-07-13T13:45:34Z</time>
      </trkpt>
      <trkpt lat="48.57514" lon="2.50849">
        <ele>90</ele>
        <time>2013-07-13T13:45:36Z</time>
      </trkpt>
      <trkpt lat="48.57516" lon="2.50882">
        <ele>90</ele>
        <time>2013-07-13T13:45:41Z</time>
      </trkpt>
      <trkpt lat="48.57521" lon="2.50932">
        <ele>91</ele>
        <time>2013-07-13T13:45:49Z</time>
      </trkpt>
      <trkpt lat="48.57528" lon="2.50986">
        <ele>92</ele>
        <time>2013-07-13T13:45:58Z</time>
      </trkpt>
      <trkpt lat="48.57532" lon="2.51034">
        <ele>95</ele>
        <time>2013-07-13T13:46:05Z</time>
      </trkpt>
      <trkpt lat="48.57539" lon="2.51081">
        <ele>96</ele>
        <time>2013-07-13T13:46:12Z</time>
      </trkpt>
      <trkpt lat="48.57541" lon="2.51094">
        <ele>97</ele>
        <time>2013-07-13T13:46:14Z</time>
      </trkpt>
      <trkpt lat="48.57544" lon="2.51106">
        <ele>97</ele>
        <time>2013-07-13T13:46:16Z</time>
      </trkpt>
      <trkpt lat="48.5755" lon="2.51131">
        <ele>97</ele>
        <time>2013-07-13T13:46:20Z</time>
      </trkpt>
      <trkpt lat="48.5755" lon="2.51151">
        <ele>97</ele>
        <time>2013-07-13T13:46:24Z</time>
      </trkpt>
      <trkpt lat="48.5756" lon="2.51176">
        <ele>97</ele>
        <time>2013-07-13T13:46:30Z</time>
      </trkpt>
      <trkpt lat="48.57565" lon="2.51185">
        <ele>97</ele>
        <time>2013-07-13T13:46:34Z</time>
      </trkpt>
      <trkpt lat="48.57569" lon="2.51195">
        <ele>98</ele>
        <time>2013-07-13T13:46:39Z</time>
      </trkpt>
      <trkpt lat="48.57572" lon="2.51194">
        <ele>97</ele>
        <time>2013-07-13T13:47:05Z</time>
      </trkpt>
      <trkpt lat="48.57579" lon="2.51187">
        <ele>97</ele>
        <time>2013-07-13T13:47:33Z</time>
      </trkpt>
      <trkpt lat="48.5757" lon="2.51188">
        <ele>97</ele>
        <time>2013-07-13T13:47:37Z</time>
      </trkpt>
      <trkpt lat="48.57568" lon="2.51175">
        <ele>97</ele>
        <time>2013-07-13T13:47:42Z</time>
      </trkpt>
      <trkpt lat="48.57578" lon="2.51171">
        <ele>97</ele>
        <time>2013-07-13T13:47:46Z</time>
      </trkpt>
      <trkpt lat="48.57597" lon="2.51178">
        <ele>97</ele>
        <time>2013-07-13T13:47:50Z</time>
      </trkpt>
      <trkpt lat="48.57617" lon="2.51184">
        <ele>97</ele>
        <time>2013-07-13T13:47:56Z</time>
      </trkpt>
      <trkpt lat="48.57627" lon="2.5119">
        <ele>97</ele>
        <time>2013-07-13T13:48:02Z</time>
      </trkpt>
      <trkpt lat="48.57642" lon="2.51196">
        <ele>97</ele>
        <time>2013-07-13T13:48:07Z</time>
      </trkpt>
      <trkpt lat="48.57657" lon="2.512">
        <ele>97</ele>
        <time>2013-07-13T13:48:11Z</time>
      </trkpt>
      <trkpt lat="48.57682" lon="2.51206">
        <ele>96</ele>
        <time>2013-07-13T13:48:17Z</time>
      </trkpt>
      <trkpt lat="48.57704" lon="2.51212">
        <ele>96</ele>
        <time>2013-07-13T13:48:22Z</time>
      </trkpt>
      <trkpt lat="48.57734" lon="2.51224">
        <ele>95</ele>
        <time>2013-07-13T13:48:28Z</time>
      </trkpt>
      <trkpt lat="48.57765" lon="2.51233">
        <ele>93</ele>
        <time>2013-07-13T13:48:34Z</time>
      </trkpt>
      <trkpt lat="48.57793" lon="2.51246">
        <ele>91</ele>
        <time>2013-07-13T13:48:39Z</time>
      </trkpt>
      <trkpt lat="48.57827" lon="2.51256">
        <ele>89</ele>
        <time>2013-07-13T13:48:44Z</time>
      </trkpt>
      <trkpt lat="48.57865" lon="2.51267">
        <ele>87</ele>
        <time>2013-07-13T13:48:49Z</time>
      </trkpt>
      <trkpt lat="48.57899" lon="2.51279">
        <ele>87</ele>
        <time>2013-07-13T13:48:54Z</time>
      </trkpt>
      <trkpt lat="48.57935" lon="2.51291">
        <ele>86</ele>
        <time>2013-07-13T13:48:59Z</time>
      </trkpt>
      <trkpt lat="48.57972" lon="2.51303">
        <ele>87</ele>
        <time>2013-07-13T13:49:04Z</time>
      </trkpt>
      <trkpt lat="48.57997" lon="2.51311">
        <ele>87</ele>
        <time>2013-07-13T13:49:08Z</time>
      </trkpt>
      <trkpt lat="48.58017" lon="2.51318">
        <ele>87</ele>
        <time>2013-07-13T13:49:12Z</time>
      </trkpt>
      <trkpt lat="48.58035" lon="2.51324">
        <ele>87</ele>
        <time>2013-07-13T13:49:16Z</time>
      </trkpt>
      <trkpt lat="48.58054" lon="2.51312">
        <ele>88</ele>
        <time>2013-07-13T13:49:20Z</time>
      </trkpt>
      <trkpt lat="48.58058" lon="2.51292">
        <ele>88</ele>
        <time>2013-07-13T13:49:24Z</time>
      </trkpt>
      <trkpt lat="48.58056" lon="2.51271">
        <ele>88</ele>
        <time>2013-07-13T13:49:27Z</time>
      </trkpt>
      <trkpt lat="48.58054" lon="2.51239">
        <ele>87</ele>
        <time>2013-07-13T13:49:31Z</time>
      </trkpt>
      <trkpt lat="48.58054" lon="2.51224">
        <ele>87</ele>
        <time>2013-07-13T13:49:33Z</time>
      </trkpt>
      <trkpt lat="48.58056" lon="2.51182">
        <ele>87</ele>
        <time>2013-07-13T13:49:39Z</time>
      </trkpt>
      <trkpt lat="48.58055" lon="2.51145">
        <ele>88</ele>
        <time>2013-07-13T13:49:44Z</time>
      </trkpt>
      <trkpt lat="48.58056" lon="2.51115">
        <ele>88</ele>
        <time>2013-07-13T13:49:48Z</time>
      </trkpt>
      <trkpt lat="48.58056" lon="2.51101">
        <ele>88</ele>
        <time>2013-07-13T13:49:50Z</time>
      </trkpt>
      <trkpt lat="48.58058" lon="2.5108">
        <ele>89</ele>
        <time>2013-07-13T13:49:53Z</time>
      </trkpt>
      <trkpt lat="48.58055" lon="2.51021">
        <ele>89</ele>
        <time>2013-07-13T13:50:00Z</time>
      </trkpt>
      <trkpt lat="48.58054" lon="2.51013">
        <ele>89</ele>
        <time>2013-07-13T13:50:01Z</time>
      </trkpt>
      <trkpt lat="48.58054" lon="2.50984">
        <ele>90</ele>
        <time>2013-07-13T13:50:05Z</time>
      </trkpt>
      <trkpt lat="48.58053" lon="2.5095">
        <ele>90</ele>
        <time>2013-07-13T13:50:09Z</time>
      </trkpt>
      <trkpt lat="48.58054" lon="2.50927">
        <ele>90</ele>
        <time>2013-07-13T13:50:12Z</time>
      </trkpt>
      <trkpt lat="48.58056" lon="2.50905">
        <ele>91</ele>
        <time>2013-07-13T13:50:15Z</time>
      </trkpt>
      <trkpt lat="48.58057" lon="2.50873">
        <ele>91</ele>
        <time>2013-07-13T13:50:19Z</time>
      </trkpt>
      <trkpt lat="48.58056" lon="2.50858">
        <ele>91</ele>
        <time>2013-07-13T13:50:21Z</time>
      </trkpt>
      <trkpt lat="48.58053" lon="2.50835">
        <ele>91</ele>
        <time>2013-07-13T13:50:24Z</time>
      </trkpt>
      <trkpt lat="48.58052" lon="2.50804">
        <ele>92</ele>
        <time>2013-07-13T13:50:28Z</time>
      </trkpt>
      <trkpt lat="48.5805" lon="2.50769">
        <ele>92</ele>
        <time>2013-07-13T13:50:32Z</time>
      </trkpt>
      <trkpt lat="48.58051" lon="2.50736">
        <ele>92</ele>
        <time>2013-07-13T13:50:36Z</time>
      </trkpt>
      <trkpt lat="48.58046" lon="2.50701">
        <ele>91</ele>
        <time>2013-07-13T13:50:41Z</time>
      </trkpt>
      <trkpt lat="48.58055" lon="2.50685">
        <ele>91</ele>
        <time>2013-07-13T13:50:45Z</time>
      </trkpt>
      <trkpt lat="48.58068" lon="2.50688">
        <ele>91</ele>
        <time>2013-07-13T13:50:49Z</time>
      </trkpt>
      <trkpt lat="48.58077" lon="2.507">
        <ele>91</ele>
        <time>2013-07-13T13:50:52Z</time>
      </trkpt>
      <trkpt lat="48.58087" lon="2.50716">
        <ele>91</ele>
        <time>2013-07-13T13:50:55Z</time>
      </trkpt>
      <trkpt lat="48.58109" lon="2.50746">
        <ele>91</ele>
        <time>2013-07-13T13:51:01Z</time>
      </trkpt>
      <trkpt lat="48.58126" lon="2.50776">
        <ele>91</ele>
        <time>2013-07-13T13:51:06Z</time>
      </trkpt>
      <trkpt lat="48.58149" lon="2.50815">
        <ele>91</ele>
        <time>2013-07-13T13:51:12Z</time>
      </trkpt>
      <trkpt lat="48.58172" lon="2.50858">
        <ele>90</ele>
        <time>2013-07-13T13:51:18Z</time>
      </trkpt>
      <trkpt lat="48.58198" lon="2.50895">
        <ele>90</ele>
        <time>2013-07-13T13:51:23Z</time>
      </trkpt>
      <trkpt lat="48.58226" lon="2.50935">
        <ele>90</ele>
        <time>2013-07-13T13:51:29Z</time>
      </trkpt>
      <trkpt lat="48.5823" lon="2.50941">
        <ele>90</ele>
        <time>2013-07-13T13:51:30Z</time>
      </trkpt>
      <trkpt lat="48.5823" lon="2.50941">
        <ele>90</ele>
        <time>2013-07-13T13:51:30Z</time>
      </trkpt>
      <trkpt lat="48.58238" lon="2.50965">
        <ele>90</ele>
        <time>2013-07-13T13:51:33Z</time>
      </trkpt>
      <trkpt lat="48.58245" lon="2.51013">
        <ele>90</ele>
        <time>2013-07-13T13:51:39Z</time>
      </trkpt>
      <trkpt lat="48.58256" lon="2.51076">
        <ele>89</ele>
        <time>2013-07-13T13:51:46Z</time>
      </trkpt>
      <trkpt lat="48.58258" lon="2.5112">
        <ele>90</ele>
        <time>2013-07-13T13:51:51Z</time>
      </trkpt>
      <trkpt lat="48.58263" lon="2.51168">
        <ele>91</ele>
        <time>2013-07-13T13:51:56Z</time>
      </trkpt>
      <trkpt lat="48.58266" lon="2.51177">
        <ele>91</ele>
        <time>2013-07-13T13:51:57Z</time>
      </trkpt>
      <trkpt lat="48.58275" lon="2.51202">
        <ele>91</ele>
        <time>2013-07-13T13:52:00Z</time>
      </trkpt>
      <trkpt lat="48.58277" lon="2.5122">
        <ele>91</ele>
        <time>2013-07-13T13:52:02Z</time>
      </trkpt>
      <trkpt lat="48.58283" lon="2.51262">
        <ele>91</ele>
        <time>2013-07-13T13:52:07Z</time>
      </trkpt>
      <trkpt lat="48.58296" lon="2.51294">
        <ele>91</ele>
        <time>2013-07-13T13:52:11Z</time>
      </trkpt>
      <trkpt lat="48.58303" lon="2.51308">
        <ele>91</ele>
        <time>2013-07-13T13:52:13Z</time>
      </trkpt>
      <trkpt lat="48.58312" lon="2.5134">
        <ele>91</ele>
        <time>2013-07-13T13:52:17Z</time>
      </trkpt>
      <trkpt lat="48.58317" lon="2.51357">
        <ele>90</ele>
        <time>2013-07-13T13:52:19Z</time>
      </trkpt>
      <trkpt lat="48.58331" lon="2.5139">
        <ele>90</ele>
        <time>2013-07-13T13:52:24Z</time>
      </trkpt>
      <trkpt lat="48.58332" lon="2.51412">
        <ele>90</ele>
        <time>2013-07-13T13:52:30Z</time>
      </trkpt>
      <trkpt lat="48.58334" lon="2.51411">
        <ele>90</ele>
        <time>2013-07-13T13:52:33Z</time>
      </trkpt>
      <trkpt lat="48.58338" lon="2.51412">
        <ele>90</ele>
        <time>2013-07-13T13:52:40Z</time>
      </trkpt>
      <trkpt lat="48.58339" lon="2.51412">
        <ele>90</ele>
        <time>2013-07-13T13:52:41Z</time>
      </trkpt>
      <trkpt lat="48.5835" lon="2.51414">
        <ele>91</ele>
        <time>2013-07-13T13:52:48Z</time>
      </trkpt>
      <trkpt lat="48.58366" lon="2.5142">
        <ele>91</ele>
        <time>2013-07-13T13:52:55Z</time>
      </trkpt>
      <trkpt lat="48.58387" lon="2.51427">
        <ele>91</ele>
        <time>2013-07-13T13:53:00Z</time>
      </trkpt>
      <trkpt lat="48.58408" lon="2.51433">
        <ele>92</ele>
        <time>2013-07-13T13:53:05Z</time>
      </trkpt>
      <trkpt lat="48.58417" lon="2.51437">
        <ele>92</ele>
        <time>2013-07-13T13:53:07Z</time>
      </trkpt>
      <trkpt lat="48.58439" lon="2.51448">
        <ele>91</ele>
        <time>2013-07-13T13:53:13Z</time>
      </trkpt>
      <trkpt lat="48.58444" lon="2.51451">
        <ele>91</ele>
        <time>2013-07-13T13:53:15Z</time>
      </trkpt>
      <trkpt lat="48.58462" lon="2.51461">
        <ele>91</ele>
        <time>2013-07-13T13:53:21Z</time>
      </trkpt>
      <trkpt lat="48.58473" lon="2.51478">
        <ele>91</ele>
        <time>2013-07-13T13:53:26Z</time>
      </trkpt>
      <trkpt lat="48.58479" lon="2.51495">
        <ele>90</ele>
        <time>2013-07-13T13:53:31Z</time>
      </trkpt>
      <trkpt lat="48.58484" lon="2.51499">
        <ele>90</ele>
        <time>2013-07-13T13:53:37Z</time>
      </trkpt>
      <trkpt lat="48.58486" lon="2.51498">
        <ele>90</ele>
        <time>2013-07-13T13:53:52Z</time>
      </trkpt>
      <trkpt lat="48.58489" lon="2.51504">
        <ele>89</ele>
        <time>2013-07-13T13:54:57Z</time>
      </trkpt>
      <trkpt lat="48.58488" lon="2.51503">
        <ele>90</ele>
        <time>2013-07-13T13:55:03Z</time>
      </trkpt>
      <trkpt lat="48.58486" lon="2.51502">
        <ele>90</ele>
        <time>2013-07-13T13:55:09Z</time>
      </trkpt>
      <trkpt lat="48.58487" lon="2.51502">
        <ele>90</ele>
        <time>2013-07-13T13:55:12Z</time>
      </trkpt>
      <trkpt lat="48.58483" lon="2.51518">
        <ele>90</ele>
        <time>2013-07-13T13:55:18Z</time>
      </trkpt>
      <trkpt lat="48.58482" lon="2.51522">
        <ele>90</ele>
        <time>2013-07-13T13:55:19Z</time>
      </trkpt>
      <trkpt lat="48.5848" lon="2.5155">
        <ele>90</ele>
        <time>2013-07-13T13:55:25Z</time>
      </trkpt>
      <trkpt lat="48.58478" lon="2.51573">
        <ele>90</ele>
        <time>2013-07-13T13:55:30Z</time>
      </trkpt>
      <trkpt lat="48.58477" lon="2.51582">
        <ele>90</ele>
        <time>2013-07-13T13:55:32Z</time>
      </trkpt>
      <trkpt lat="48.58477" lon="2.51618">
        <ele>90</ele>
        <time>2013-07-13T13:55:38Z</time>
      </trkpt>
      <trkpt lat="48.58479" lon="2.51652">
        <ele>90</ele>
        <time>2013-07-13T13:55:43Z</time>
      </trkpt>
      <trkpt lat="48.58481" lon="2.51665">
        <ele>90</ele>
        <time>2013-07-13T13:55:45Z</time>
      </trkpt>
      <trkpt lat="48.58474" lon="2.51693">
        <ele>90</ele>
        <time>2013-07-13T13:55:50Z</time>
      </trkpt>
      <trkpt lat="48.58471" lon="2.51715">
        <ele>90</ele>
        <time>2013-07-13T13:55:56Z</time>
      </trkpt>
      <trkpt lat="48.58479" lon="2.51736">
        <ele>89</ele>
        <time>2013-07-13T13:56:01Z</time>
      </trkpt>
      <trkpt lat="48.58481" lon="2.51761">
        <ele>89</ele>
        <time>2013-07-13T13:56:05Z</time>
      </trkpt>
      <trkpt lat="48.58483" lon="2.51788">
        <ele>89</ele>
        <time>2013-07-13T13:56:09Z</time>
      </trkpt>
      <trkpt lat="48.58481" lon="2.51812">
        <ele>89</ele>
        <time>2013-07-13T13:56:13Z</time>
      </trkpt>
      <trkpt lat="48.58482" lon="2.51816">
        <ele>89</ele>
        <time>2013-07-13T13:56:17Z</time>
      </trkpt>
      <trkpt lat="48.58483" lon="2.51807">
        <ele>89</ele>
        <time>2013-07-13T13:56:23Z</time>
      </trkpt>
      <trkpt lat="48.58487" lon="2.51806">
        <ele>89</ele>
        <time>2013-07-13T13:56:33Z</time>
      </trkpt>
      <trkpt lat="48.58487" lon="2.51812">
        <ele>89</ele>
        <time>2013-07-13T13:56:38Z</time>
      </trkpt>
      <trkpt lat="48.58488" lon="2.51822">
        <ele>89</ele>
        <time>2013-07-13T13:56:44Z</time>
      </trkpt>
      <trkpt lat="48.5849" lon="2.51829">
        <ele>89</ele>
        <time>2013-07-13T13:56:48Z</time>
      </trkpt>
      <trkpt lat="48.58492" lon="2.51834">
        <ele>89</ele>
        <time>2013-07-13T13:56:54Z</time>
      </trkpt>
      <trkpt lat="48.58493" lon="2.51834">
        <ele>89</ele>
        <time>2013-07-13T13:57:17Z</time>
      </trkpt>
      <trkpt lat="48.58495" lon="2.51832">
        <ele>89</ele>
        <time>2013-07-13T13:57:40Z</time>
      </trkpt>
      <trkpt lat="48.58495" lon="2.51827">
        <ele>89</ele>
        <time>2013-07-13T13:58:04Z</time>
      </trkpt>
      <trkpt lat="48.58496" lon="2.51834">
        <ele>89</ele>
        <time>2013-07-13T13:58:13Z</time>
      </trkpt>
      <trkpt lat="48.58494" lon="2.51849">
        <ele>89</ele>
        <time>2013-07-13T13:58:18Z</time>
      </trkpt>
      <trkpt lat="48.58493" lon="2.5187">
        <ele>89</ele>
        <time>2013-07-13T13:58:24Z</time>
      </trkpt>
      <trkpt lat="48.58492" lon="2.51889">
        <ele>89</ele>
        <time>2013-07-13T13:58:28Z</time>
      </trkpt>
      <trkpt lat="48.58488" lon="2.51915">
        <ele>90</ele>
        <time>2013-07-13T13:58:33Z</time>
      </trkpt>
      <trkpt lat="48.58492" lon="2.51948">
        <ele>90</ele>
        <time>2013-07-13T13:58:39Z</time>
      </trkpt>
      <trkpt lat="48.58492" lon="2.51986">
        <ele>90</ele>
        <time>2013-07-13T13:58:45Z</time>
      </trkpt>
      <trkpt lat="48.58492" lon="2.52008">
        <ele>90</ele>
        <time>2013-07-13T13:58:48Z</time>
      </trkpt>
      <trkpt lat="48.58489" lon="2.52047">
        <ele>90</ele>
        <time>2013-07-13T13:58:54Z</time>
      </trkpt>
      <trkpt lat="48.58489" lon="2.5206">
        <ele>90</ele>
        <time>2013-07-13T13:58:56Z</time>
      </trkpt>
      <trkpt lat="48.5849" lon="2.52098">
        <ele>90</ele>
        <time>2013-07-13T13:59:01Z</time>
      </trkpt>
      <trkpt lat="48.5849" lon="2.52105">
        <ele>90</ele>
        <time>2013-07-13T13:59:02Z</time>
      </trkpt>
      <trkpt lat="48.58492" lon="2.5214">
        <ele>91</ele>
        <time>2013-07-13T13:59:07Z</time>
      </trkpt>
      <trkpt lat="48.58493" lon="2.52161">
        <ele>91</ele>
        <time>2013-07-13T13:59:10Z</time>
      </trkpt>
      <trkpt lat="48.58489" lon="2.52188">
        <ele>91</ele>
        <time>2013-07-13T13:59:14Z</time>
      </trkpt>
      <trkpt lat="48.58493" lon="2.52208">
        <ele>91</ele>
        <time>2013-07-13T13:59:17Z</time>
      </trkpt>
      <trkpt lat="48.58493" lon="2.52222">
        <ele>91</ele>
        <time>2013-07-13T13:59:19Z</time>
      </trkpt>
      <trkpt lat="48.58495" lon="2.52248">
        <ele>92</ele>
        <time>2013-07-13T13:59:23Z</time>
      </trkpt>
      <trkpt lat="48.58493" lon="2.5228">
        <ele>91</ele>
        <time>2013-07-13T13:59:28Z</time>
      </trkpt>
      <trkpt lat="48.58491" lon="2.52292">
        <ele>90</ele>
        <time>2013-07-13T13:59:30Z</time>
      </trkpt>
      <trkpt lat="48.58486" lon="2.52332">
        <ele>90</ele>
        <time>2013-07-13T13:59:36Z</time>
      </trkpt>
      <trkpt lat="48.58489" lon="2.52352">
        <ele>90</ele>
        <time>2013-07-13T13:59:39Z</time>
      </trkpt>
      <trkpt lat="48.58492" lon="2.52398">
        <ele>89</ele>
        <time>2013-07-13T13:59:46Z</time>
      </trkpt>
      <trkpt lat="48.58493" lon="2.52416">
        <ele>89</ele>
        <time>2013-07-13T13:59:49Z</time>
      </trkpt>
      <trkpt lat="48.58497" lon="2.52435">
        <ele>90</ele>
        <time>2013-07-13T13:59:54Z</time>
      </trkpt>
      <trkpt lat="48.58494" lon="2.52456">
        <ele>90</ele>
        <time>2013-07-13T13:59:57Z</time>
      </trkpt>
      <trkpt lat="48.5849" lon="2.52486">
        <ele>90</ele>
        <time>2013-07-13T14:00:02Z</time>
      </trkpt>
      <trkpt lat="48.58493" lon="2.52495">
        <ele>90</ele>
        <time>2013-07-13T14:00:06Z</time>
      </trkpt>
      <trkpt lat="48.58494" lon="2.52505">
        <ele>90</ele>
        <time>2013-07-13T14:00:14Z</time>
      </trkpt>
      <trkpt lat="48.58504" lon="2.52509">
        <ele>90</ele>
        <time>2013-07-13T14:00:23Z</time>
      </trkpt>
      <trkpt lat="48.58504" lon="2.52517">
        <ele>90</ele>
        <time>2013-07-13T14:00:37Z</time>
      </trkpt>
      <trkpt lat="48.58503" lon="2.52521">
        <ele>90</ele>
        <time>2013-07-13T14:01:06Z</time>
      </trkpt>
      <trkpt lat="48.58509" lon="2.52519">
        <ele>90</ele>
        <time>2013-07-13T14:01:33Z</time>
      </trkpt>
      <trkpt lat="48.58509" lon="2.52521">
        <ele>90</ele>
        <time>2013-07-13T14:01:38Z</time>
      </trkpt>
      <trkpt lat="48.58511" lon="2.52521">
        <ele>90</ele>
        <time>2013-07-13T14:01:53Z</time>
      </trkpt>
      <trkpt lat="48.58515" lon="2.52519">
        <ele>90</ele>
        <time>2013-07-13T14:03:11Z</time>
      </trkpt>
      <trkpt lat="48.58507" lon="2.52517">
        <ele>90</ele>
        <time>2013-07-13T14:03:46Z</time>
      </trkpt>
      <trkpt lat="48.58507" lon="2.5252">
        <ele>90</ele>
        <time>2013-07-13T14:04:03Z</time>
      </trkpt>
      <trkpt lat="48.58507" lon="2.52522">
        <ele>90</ele>
        <time>2013-07-13T14:04:17Z</time>
      </trkpt>
      <trkpt lat="48.58504" lon="2.52528">
        <ele>90</ele>
        <time>2013-07-13T14:04:27Z</time>
      </trkpt>
      <trkpt lat="48.58509" lon="2.52524">
        <ele>90</ele>
        <time>2013-07-13T14:04:40Z</time>
      </trkpt>
      <trkpt lat="48.58508" lon="2.52522">
        <ele>90</ele>
        <time>2013-07-13T14:04:51Z</time>
      </trkpt>
      <trkpt lat="48.58509" lon="2.52523">
        <ele>90</ele>
        <time>2013-07-13T14:04:57Z</time>
      </trkpt>
      <trkpt lat="48.58507" lon="2.52525">
        <ele>90</ele>
        <time>2013-07-13T14:05:03Z</time>
      </trkpt>
      <trkpt lat="48.58503" lon="2.52534">
        <ele>90</ele>
        <time>2013-07-13T14:05:08Z</time>
      </trkpt>
      <trkpt lat="48.58501" lon="2.52552">
        <ele>90</ele>
        <time>2013-07-13T14:05:14Z</time>
      </trkpt>
      <trkpt lat="48.58503" lon="2.52564">
        <ele>90</ele>
        <time>2013-07-13T14:05:18Z</time>
      </trkpt>
      <trkpt lat="48.58503" lon="2.52567">
        <ele>90</ele>
        <time>2013-07-13T14:05:19Z</time>
      </trkpt>
      <trkpt lat="48.585" lon="2.52577">
        <ele>90</ele>
        <time>2013-07-13T14:05:25Z</time>
      </trkpt>
      <trkpt lat="48.58498" lon="2.52589">
        <ele>90</ele>
        <time>2013-07-13T14:05:29Z</time>
      </trkpt>
      <trkpt lat="48.58496" lon="2.52606">
        <ele>90</ele>
        <time>2013-07-13T14:05:33Z</time>
      </trkpt>
      <trkpt lat="48.58496" lon="2.52622">
        <ele>90</ele>
        <time>2013-07-13T14:05:37Z</time>
      </trkpt>
      <trkpt lat="48.58495" lon="2.52649">
        <ele>91</ele>
        <time>2013-07-13T14:05:43Z</time>
      </trkpt>
      <trkpt lat="48.58501" lon="2.5267">
        <ele>91</ele>
        <time>2013-07-13T14:05:47Z</time>
      </trkpt>
      <trkpt lat="48.58501" lon="2.52698">
        <ele>91</ele>
        <time>2013-07-13T14:05:52Z</time>
      </trkpt>
      <trkpt lat="48.58499" lon="2.52728">
        <ele>91</ele>
        <time>2013-07-13T14:05:58Z</time>
      </trkpt>
      <trkpt lat="48.585" lon="2.52745">
        <ele>92</ele>
        <time>2013-07-13T14:06:02Z</time>
      </trkpt>
      <trkpt lat="48.585" lon="2.52771">
        <ele>91</ele>
        <time>2013-07-13T14:06:06Z</time>
      </trkpt>
      <trkpt lat="48.58503" lon="2.52802">
        <ele>91</ele>
        <time>2013-07-13T14:06:11Z</time>
      </trkpt>
      <trkpt lat="48.585" lon="2.52832">
        <ele>91</ele>
        <time>2013-07-13T14:06:16Z</time>
      </trkpt>
      <trkpt lat="48.58504" lon="2.52862">
        <ele>90</ele>
        <time>2013-07-13T14:06:21Z</time>
      </trkpt>
      <trkpt lat="48.58505" lon="2.52879">
        <ele>90</ele>
        <time>2013-07-13T14:06:24Z</time>
      </trkpt>
      <trkpt lat="48.58505" lon="2.52892">
        <ele>90</ele>
        <time>2013-07-13T14:06:26Z</time>
      </trkpt>
      <trkpt lat="48.58505" lon="2.5293">
        <ele>90</ele>
        <time>2013-07-13T14:06:32Z</time>
      </trkpt>
      <trkpt lat="48.58504" lon="2.52942">
        <ele>90</ele>
        <time>2013-07-13T14:06:34Z</time>
      </trkpt>
      <trkpt lat="48.58505" lon="2.52975">
        <ele>89</ele>
        <time>2013-07-13T14:06:39Z</time>
      </trkpt>
      <trkpt lat="48.58504" lon="2.52989">
        <ele>89</ele>
        <time>2013-07-13T14:06:41Z</time>
      </trkpt>
      <trkpt lat="48.58506" lon="2.53022">
        <ele>88</ele>
        <time>2013-07-13T14:06:46Z</time>
      </trkpt>
      <trkpt lat="48.58508" lon="2.53054">
        <ele>88</ele>
        <time>2013-07-13T14:06:51Z</time>
      </trkpt>
      <trkpt lat="48.58509" lon="2.53079">
        <ele>87</ele>
        <time>2013-07-13T14:06:55Z</time>
      </trkpt>
      <trkpt lat="48.5851" lon="2.53127">
        <ele>87</ele>
        <time>2013-07-13T14:07:03Z</time>
      </trkpt>
      <trkpt lat="48.58512" lon="2.53174">
        <ele>87</ele>
        <time>2013-07-13T14:07:11Z</time>
      </trkpt>
      <trkpt lat="48.58512" lon="2.53194">
        <ele>87</ele>
        <time>2013-07-13T14:07:14Z</time>
      </trkpt>
      <trkpt lat="48.58512" lon="2.53227">
        <ele>88</ele>
        <time>2013-07-13T14:07:19Z</time>
      </trkpt>
      <trkpt lat="48.58512" lon="2.53253">
        <ele>89</ele>
        <time>2013-07-13T14:07:23Z</time>
      </trkpt>
      <trkpt lat="48.58514" lon="2.53299">
        <ele>88</ele>
        <time>2013-07-13T14:07:30Z</time>
      </trkpt>
      <trkpt lat="48.58515" lon="2.53312">
        <ele>89</ele>
        <time>2013-07-13T14:07:32Z</time>
      </trkpt>
      <trkpt lat="48.58514" lon="2.53325">
        <ele>89</ele>
        <time>2013-07-13T14:07:34Z</time>
      </trkpt>
      <trkpt lat="48.58514" lon="2.53351">
        <ele>89</ele>
        <time>2013-07-13T14:07:38Z</time>
      </trkpt>
      <trkpt lat="48.58515" lon="2.53372">
        <ele>89</ele>
        <time>2013-07-13T14:07:41Z</time>
      </trkpt>
      <trkpt lat="48.58512" lon="2.53385">
        <ele>89</ele>
        <time>2013-07-13T14:07:43Z</time>
      </trkpt>
      <trkpt lat="48.58508" lon="2.53412">
        <ele>90</ele>
        <time>2013-07-13T14:07:47Z</time>
      </trkpt>
      <trkpt lat="48.58506" lon="2.53427">
        <ele>90</ele>
        <time>2013-07-13T14:07:49Z</time>
      </trkpt>
      <trkpt lat="48.58509" lon="2.53456">
        <ele>90</ele>
        <time>2013-07-13T14:07:53Z</time>
      </trkpt>
      <trkpt lat="48.5851" lon="2.5348">
        <ele>90</ele>
        <time>2013-07-13T14:07:57Z</time>
      </trkpt>
      <trkpt lat="48.58507" lon="2.53495">
        <ele>91</ele>
        <time>2013-07-13T14:07:59Z</time>
      </trkpt>
      <trkpt lat="48.585" lon="2.53539">
        <ele>91</ele>
        <time>2013-07-13T14:08:05Z</time>
      </trkpt>
      <trkpt lat="48.58498" lon="2.53547">
        <ele>91</ele>
        <time>2013-07-13T14:08:06Z</time>
      </trkpt>
      <trkpt lat="48.58499" lon="2.53586">
        <ele>91</ele>
        <time>2013-07-13T14:08:12Z</time>
      </trkpt>
      <trkpt lat="48.585" lon="2.53602">
        <ele>92</ele>
        <time>2013-07-13T14:08:14Z</time>
      </trkpt>
      <trkpt lat="48.58506" lon="2.53641">
        <ele>93</ele>
        <time>2013-07-13T14:08:19Z</time>
      </trkpt>
      <trkpt lat="48.58505" lon="2.53683">
        <ele>93</ele>
        <time>2013-07-13T14:08:24Z</time>
      </trkpt>
      <trkpt lat="48.58509" lon="2.53731">
        <ele>93</ele>
        <time>2013-07-13T14:08:30Z</time>
      </trkpt>
      <trkpt lat="48.58508" lon="2.53754">
        <ele>93</ele>
        <time>2013-07-13T14:08:33Z</time>
      </trkpt>
      <trkpt lat="48.5851" lon="2.53769">
        <ele>92</ele>
        <time>2013-07-13T14:08:36Z</time>
      </trkpt>
      <trkpt lat="48.5851" lon="2.53788">
        <ele>92</ele>
        <time>2013-07-13T14:08:40Z</time>
      </trkpt>
      <trkpt lat="48.58502" lon="2.5381">
        <ele>92</ele>
        <time>2013-07-13T14:08:47Z</time>
      </trkpt>
      <trkpt lat="48.58499" lon="2.53829">
        <ele>91</ele>
        <time>2013-07-13T14:08:52Z</time>
      </trkpt>
      <trkpt lat="48.58495" lon="2.53843">
        <ele>92</ele>
        <time>2013-07-13T14:08:57Z</time>
      </trkpt>
      <trkpt lat="48.58486" lon="2.53855">
        <ele>93</ele>
        <time>2013-07-13T14:09:02Z</time>
      </trkpt>
      <trkpt lat="48.58474" lon="2.53867">
        <ele>93</ele>
        <time>2013-07-13T14:09:07Z</time>
      </trkpt>
      <trkpt lat="48.5846" lon="2.5388">
        <ele>93</ele>
        <time>2013-07-13T14:09:12Z</time>
      </trkpt>
      <trkpt lat="48.58454" lon="2.53885">
        <ele>93</ele>
        <time>2013-07-13T14:09:14Z</time>
      </trkpt>
      <trkpt lat="48.5845" lon="2.53913">
        <ele>94</ele>
        <time>2013-07-13T14:09:20Z</time>
      </trkpt>
      <trkpt lat="48.58448" lon="2.53937">
        <ele>93</ele>
        <time>2013-07-13T14:09:25Z</time>
      </trkpt>
      <trkpt lat="48.58447" lon="2.53965">
        <ele>92</ele>
        <time>2013-07-13T14:09:31Z</time>
      </trkpt>
      <trkpt lat="48.58451" lon="2.53987">
        <ele>91</ele>
        <time>2013-07-13T14:09:35Z</time>
      </trkpt>
      <trkpt lat="48.5845" lon="2.54011">
        <ele>89</ele>
        <time>2013-07-13T14:09:39Z</time>
      </trkpt>
      <trkpt lat="48.58456" lon="2.54033">
        <ele>89</ele>
        <time>2013-07-13T14:09:43Z</time>
      </trkpt>
      <trkpt lat="48.58462" lon="2.54044">
        <ele>89</ele>
        <time>2013-07-13T14:09:45Z</time>
      </trkpt>
      <trkpt lat="48.58468" lon="2.54073">
        <ele>88</ele>
        <time>2013-07-13T14:09:49Z</time>
      </trkpt>
      <trkpt lat="48.58465" lon="2.54104">
        <ele>88</ele>
        <time>2013-07-13T14:09:54Z</time>
      </trkpt>
      <trkpt lat="48.58459" lon="2.54136">
        <ele>88</ele>
        <time>2013-07-13T14:09:59Z</time>
      </trkpt>
      <trkpt lat="48.58458" lon="2.54156">
        <ele>87</ele>
        <time>2013-07-13T14:10:02Z</time>
      </trkpt>
      <trkpt lat="48.58457" lon="2.54182">
        <ele>87</ele>
        <time>2013-07-13T14:10:06Z</time>
      </trkpt>
      <trkpt lat="48.58461" lon="2.54202">
        <ele>87</ele>
        <time>2013-07-13T14:10:09Z</time>
      </trkpt>
      <trkpt lat="48.58461" lon="2.54216">
        <ele>87</ele>
        <time>2013-07-13T14:10:11Z</time>
      </trkpt>
      <trkpt lat="48.58464" lon="2.54245">
        <ele>87</ele>
        <time>2013-07-13T14:10:15Z</time>
      </trkpt>
      <trkpt lat="48.58467" lon="2.54276">
        <ele>87</ele>
        <time>2013-07-13T14:10:19Z</time>
      </trkpt>
      <trkpt lat="48.58469" lon="2.54314">
        <ele>88</ele>
        <time>2013-07-13T14:10:24Z</time>
      </trkpt>
      <trkpt lat="48.58462" lon="2.54352">
        <ele>88</ele>
        <time>2013-07-13T14:10:29Z</time>
      </trkpt>
      <trkpt lat="48.58458" lon="2.54377">
        <ele>88</ele>
        <time>2013-07-13T14:10:32Z</time>
      </trkpt>
      <trkpt lat="48.58461" lon="2.54403">
        <ele>88</ele>
        <time>2013-07-13T14:10:35Z</time>
      </trkpt>
      <trkpt lat="48.58465" lon="2.5445">
        <ele>89</ele>
        <time>2013-07-13T14:10:41Z</time>
      </trkpt>
      <trkpt lat="48.58472" lon="2.54493">
        <ele>89</ele>
        <time>2013-07-13T14:10:46Z</time>
      </trkpt>
      <trkpt lat="48.58471" lon="2.54498">
        <ele>89</ele>
        <time>2013-07-13T14:10:47Z</time>
      </trkpt>
      <trkpt lat="48.58471" lon="2.5451">
        <ele>90</ele>
        <time>2013-07-13T14:10:50Z</time>
      </trkpt>
      <trkpt lat="48.58459" lon="2.54511">
        <ele>90</ele>
        <time>2013-07-13T14:10:55Z</time>
      </trkpt>
      <trkpt lat="48.58441" lon="2.54514">
        <ele>90</ele>
        <time>2013-07-13T14:11:00Z</time>
      </trkpt>
      <trkpt lat="48.58422" lon="2.54518">
        <ele>90</ele>
        <time>2013-07-13T14:11:04Z</time>
      </trkpt>
      <trkpt lat="48.58388" lon="2.54523">
        <ele>90</ele>
        <time>2013-07-13T14:11:10Z</time>
      </trkpt>
      <trkpt lat="48.58376" lon="2.54524">
        <ele>90</ele>
        <time>2013-07-13T14:11:12Z</time>
      </trkpt>
      <trkpt lat="48.58346" lon="2.54525">
        <ele>90</ele>
        <time>2013-07-13T14:11:18Z</time>
      </trkpt>
      <trkpt lat="48.5834" lon="2.54525">
        <ele>90</ele>
        <time>2013-07-13T14:11:19Z</time>
      </trkpt>
      <trkpt lat="48.58324" lon="2.54527">
        <ele>89</ele>
        <time>2013-07-13T14:11:22Z</time>
      </trkpt>
      <trkpt lat="48.5831" lon="2.54532">
        <ele>89</ele>
        <time>2013-07-13T14:11:25Z</time>
      </trkpt>
      <trkpt lat="48.58295" lon="2.54534">
        <ele>89</ele>
        <time>2013-07-13T14:11:28Z</time>
      </trkpt>
      <trkpt lat="48.58267" lon="2.54538">
        <ele>89</ele>
        <time>2013-07-13T14:11:34Z</time>
      </trkpt>
      <trkpt lat="48.58262" lon="2.54538">
        <ele>89</ele>
        <time>2013-07-13T14:11:35Z</time>
      </trkpt>
      <trkpt lat="48.58238" lon="2.54542">
        <ele>89</ele>
        <time>2013-07-13T14:11:40Z</time>
      </trkpt>
      <trkpt lat="48.58224" lon="2.54543">
        <ele>89</ele>
        <time>2013-07-13T14:11:43Z</time>
      </trkpt>
      <trkpt lat="48.58195" lon="2.54546">
        <ele>89</ele>
        <time>2013-07-13T14:11:48Z</time>
      </trkpt>
      <trkpt lat="48.5819" lon="2.54546">
        <ele>89</ele>
        <time>2013-07-13T14:11:49Z</time>
      </trkpt>
      <trkpt lat="48.58172" lon="2.54558">
        <ele>90</ele>
        <time>2013-07-13T14:11:53Z</time>
      </trkpt>
      <trkpt lat="48.58171" lon="2.54581">
        <ele>91</ele>
        <time>2013-07-13T14:11:57Z</time>
      </trkpt>
      <trkpt lat="48.5817" lon="2.54601">
        <ele>92</ele>
        <time>2013-07-13T14:12:00Z</time>
      </trkpt>
      <trkpt lat="48.5817" lon="2.54624">
        <ele>92</ele>
        <time>2013-07-13T14:12:03Z</time>
      </trkpt>
      <trkpt lat="48.58167" lon="2.5464">
        <ele>92</ele>
        <time>2013-07-13T14:12:05Z</time>
      </trkpt>
      <trkpt lat="48.58166" lon="2.54663">
        <ele>92</ele>
        <time>2013-07-13T14:12:08Z</time>
      </trkpt>
      <trkpt lat="48.58163" lon="2.54686">
        <ele>92</ele>
        <time>2013-07-13T14:12:11Z</time>
      </trkpt>
      <trkpt lat="48.58163" lon="2.54743">
        <ele>93</ele>
        <time>2013-07-13T14:12:18Z</time>
      </trkpt>
      <trkpt lat="48.58163" lon="2.54752">
        <ele>94</ele>
        <time>2013-07-13T14:12:19Z</time>
      </trkpt>
      <trkpt lat="48.58167" lon="2.54808">
        <ele>93</ele>
        <time>2013-07-13T14:12:25Z</time>
      </trkpt>
      <trkpt lat="48.5817" lon="2.54852">
        <ele>93</ele>
        <time>2013-07-13T14:12:30Z</time>
      </trkpt>
      <trkpt lat="48.58169" lon="2.54884">
        <ele>93</ele>
        <time>2013-07-13T14:12:34Z</time>
      </trkpt>
      <trkpt lat="48.58167" lon="2.54925">
        <ele>93</ele>
        <time>2013-07-13T14:12:39Z</time>
      </trkpt>
      <trkpt lat="48.58166" lon="2.54964">
        <ele>93</ele>
        <time>2013-07-13T14:12:44Z</time>
      </trkpt>
      <trkpt lat="48.58168" lon="2.5498">
        <ele>93</ele>
        <time>2013-07-13T14:12:46Z</time>
      </trkpt>
      <trkpt lat="48.58169" lon="2.55012">
        <ele>93</ele>
        <time>2013-07-13T14:12:50Z</time>
      </trkpt>
      <trkpt lat="48.58171" lon="2.55026">
        <ele>93</ele>
        <time>2013-07-13T14:12:52Z</time>
      </trkpt>
      <trkpt lat="48.58169" lon="2.55063">
        <ele>92</ele>
        <time>2013-07-13T14:12:57Z</time>
      </trkpt>
      <trkpt lat="48.58171" lon="2.55072">
        <ele>92</ele>
        <time>2013-07-13T14:12:58Z</time>
      </trkpt>
      <trkpt lat="48.58173" lon="2.55087">
        <ele>92</ele>
        <time>2013-07-13T14:13:00Z</time>
      </trkpt>
      <trkpt lat="48.58174" lon="2.55108">
        <ele>91</ele>
        <time>2013-07-13T14:13:03Z</time>
      </trkpt>
      <trkpt lat="48.58182" lon="2.5512">
        <ele>91</ele>
        <time>2013-07-13T14:13:07Z</time>
      </trkpt>
      <trkpt lat="48.58168" lon="2.55129">
        <ele>91</ele>
        <time>2013-07-13T14:13:13Z</time>
      </trkpt>
      <trkpt lat="48.58157" lon="2.55131">
        <ele>90</ele>
        <time>2013-07-13T14:13:16Z</time>
      </trkpt>
      <trkpt lat="48.58135" lon="2.55138">
        <ele>90</ele>
        <time>2013-07-13T14:13:23Z</time>
      </trkpt>
      <trkpt lat="48.58118" lon="2.55145">
        <ele>90</ele>
        <time>2013-07-13T14:13:28Z</time>
      </trkpt>
      <trkpt lat="48.58094" lon="2.5515">
        <ele>89</ele>
        <time>2013-07-13T14:13:34Z</time>
      </trkpt>
      <trkpt lat="48.58078" lon="2.55155">
        <ele>89</ele>
        <time>2013-07-13T14:13:38Z</time>
      </trkpt>
      <trkpt lat="48.58058" lon="2.55156">
        <ele>90</ele>
        <time>2013-07-13T14:13:44Z</time>
      </trkpt>
      <trkpt lat="48.5804" lon="2.55161">
        <ele>91</ele>
        <time>2013-07-13T14:13:49Z</time>
      </trkpt>
      <trkpt lat="48.58017" lon="2.55165">
        <ele>91</ele>
        <time>2013-07-13T14:13:54Z</time>
      </trkpt>
      <trkpt lat="48.57992" lon="2.55171">
        <ele>91</ele>
        <time>2013-07-13T14:13:59Z</time>
      </trkpt>
      <trkpt lat="48.57981" lon="2.55171">
        <ele>91</ele>
        <time>2013-07-13T14:14:01Z</time>
      </trkpt>
      <trkpt lat="48.57957" lon="2.55175">
        <ele>91</ele>
        <time>2013-07-13T14:14:06Z</time>
      </trkpt>
      <trkpt lat="48.57931" lon="2.5518">
        <ele>91</ele>
        <time>2013-07-13T14:14:13Z</time>
      </trkpt>
      <trkpt lat="48.57911" lon="2.55183">
        <ele>91</ele>
        <time>2013-07-13T14:14:17Z</time>
      </trkpt>
      <trkpt lat="48.57904" lon="2.55185">
        <ele>91</ele>
        <time>2013-07-13T14:14:19Z</time>
      </trkpt>
      <trkpt lat="48.57888" lon="2.55193">
        <ele>90</ele>
        <time>2013-07-13T14:14:24Z</time>
      </trkpt>
      <trkpt lat="48.57881" lon="2.55196">
        <ele>90</ele>
        <time>2013-07-13T14:14:26Z</time>
      </trkpt>
      <trkpt lat="48.57861" lon="2.55191">
        <ele>90</ele>
        <time>2013-07-13T14:14:32Z</time>
      </trkpt>
      <trkpt lat="48.57859" lon="2.55191">
        <ele>90</ele>
        <time>2013-07-13T14:14:34Z</time>
      </trkpt>
      <trkpt lat="48.57844" lon="2.55198">
        <ele>90</ele>
        <time>2013-07-13T14:14:40Z</time>
      </trkpt>
      <trkpt lat="48.5783" lon="2.55201">
        <ele>89</ele>
        <time>2013-07-13T14:14:44Z</time>
      </trkpt>
      <trkpt lat="48.5781" lon="2.55205">
        <ele>89</ele>
        <time>2013-07-13T14:14:49Z</time>
      </trkpt>
      <trkpt lat="48.57795" lon="2.5521">
        <ele>89</ele>
        <time>2013-07-13T14:14:53Z</time>
      </trkpt>
      <trkpt lat="48.5777" lon="2.55217">
        <ele>89</ele>
        <time>2013-07-13T14:14:59Z</time>
      </trkpt>
      <trkpt lat="48.57755" lon="2.55221">
        <ele>89</ele>
        <time>2013-07-13T14:15:04Z</time>
      </trkpt>
      <trkpt lat="48.57739" lon="2.55229">
        <ele>89</ele>
        <time>2013-07-13T14:15:09Z</time>
      </trkpt>
      <trkpt lat="48.57736" lon="2.55236">
        <ele>89</ele>
        <time>2013-07-13T14:15:11Z</time>
      </trkpt>
      <trkpt lat="48.57734" lon="2.55265">
        <ele>86</ele>
        <time>2013-07-13T14:15:16Z</time>
      </trkpt>
      <trkpt lat="48.57737" lon="2.55298">
        <ele>85</ele>
        <time>2013-07-13T14:15:22Z</time>
      </trkpt>
      <trkpt lat="48.57749" lon="2.55333">
        <ele>83</ele>
        <time>2013-07-13T14:15:28Z</time>
      </trkpt>
      <trkpt lat="48.57763" lon="2.55374">
        <ele>83</ele>
        <time>2013-07-13T14:15:35Z</time>
      </trkpt>
      <trkpt lat="48.57783" lon="2.55428">
        <ele>83</ele>
        <time>2013-07-13T14:15:44Z</time>
      </trkpt>
      <trkpt lat="48.57807" lon="2.55492">
        <ele>82</ele>
        <time>2013-07-13T14:15:55Z</time>
      </trkpt>
      <trkpt lat="48.57825" lon="2.55542">
        <ele>81</ele>
        <time>2013-07-13T14:16:04Z</time>
      </trkpt>
      <trkpt lat="48.57845" lon="2.55594">
        <ele>80</ele>
        <time>2013-07-13T14:16:13Z</time>
      </trkpt>
      <trkpt lat="48.57863" lon="2.55645">
        <ele>81</ele>
        <time>2013-07-13T14:16:21Z</time>
      </trkpt>
      <trkpt lat="48.57882" lon="2.5571">
        <ele>80</ele>
        <time>2013-07-13T14:16:31Z</time>
      </trkpt>
      <trkpt lat="48.57894" lon="2.55751">
        <ele>80</ele>
        <time>2013-07-13T14:16:37Z</time>
      </trkpt>
      <trkpt lat="48.57911" lon="2.55776">
        <ele>80</ele>
        <time>2013-07-13T14:16:42Z</time>
      </trkpt>
      <trkpt lat="48.57913" lon="2.55783">
        <ele>81</ele>
        <time>2013-07-13T14:16:43Z</time>
      </trkpt>
      <trkpt lat="48.57933" lon="2.55843">
        <ele>81</ele>
        <time>2013-07-13T14:16:52Z</time>
      </trkpt>
      <trkpt lat="48.57936" lon="2.55848">
        <ele>81</ele>
        <time>2013-07-13T14:16:53Z</time>
      </trkpt>
      <trkpt lat="48.5795" lon="2.55865">
        <ele>81</ele>
        <time>2013-07-13T14:16:57Z</time>
      </trkpt>
      <trkpt lat="48.57958" lon="2.55876">
        <ele>81</ele>
        <time>2013-07-13T14:17:00Z</time>
      </trkpt>
      <trkpt lat="48.57979" lon="2.55891">
        <ele>81</ele>
        <time>2013-07-13T14:17:07Z</time>
      </trkpt>
      <trkpt lat="48.57982" lon="2.55894">
        <ele>81</ele>
        <time>2013-07-13T14:17:08Z</time>
      </trkpt>
      <trkpt lat="48.57984" lon="2.55914">
        <ele>82</ele>
        <time>2013-07-13T14:17:12Z</time>
      </trkpt>
      <trkpt lat="48.57981" lon="2.55925">
        <ele>82</ele>
        <time>2013-07-13T14:17:14Z</time>
      </trkpt>
      <trkpt lat="48.57973" lon="2.55961">
        <ele>81</ele>
        <time>2013-07-13T14:17:20Z</time>
      </trkpt>
      <trkpt lat="48.57972" lon="2.55998">
        <ele>81</ele>
        <time>2013-07-13T14:17:26Z</time>
      </trkpt>
      <trkpt lat="48.57971" lon="2.56004">
        <ele>82</ele>
        <time>2013-07-13T14:17:27Z</time>
      </trkpt>
      <trkpt lat="48.57967" lon="2.56027">
        <ele>82</ele>
        <time>2013-07-13T14:17:31Z</time>
      </trkpt>
      <trkpt lat="48.57962" lon="2.56068">
        <ele>82</ele>
        <time>2013-07-13T14:17:38Z</time>
      </trkpt>
      <trkpt lat="48.57964" lon="2.56074">
        <ele>82</ele>
        <time>2013-07-13T14:17:39Z</time>
      </trkpt>
      <trkpt lat="48.57966" lon="2.56104">
        <ele>82</ele>
        <time>2013-07-13T14:17:44Z</time>
      </trkpt>
      <trkpt lat="48.57965" lon="2.56109">
        <ele>82</ele>
        <time>2013-07-13T14:17:45Z</time>
      </trkpt>
      <trkpt lat="48.57956" lon="2.56142">
        <ele>82</ele>
        <time>2013-07-13T14:17:52Z</time>
      </trkpt>
      <trkpt lat="48.57952" lon="2.56146">
        <ele>82</ele>
        <time>2013-07-13T14:17:54Z</time>
      </trkpt>
      <trkpt lat="48.57936" lon="2.56155">
        <ele>82</ele>
        <time>2013-07-13T14:18:01Z</time>
      </trkpt>
      <trkpt lat="48.57921" lon="2.56171">
        <ele>82</ele>
        <time>2013-07-13T14:18:07Z</time>
      </trkpt>
      <trkpt lat="48.57903" lon="2.56188">
        <ele>81</ele>
        <time>2013-07-13T14:18:13Z</time>
      </trkpt>
      <trkpt lat="48.57891" lon="2.56203">
        <ele>81</ele>
        <time>2013-07-13T14:18:18Z</time>
      </trkpt>
      <trkpt lat="48.57881" lon="2.56217">
        <ele>81</ele>
        <time>2013-07-13T14:18:22Z</time>
      </trkpt>
      <trkpt lat="48.57883" lon="2.56226">
        <ele>81</ele>
        <time>2013-07-13T14:18:28Z</time>
      </trkpt>
      <trkpt lat="48.57889" lon="2.56235">
        <ele>81</ele>
        <time>2013-07-13T14:18:32Z</time>
      </trkpt>
      <trkpt lat="48.57892" lon="2.56242">
        <ele>81</ele>
        <time>2013-07-13T14:18:34Z</time>
      </trkpt>
      <trkpt lat="48.57907" lon="2.56267">
        <ele>81</ele>
        <time>2013-07-13T14:18:41Z</time>
      </trkpt>
      <trkpt lat="48.57919" lon="2.56287">
        <ele>80</ele>
        <time>2013-07-13T14:18:47Z</time>
      </trkpt>
      <trkpt lat="48.5792" lon="2.56289">
        <ele>80</ele>
        <time>2013-07-13T14:18:48Z</time>
      </trkpt>
      <trkpt lat="48.5792" lon="2.56289">
        <ele>80</ele>
        <time>2013-07-13T14:18:48Z</time>
      </trkpt>
      <trkpt lat="48.57921" lon="2.5629">
        <ele>80</ele>
        <time>2013-07-13T14:18:50Z</time>
      </trkpt>
      <trkpt lat="48.57927" lon="2.56296">
        <ele>80</ele>
        <time>2013-07-13T14:18:55Z</time>
      </trkpt>
      <trkpt lat="48.57938" lon="2.56314">
        <ele>80</ele>
        <time>2013-07-13T14:19:03Z</time>
      </trkpt>
      <trkpt lat="48.57939" lon="2.56327">
        <ele>80</ele>
        <time>2013-07-13T14:19:08Z</time>
      </trkpt>
      <trkpt lat="48.57933" lon="2.56344">
        <ele>80</ele>
        <time>2013-07-13T14:19:15Z</time>
      </trkpt>
      <trkpt lat="48.57922" lon="2.56367">
        <ele>79</ele>
        <time>2013-07-13T14:19:22Z</time>
      </trkpt>
      <trkpt lat="48.5791" lon="2.56391">
        <ele>80</ele>
        <time>2013-07-13T14:19:29Z</time>
      </trkpt>
      <trkpt lat="48.57896" lon="2.56395">
        <ele>80</ele>
        <time>2013-07-13T14:19:34Z</time>
      </trkpt>
      <trkpt lat="48.57881" lon="2.5641">
        <ele>80</ele>
        <time>2013-07-13T14:19:40Z</time>
      </trkpt>
      <trkpt lat="48.57873" lon="2.56428">
        <ele>79</ele>
        <time>2013-07-13T14:19:45Z</time>
      </trkpt>
      <trkpt lat="48.57868" lon="2.5645">
        <ele>79</ele>
        <time>2013-07-13T14:19:50Z</time>
      </trkpt>
      <trkpt lat="48.57874" lon="2.5646">
        <ele>79</ele>
        <time>2013-07-13T14:19:54Z</time>
      </trkpt>
      <trkpt lat="48.57895" lon="2.56478">
        <ele>79</ele>
        <time>2013-07-13T14:20:00Z</time>
      </trkpt>
      <trkpt lat="48.57929" lon="2.56511">
        <ele>79</ele>
        <time>2013-07-13T14:20:09Z</time>
      </trkpt>
      <trkpt lat="48.57963" lon="2.56543">
        <ele>79</ele>
        <time>2013-07-13T14:20:18Z</time>
      </trkpt>
      <trkpt lat="48.57968" lon="2.56557">
        <ele>79</ele>
        <time>2013-07-13T14:20:23Z</time>
      </trkpt>
      <trkpt lat="48.57963" lon="2.5656">
        <ele>79</ele>
        <time>2013-07-13T14:20:27Z</time>
      </trkpt>
      <trkpt lat="48.57957" lon="2.56573">
        <ele>79</ele>
        <time>2013-07-13T14:20:31Z</time>
      </trkpt>
      <trkpt lat="48.57936" lon="2.56615">
        <ele>79</ele>
        <time>2013-07-13T14:20:39Z</time>
      </trkpt>
      <trkpt lat="48.57914" lon="2.56661">
        <ele>79</ele>
        <time>2013-07-13T14:20:47Z</time>
      </trkpt>
      <trkpt lat="48.57897" lon="2.56695">
        <ele>80</ele>
        <time>2013-07-13T14:20:53Z</time>
      </trkpt>
      <trkpt lat="48.57874" lon="2.56735">
        <ele>81</ele>
        <time>2013-07-13T14:21:00Z</time>
      </trkpt>
      <trkpt lat="48.57854" lon="2.56774">
        <ele>82</ele>
        <time>2013-07-13T14:21:06Z</time>
      </trkpt>
      <trkpt lat="48.57837" lon="2.5681">
        <ele>83</ele>
        <time>2013-07-13T14:21:11Z</time>
      </trkpt>
      <trkpt lat="48.57833" lon="2.56817">
        <ele>83</ele>
        <time>2013-07-13T14:21:12Z</time>
      </trkpt>
      <trkpt lat="48.57809" lon="2.56868">
        <ele>82</ele>
        <time>2013-07-13T14:21:19Z</time>
      </trkpt>
      <trkpt lat="48.57806" lon="2.56876">
        <ele>82</ele>
        <time>2013-07-13T14:21:20Z</time>
      </trkpt>
      <trkpt lat="48.57776" lon="2.56918">
        <ele>81</ele>
        <time>2013-07-13T14:21:27Z</time>
      </trkpt>
      <trkpt lat="48.57747" lon="2.56952">
        <ele>80</ele>
        <time>2013-07-13T14:21:33Z</time>
      </trkpt>
      <trkpt lat="48.5774" lon="2.5698">
        <ele>80</ele>
        <time>2013-07-13T14:21:37Z</time>
      </trkpt>
      <trkpt lat="48.57743" lon="2.56985">
        <ele>81</ele>
        <time>2013-07-13T14:21:38Z</time>
      </trkpt>
      <trkpt lat="48.57767" lon="2.57038">
        <ele>81</ele>
        <time>2013-07-13T14:21:46Z</time>
      </trkpt>
      <trkpt lat="48.57771" lon="2.57051">
        <ele>81</ele>
        <time>2013-07-13T14:21:48Z</time>
      </trkpt>
      <trkpt lat="48.5778" lon="2.57088">
        <ele>79</ele>
        <time>2013-07-13T14:21:53Z</time>
      </trkpt>
      <trkpt lat="48.57773" lon="2.57108">
        <ele>79</ele>
        <time>2013-07-13T14:21:57Z</time>
      </trkpt>
      <trkpt lat="48.57768" lon="2.57111">
        <ele>79</ele>
        <time>2013-07-13T14:21:58Z</time>
      </trkpt>
      <trkpt lat="48.57737" lon="2.57131">
        <ele>77</ele>
        <time>2013-07-13T14:22:04Z</time>
      </trkpt>
      <trkpt lat="48.57705" lon="2.57144">
        <ele>77</ele>
        <time>2013-07-13T14:22:10Z</time>
      </trkpt>
      <trkpt lat="48.57699" lon="2.57147">
        <ele>77</ele>
        <time>2013-07-13T14:22:11Z</time>
      </trkpt>
      <trkpt lat="48.57684" lon="2.57159">
        <ele>76</ele>
        <time>2013-07-13T14:22:14Z</time>
      </trkpt>
      <trkpt lat="48.57663" lon="2.57192">
        <ele>75</ele>
        <time>2013-07-13T14:22:19Z</time>
      </trkpt>
      <trkpt lat="48.57633" lon="2.57242">
        <ele>75</ele>
        <time>2013-07-13T14:22:26Z</time>
      </trkpt>
      <trkpt lat="48.57599" lon="2.573">
        <ele>75</ele>
        <time>2013-07-13T14:22:34Z</time>
      </trkpt>
      <trkpt lat="48.57576" lon="2.57336">
        <ele>75</ele>
        <time>2013-07-13T14:22:39Z</time>
      </trkpt>
      <trkpt lat="48.5755" lon="2.57382">
        <ele>76</ele>
        <time>2013-07-13T14:22:45Z</time>
      </trkpt>
      <trkpt lat="48.57539" lon="2.57405">
        <ele>76</ele>
        <time>2013-07-13T14:22:48Z</time>
      </trkpt>
      <trkpt lat="48.57528" lon="2.57462">
        <ele>77</ele>
        <time>2013-07-13T14:22:54Z</time>
      </trkpt>
      <trkpt lat="48.57527" lon="2.57481">
        <ele>77</ele>
        <time>2013-07-13T14:22:56Z</time>
      </trkpt>
      <trkpt lat="48.57519" lon="2.57529">
        <ele>77</ele>
        <time>2013-07-13T14:23:01Z</time>
      </trkpt>
      <trkpt lat="48.57512" lon="2.57567">
        <ele>76</ele>
        <time>2013-07-13T14:23:05Z</time>
      </trkpt>
      <trkpt lat="48.57516" lon="2.57592">
        <ele>76</ele>
        <time>2013-07-13T14:23:09Z</time>
      </trkpt>
      <trkpt lat="48.57515" lon="2.57602">
        <ele>76</ele>
        <time>2013-07-13T14:23:11Z</time>
      </trkpt>
      <trkpt lat="48.57505" lon="2.5763">
        <ele>76</ele>
        <time>2013-07-13T14:23:16Z</time>
      </trkpt>
      <trkpt lat="48.575" lon="2.57655">
        <ele>76</ele>
        <time>2013-07-13T14:23:20Z</time>
      </trkpt>
      <trkpt lat="48.57493" lon="2.57675">
        <ele>76</ele>
        <time>2013-07-13T14:23:23Z</time>
      </trkpt>
      <trkpt lat="48.5749" lon="2.57687">
        <ele>75</ele>
        <time>2013-07-13T14:23:27Z</time>
      </trkpt>
      <trkpt lat="48.57487" lon="2.57705">
        <ele>75</ele>
        <time>2013-07-13T14:23:31Z</time>
      </trkpt>
      <trkpt lat="48.57478" lon="2.57751">
        <ele>73</ele>
        <time>2013-07-13T14:23:38Z</time>
      </trkpt>
      <trkpt lat="48.57475" lon="2.57781">
        <ele>73</ele>
        <time>2013-07-13T14:23:42Z</time>
      </trkpt>
      <trkpt lat="48.57467" lon="2.57796">
        <ele>73</ele>
        <time>2013-07-13T14:23:46Z</time>
      </trkpt>
      <trkpt lat="48.57461" lon="2.57792">
        <ele>73</ele>
        <time>2013-07-13T14:23:48Z</time>
      </trkpt>
      <trkpt lat="48.57432" lon="2.57763">
        <ele>74</ele>
        <time>2013-07-13T14:23:57Z</time>
      </trkpt>
      <trkpt lat="48.57406" lon="2.57747">
        <ele>76</ele>
        <time>2013-07-13T14:24:05Z</time>
      </trkpt>
      <trkpt lat="48.57375" lon="2.57731">
        <ele>77</ele>
        <time>2013-07-13T14:24:13Z</time>
      </trkpt>
      <trkpt lat="48.57351" lon="2.57716">
        <ele>78</ele>
        <time>2013-07-13T14:24:20Z</time>
      </trkpt>
      <trkpt lat="48.57329" lon="2.57703">
        <ele>80</ele>
        <time>2013-07-13T14:24:27Z</time>
      </trkpt>
      <trkpt lat="48.5732" lon="2.57698">
        <ele>80</ele>
        <time>2013-07-13T14:24:31Z</time>
      </trkpt>
      <trkpt lat="48.5731" lon="2.57709">
        <ele>80</ele>
        <time>2013-07-13T14:24:36Z</time>
      </trkpt>
      <trkpt lat="48.57309" lon="2.57714">
        <ele>80</ele>
        <time>2013-07-13T14:24:37Z</time>
      </trkpt>
      <trkpt lat="48.57299" lon="2.57763">
        <ele>80</ele>
        <time>2013-07-13T14:24:46Z</time>
      </trkpt>
      <trkpt lat="48.57287" lon="2.57802">
        <ele>79</ele>
        <time>2013-07-13T14:24:53Z</time>
      </trkpt>
      <trkpt lat="48.57275" lon="2.57844">
        <ele>79</ele>
        <time>2013-07-13T14:25:01Z</time>
      </trkpt>
      <trkpt lat="48.57262" lon="2.57887">
        <ele>79</ele>
        <time>2013-07-13T14:25:09Z</time>
      </trkpt>
      <trkpt lat="48.57246" lon="2.57933">
        <ele>80</ele>
        <time>2013-07-13T14:25:16Z</time>
      </trkpt>
      <trkpt lat="48.57221" lon="2.57989">
        <ele>79</ele>
        <time>2013-07-13T14:25:24Z</time>
      </trkpt>
      <trkpt lat="48.572" lon="2.58042">
        <ele>78</ele>
        <time>2013-07-13T14:25:31Z</time>
      </trkpt>
      <trkpt lat="48.57195" lon="2.58058">
        <ele>78</ele>
        <time>2013-07-13T14:25:33Z</time>
      </trkpt>
      <trkpt lat="48.5719" lon="2.58111">
        <ele>77</ele>
        <time>2013-07-13T14:25:39Z</time>
      </trkpt>
      <trkpt lat="48.57191" lon="2.58139">
        <ele>77</ele>
        <time>2013-07-13T14:25:42Z</time>
      </trkpt>
      <trkpt lat="48.57196" lon="2.58169">
        <ele>76</ele>
        <time>2013-07-13T14:25:46Z</time>
      </trkpt>
      <trkpt lat="48.57189" lon="2.58201">
        <ele>76</ele>
        <time>2013-07-13T14:25:51Z</time>
      </trkpt>
      <trkpt lat="48.57194" lon="2.58225">
        <ele>76</ele>
        <time>2013-07-13T14:25:55Z</time>
      </trkpt>
      <trkpt lat="48.57198" lon="2.58248">
        <ele>75</ele>
        <time>2013-07-13T14:25:58Z</time>
      </trkpt>
      <trkpt lat="48.57199" lon="2.58268">
        <ele>75</ele>
        <time>2013-07-13T14:26:01Z</time>
      </trkpt>
      <trkpt lat="48.57208" lon="2.58277">
        <ele>75</ele>
        <time>2013-07-13T14:26:03Z</time>
      </trkpt>
      <trkpt lat="48.57223" lon="2.58288">
        <ele>75</ele>
        <time>2013-07-13T14:26:06Z</time>
      </trkpt>
      <trkpt lat="48.57259" lon="2.58323">
        <ele>74</ele>
        <time>2013-07-13T14:26:13Z</time>
      </trkpt>
      <trkpt lat="48.5729" lon="2.58335">
        <ele>73</ele>
        <time>2013-07-13T14:26:18Z</time>
      </trkpt>
      <trkpt lat="48.57339" lon="2.58337">
        <ele>74</ele>
        <time>2013-07-13T14:26:25Z</time>
      </trkpt>
      <trkpt lat="48.57413" lon="2.58334">
        <ele>71</ele>
        <time>2013-07-13T14:26:35Z</time>
      </trkpt>
      <trkpt lat="48.57434" lon="2.58338">
        <ele>72</ele>
        <time>2013-07-13T14:26:38Z</time>
      </trkpt>
      <trkpt lat="48.57447" lon="2.58357">
        <ele>73</ele>
        <time>2013-07-13T14:26:42Z</time>
      </trkpt>
      <trkpt lat="48.57437" lon="2.58378">
        <ele>73</ele>
        <time>2013-07-13T14:26:45Z</time>
      </trkpt>
      <trkpt lat="48.57426" lon="2.584">
        <ele>73</ele>
        <time>2013-07-13T14:26:48Z</time>
      </trkpt>
      <trkpt lat="48.57406" lon="2.58452">
        <ele>73</ele>
        <time>2013-07-13T14:26:55Z</time>
      </trkpt>
      <trkpt lat="48.57394" lon="2.58476">
        <ele>73</ele>
        <time>2013-07-13T14:26:59Z</time>
      </trkpt>
      <trkpt lat="48.57386" lon="2.58485">
        <ele>73</ele>
        <time>2013-07-13T14:27:01Z</time>
      </trkpt>
      <trkpt lat="48.57374" lon="2.58496">
        <ele>73</ele>
        <time>2013-07-13T14:27:04Z</time>
      </trkpt>
      <trkpt lat="48.5735" lon="2.58517">
        <ele>73</ele>
        <time>2013-07-13T14:27:09Z</time>
      </trkpt>
      <trkpt lat="48.57347" lon="2.58521">
        <ele>73</ele>
        <time>2013-07-13T14:27:10Z</time>
      </trkpt>
      <trkpt lat="48.57318" lon="2.58527">
        <ele>73</ele>
        <time>2013-07-13T14:27:15Z</time>
      </trkpt>
      <trkpt lat="48.57295" lon="2.58529">
        <ele>72</ele>
        <time>2013-07-13T14:27:19Z</time>
      </trkpt>
      <trkpt lat="48.57275" lon="2.58536">
        <ele>72</ele>
        <time>2013-07-13T14:27:23Z</time>
      </trkpt>
      <trkpt lat="48.57253" lon="2.58559">
        <ele>72</ele>
        <time>2013-07-13T14:27:28Z</time>
      </trkpt>
      <trkpt lat="48.57249" lon="2.58564">
        <ele>71</ele>
        <time>2013-07-13T14:27:29Z</time>
      </trkpt>
      <trkpt lat="48.5722" lon="2.58601">
        <ele>71</ele>
        <time>2013-07-13T14:27:35Z</time>
      </trkpt>
      <trkpt lat="48.57194" lon="2.58634">
        <ele>71</ele>
        <time>2013-07-13T14:27:40Z</time>
      </trkpt>
      <trkpt lat="48.5716" lon="2.58677">
        <ele>70</ele>
        <time>2013-07-13T14:27:47Z</time>
      </trkpt>
      <trkpt lat="48.5713" lon="2.58709">
        <ele>70</ele>
        <time>2013-07-13T14:27:53Z</time>
      </trkpt>
      <trkpt lat="48.57117" lon="2.58735">
        <ele>70</ele>
        <time>2013-07-13T14:27:57Z</time>
      </trkpt>
      <trkpt lat="48.57118" lon="2.5875">
        <ele>71</ele>
        <time>2013-07-13T14:27:59Z</time>
      </trkpt>
      <trkpt lat="48.57117" lon="2.58765">
        <ele>71</ele>
        <time>2013-07-13T14:28:04Z</time>
      </trkpt>
      <trkpt lat="48.57106" lon="2.58769">
        <ele>70</ele>
        <time>2013-07-13T14:28:09Z</time>
      </trkpt>
      <trkpt lat="48.57088" lon="2.5878">
        <ele>70</ele>
        <time>2013-07-13T14:28:15Z</time>
      </trkpt>
      <trkpt lat="48.57074" lon="2.5879">
        <ele>69</ele>
        <time>2013-07-13T14:28:20Z</time>
      </trkpt>
      <trkpt lat="48.57059" lon="2.58789">
        <ele>69</ele>
        <time>2013-07-13T14:28:24Z</time>
      </trkpt>
      <trkpt lat="48.57045" lon="2.588">
        <ele>69</ele>
        <time>2013-07-13T14:28:28Z</time>
      </trkpt>
      <trkpt lat="48.57038" lon="2.58817">
        <ele>69</ele>
        <time>2013-07-13T14:28:31Z</time>
      </trkpt>
      <trkpt lat="48.57028" lon="2.58831">
        <ele>69</ele>
        <time>2013-07-13T14:28:35Z</time>
      </trkpt>
      <trkpt lat="48.57027" lon="2.58848">
        <ele>70</ele>
        <time>2013-07-13T14:28:39Z</time>
      </trkpt>
      <trkpt lat="48.57023" lon="2.58851">
        <ele>70</ele>
        <time>2013-07-13T14:28:40Z</time>
      </trkpt>
      <trkpt lat="48.56995" lon="2.58873">
        <ele>68</ele>
        <time>2013-07-13T14:28:46Z</time>
      </trkpt>
      <trkpt lat="48.5697" lon="2.5891">
        <ele>68</ele>
        <time>2013-07-13T14:28:52Z</time>
      </trkpt>
      <trkpt lat="48.56945" lon="2.58958">
        <ele>68</ele>
        <time>2013-07-13T14:28:59Z</time>
      </trkpt>
      <trkpt lat="48.56921" lon="2.59008">
        <ele>69</ele>
        <time>2013-07-13T14:29:07Z</time>
      </trkpt>
      <trkpt lat="48.56891" lon="2.59063">
        <ele>67</ele>
        <time>2013-07-13T14:29:15Z</time>
      </trkpt>
      <trkpt lat="48.56868" lon="2.59108">
        <ele>67</ele>
        <time>2013-07-13T14:29:22Z</time>
      </trkpt>
      <trkpt lat="48.56845" lon="2.59145">
        <ele>66</ele>
        <time>2013-07-13T14:29:27Z</time>
      </trkpt>
      <trkpt lat="48.568" lon="2.5922">
        <ele>68</ele>
        <time>2013-07-13T14:29:37Z</time>
      </trkpt>
      <trkpt lat="48.56796" lon="2.59226">
        <ele>68</ele>
        <time>2013-07-13T14:29:38Z</time>
      </trkpt>
      <trkpt lat="48.56775" lon="2.59246">
        <ele>69</ele>
        <time>2013-07-13T14:29:42Z</time>
      </trkpt>
      <trkpt lat="48.56733" lon="2.59265">
        <ele>71</ele>
        <time>2013-07-13T14:29:50Z</time>
      </trkpt>
      <trkpt lat="48.56728" lon="2.59267">
        <ele>71</ele>
        <time>2013-07-13T14:29:51Z</time>
      </trkpt>
      <trkpt lat="48.56718" lon="2.59273">
        <ele>71</ele>
        <time>2013-07-13T14:29:54Z</time>
      </trkpt>
      <trkpt lat="48.56713" lon="2.59265">
        <ele>71</ele>
        <time>2013-07-13T14:29:58Z</time>
      </trkpt>
      <trkpt lat="48.56712" lon="2.59261">
        <ele>71</ele>
        <time>2013-07-13T14:29:59Z</time>
      </trkpt>
      <trkpt lat="48.56706" lon="2.5923">
        <ele>70</ele>
        <time>2013-07-13T14:30:04Z</time>
      </trkpt>
      <trkpt lat="48.5669" lon="2.59216">
        <ele>70</ele>
        <time>2013-07-13T14:30:08Z</time>
      </trkpt>
      <trkpt lat="48.56666" lon="2.59218">
        <ele>72</ele>
        <time>2013-07-13T14:30:14Z</time>
      </trkpt>
      <trkpt lat="48.56655" lon="2.59235">
        <ele>72</ele>
        <time>2013-07-13T14:30:18Z</time>
      </trkpt>
      <trkpt lat="48.56649" lon="2.59274">
        <ele>73</ele>
        <time>2013-07-13T14:30:25Z</time>
      </trkpt>
      <trkpt lat="48.56647" lon="2.59297">
        <ele>73</ele>
        <time>2013-07-13T14:30:30Z</time>
      </trkpt>
      <trkpt lat="48.56637" lon="2.59303">
        <ele>74</ele>
        <time>2013-07-13T14:30:33Z</time>
      </trkpt>
      <trkpt lat="48.56613" lon="2.59314">
        <ele>74</ele>
        <time>2013-07-13T14:30:41Z</time>
      </trkpt>
      <trkpt lat="48.56588" lon="2.59324">
        <ele>75</ele>
        <time>2013-07-13T14:30:49Z</time>
      </trkpt>
      <trkpt lat="48.56567" lon="2.59339">
        <ele>77</ele>
        <time>2013-07-13T14:30:57Z</time>
      </trkpt>
      <trkpt lat="48.56559" lon="2.59352">
        <ele>77</ele>
        <time>2013-07-13T14:31:03Z</time>
      </trkpt>
      <trkpt lat="48.56556" lon="2.59368">
        <ele>77</ele>
        <time>2013-07-13T14:31:09Z</time>
      </trkpt>
      <trkpt lat="48.56556" lon="2.59369">
        <ele>77</ele>
        <time>2013-07-13T14:31:15Z</time>
      </trkpt>
    </trkseg>
  </trk>
</gpx>